<?xml version="1.0" encoding="UTF-8" standalone="no" ?>
<gpx xmlns="http://www.topografix.com/GPX/1/1" xmlns:xsi="http://www.w3.org/2001/XMLSchema-instance" xsi:schemaLocation="http://www.topografix.com/GPX/1/1 http://www.topografix.com/GPX/1/1/gpx.xsd" version="1.1" creator="VisuGPX - https://www.visugpx.com">
  <metadata>
    <name>Turriers Cold es Rouyeres</name>
    <desc><![CDATA[Circuit depuis Turriers au col des Rouyeres en montant par chez Marius et descendant par le Désert]]></desc>
  </metadata>
  <trk>
    <name><![CDATA[2017-04-06 13-33-36 on GPSies.com]]></name>
    <extensions>
      <line xmlns="http://www.topografix.com/GPX/gpx_style/0/2">
        <color>0000FF</color>
        <width>4</width>
      </line>
    </extensions>
    <trkseg>
      <trkpt lat="44.39811" lon="6.17075">
        <ele>1010.3</ele>
        <time>2017-04-06T09:47:06Z</time>
      </trkpt>
      <trkpt lat="44.39812" lon="6.17075">
        <ele>1010.3</ele>
        <time>2017-04-06T09:47:07Z</time>
      </trkpt>
      <trkpt lat="44.39819" lon="6.17056">
        <ele>1011</ele>
        <time>2017-04-06T09:47:23Z</time>
      </trkpt>
      <trkpt lat="44.39825" lon="6.17048">
        <ele>1011.8</ele>
        <time>2017-04-06T09:47:31Z</time>
      </trkpt>
      <trkpt lat="44.39826" lon="6.17048">
        <ele>1011.8</ele>
        <time>2017-04-06T09:47:32Z</time>
      </trkpt>
      <trkpt lat="44.3984" lon="6.17037">
        <ele>1013</ele>
        <time>2017-04-06T09:47:49Z</time>
      </trkpt>
      <trkpt lat="44.39846" lon="6.1703">
        <ele>1013.8</ele>
        <time>2017-04-06T09:47:54Z</time>
      </trkpt>
      <trkpt lat="44.39847" lon="6.1703">
        <ele>1013.9</ele>
        <time>2017-04-06T09:47:55Z</time>
      </trkpt>
      <trkpt lat="44.39867" lon="6.17025">
        <ele>1015.4</ele>
        <time>2017-04-06T09:48:11Z</time>
      </trkpt>
      <trkpt lat="44.39893" lon="6.17033">
        <ele>1015.8</ele>
        <time>2017-04-06T09:48:37Z</time>
      </trkpt>
      <trkpt lat="44.39907" lon="6.17027">
        <ele>1016.7</ele>
        <time>2017-04-06T09:48:59Z</time>
      </trkpt>
      <trkpt lat="44.39913" lon="6.17038">
        <ele>1016.2</ele>
        <time>2017-04-06T09:49:12Z</time>
      </trkpt>
      <trkpt lat="44.39922" lon="6.17053">
        <ele>1015.6</ele>
        <time>2017-04-06T09:49:25Z</time>
      </trkpt>
      <trkpt lat="44.39924" lon="6.17057">
        <ele>1015.5</ele>
        <time>2017-04-06T09:49:57Z</time>
      </trkpt>
      <trkpt lat="44.39896" lon="6.16991">
        <ele>1018.7</ele>
        <time>2017-04-06T10:09:27Z</time>
      </trkpt>
      <trkpt lat="44.39878" lon="6.16979">
        <ele>1019.4</ele>
        <time>2017-04-06T10:09:45Z</time>
      </trkpt>
      <trkpt lat="44.3986" lon="6.16967">
        <ele>1020.1</ele>
        <time>2017-04-06T10:10:04Z</time>
      </trkpt>
      <trkpt lat="44.39854" lon="6.16962">
        <ele>1020.2</ele>
        <time>2017-04-06T10:10:19Z</time>
      </trkpt>
      <trkpt lat="44.39853" lon="6.16967">
        <ele>1019.9</ele>
        <time>2017-04-06T10:10:47Z</time>
      </trkpt>
      <trkpt lat="44.39851" lon="6.16966">
        <ele>1020</ele>
        <time>2017-04-06T10:11:20Z</time>
      </trkpt>
      <trkpt lat="44.39851" lon="6.16966">
        <ele>1020</ele>
        <time>2017-04-06T10:11:21Z</time>
      </trkpt>
      <trkpt lat="44.39823" lon="6.1694">
        <ele>1020.3</ele>
        <time>2017-04-06T10:13:18Z</time>
      </trkpt>
      <trkpt lat="44.39802" lon="6.16938">
        <ele>1018.8</ele>
        <time>2017-04-06T10:13:41Z</time>
      </trkpt>
      <trkpt lat="44.39797" lon="6.16938">
        <ele>1018.3</ele>
        <time>2017-04-06T10:13:46Z</time>
      </trkpt>
      <trkpt lat="44.39781" lon="6.16929">
        <ele>1016.9</ele>
        <time>2017-04-06T10:14:02Z</time>
      </trkpt>
      <trkpt lat="44.39762" lon="6.16916">
        <ele>1015.9</ele>
        <time>2017-04-06T10:14:18Z</time>
      </trkpt>
      <trkpt lat="44.39746" lon="6.16897">
        <ele>1015.3</ele>
        <time>2017-04-06T10:14:37Z</time>
      </trkpt>
      <trkpt lat="44.39745" lon="6.16882">
        <ele>1015.9</ele>
        <time>2017-04-06T10:14:49Z</time>
      </trkpt>
      <trkpt lat="44.39745" lon="6.16878">
        <ele>1016</ele>
        <time>2017-04-06T10:14:51Z</time>
      </trkpt>
      <trkpt lat="44.39746" lon="6.16876">
        <ele>1016.1</ele>
        <time>2017-04-06T10:14:52Z</time>
      </trkpt>
      <trkpt lat="44.39734" lon="6.1685">
        <ele>1016.2</ele>
        <time>2017-04-06T10:15:09Z</time>
      </trkpt>
      <trkpt lat="44.39726" lon="6.16842">
        <ele>1016</ele>
        <time>2017-04-06T10:15:24Z</time>
      </trkpt>
      <trkpt lat="44.39729" lon="6.1684">
        <ele>1016.2</ele>
        <time>2017-04-06T10:15:31Z</time>
      </trkpt>
      <trkpt lat="44.39736" lon="6.16832">
        <ele>1017</ele>
        <time>2017-04-06T10:15:57Z</time>
      </trkpt>
      <trkpt lat="44.39735" lon="6.16831">
        <ele>1016.9</ele>
        <time>2017-04-06T10:15:58Z</time>
      </trkpt>
      <trkpt lat="44.39736" lon="6.16831">
        <ele>1017</ele>
        <time>2017-04-06T10:15:59Z</time>
      </trkpt>
      <trkpt lat="44.39737" lon="6.1683">
        <ele>1017</ele>
        <time>2017-04-06T10:16:00Z</time>
      </trkpt>
      <trkpt lat="44.39738" lon="6.16829">
        <ele>1017.2</ele>
        <time>2017-04-06T10:16:01Z</time>
      </trkpt>
      <trkpt lat="44.3974" lon="6.16829">
        <ele>1017.3</ele>
        <time>2017-04-06T10:16:02Z</time>
      </trkpt>
      <trkpt lat="44.39759" lon="6.16825">
        <ele>1018.2</ele>
        <time>2017-04-06T10:16:18Z</time>
      </trkpt>
      <trkpt lat="44.39781" lon="6.16822">
        <ele>1018.5</ele>
        <time>2017-04-06T10:16:36Z</time>
      </trkpt>
      <trkpt lat="44.39785" lon="6.16815">
        <ele>1018.2</ele>
        <time>2017-04-06T10:16:55Z</time>
      </trkpt>
      <trkpt lat="44.39785" lon="6.16808">
        <ele>1017.8</ele>
        <time>2017-04-06T10:17:13Z</time>
      </trkpt>
      <trkpt lat="44.39785" lon="6.16784">
        <ele>1016.4</ele>
        <time>2017-04-06T10:17:28Z</time>
      </trkpt>
      <trkpt lat="44.39786" lon="6.16758">
        <ele>1014.8</ele>
        <time>2017-04-06T10:17:51Z</time>
      </trkpt>
      <trkpt lat="44.39789" lon="6.16743">
        <ele>1013.6</ele>
        <time>2017-04-06T10:18:01Z</time>
      </trkpt>
      <trkpt lat="44.39792" lon="6.16728">
        <ele>1012.2</ele>
        <time>2017-04-06T10:18:10Z</time>
      </trkpt>
      <trkpt lat="44.39797" lon="6.16716">
        <ele>1011.4</ele>
        <time>2017-04-06T10:18:19Z</time>
      </trkpt>
      <trkpt lat="44.39792" lon="6.167">
        <ele>1008.7</ele>
        <time>2017-04-06T10:18:36Z</time>
      </trkpt>
      <trkpt lat="44.39791" lon="6.16684">
        <ele>1006.4</ele>
        <time>2017-04-06T10:18:51Z</time>
      </trkpt>
      <trkpt lat="44.39794" lon="6.16678">
        <ele>1006.1</ele>
        <time>2017-04-06T10:18:56Z</time>
      </trkpt>
      <trkpt lat="44.39818" lon="6.16649">
        <ele>1006.2</ele>
        <time>2017-04-06T10:19:22Z</time>
      </trkpt>
      <trkpt lat="44.39818" lon="6.16639">
        <ele>1005.3</ele>
        <time>2017-04-06T10:19:28Z</time>
      </trkpt>
      <trkpt lat="44.39811" lon="6.16631">
        <ele>1004.1</ele>
        <time>2017-04-06T10:19:39Z</time>
      </trkpt>
      <trkpt lat="44.39798" lon="6.1663">
        <ele>1001.1</ele>
        <time>2017-04-06T10:19:52Z</time>
      </trkpt>
      <trkpt lat="44.39798" lon="6.16633">
        <ele>1001.5</ele>
        <time>2017-04-06T10:19:57Z</time>
      </trkpt>
      <trkpt lat="44.39791" lon="6.16655">
        <ele>1002.4</ele>
        <time>2017-04-06T10:20:12Z</time>
      </trkpt>
      <trkpt lat="44.39796" lon="6.16668">
        <ele>1005.1</ele>
        <time>2017-04-06T10:20:30Z</time>
      </trkpt>
      <trkpt lat="44.39805" lon="6.16667">
        <ele>1006.9</ele>
        <time>2017-04-06T10:20:51Z</time>
      </trkpt>
      <trkpt lat="44.39801" lon="6.16656">
        <ele>1004.7</ele>
        <time>2017-04-06T10:21:27Z</time>
      </trkpt>
      <trkpt lat="44.39802" lon="6.16652">
        <ele>1004.6</ele>
        <time>2017-04-06T10:21:42Z</time>
      </trkpt>
      <trkpt lat="44.39803" lon="6.16653">
        <ele>1004.8</ele>
        <time>2017-04-06T10:22:05Z</time>
      </trkpt>
      <trkpt lat="44.39804" lon="6.16479">
        <ele>975.1</ele>
        <time>2017-04-06T10:28:17Z</time>
      </trkpt>
      <trkpt lat="44.39801" lon="6.16459">
        <ele>973.8</ele>
        <time>2017-04-06T10:28:33Z</time>
      </trkpt>
      <trkpt lat="44.39801" lon="6.16454">
        <ele>973.6</ele>
        <time>2017-04-06T10:28:37Z</time>
      </trkpt>
      <trkpt lat="44.398" lon="6.16452">
        <ele>973.6</ele>
        <time>2017-04-06T10:28:38Z</time>
      </trkpt>
      <trkpt lat="44.39799" lon="6.1645">
        <ele>973.6</ele>
        <time>2017-04-06T10:28:39Z</time>
      </trkpt>
      <trkpt lat="44.39798" lon="6.16448">
        <ele>973.6</ele>
        <time>2017-04-06T10:28:40Z</time>
      </trkpt>
      <trkpt lat="44.39797" lon="6.16447">
        <ele>973.6</ele>
        <time>2017-04-06T10:28:41Z</time>
      </trkpt>
      <trkpt lat="44.39796" lon="6.16445">
        <ele>973.7</ele>
        <time>2017-04-06T10:28:42Z</time>
      </trkpt>
      <trkpt lat="44.39792" lon="6.16422">
        <ele>975.6</ele>
        <time>2017-04-06T10:28:56Z</time>
      </trkpt>
      <trkpt lat="44.39792" lon="6.16421">
        <ele>975.7</ele>
        <time>2017-04-06T10:28:57Z</time>
      </trkpt>
      <trkpt lat="44.39792" lon="6.16419">
        <ele>975.8</ele>
        <time>2017-04-06T10:28:58Z</time>
      </trkpt>
      <trkpt lat="44.39792" lon="6.16413">
        <ele>976.3</ele>
        <time>2017-04-06T10:29:01Z</time>
      </trkpt>
      <trkpt lat="44.39792" lon="6.16412">
        <ele>976.5</ele>
        <time>2017-04-06T10:29:02Z</time>
      </trkpt>
      <trkpt lat="44.39791" lon="6.16385">
        <ele>979</ele>
        <time>2017-04-06T10:29:19Z</time>
      </trkpt>
      <trkpt lat="44.39787" lon="6.16353">
        <ele>982.1</ele>
        <time>2017-04-06T10:29:44Z</time>
      </trkpt>
      <trkpt lat="44.3978" lon="6.16334">
        <ele>984.7</ele>
        <time>2017-04-06T10:30:04Z</time>
      </trkpt>
      <trkpt lat="44.39772" lon="6.16316">
        <ele>987.3</ele>
        <time>2017-04-06T10:30:26Z</time>
      </trkpt>
      <trkpt lat="44.39768" lon="6.16304">
        <ele>989</ele>
        <time>2017-04-06T10:30:40Z</time>
      </trkpt>
      <trkpt lat="44.39956" lon="6.16031">
        <ele>1008.8</ele>
        <time>2017-04-06T10:39:37Z</time>
      </trkpt>
      <trkpt lat="44.39967" lon="6.16026">
        <ele>1008.6</ele>
        <time>2017-04-06T10:39:52Z</time>
      </trkpt>
      <trkpt lat="44.39968" lon="6.16026">
        <ele>1008.5</ele>
        <time>2017-04-06T10:39:53Z</time>
      </trkpt>
      <trkpt lat="44.39982" lon="6.16033">
        <ele>1008.8</ele>
        <time>2017-04-06T10:40:07Z</time>
      </trkpt>
      <trkpt lat="44.39986" lon="6.16038">
        <ele>1009.1</ele>
        <time>2017-04-06T10:40:12Z</time>
      </trkpt>
      <trkpt lat="44.39987" lon="6.16039">
        <ele>1009.1</ele>
        <time>2017-04-06T10:40:13Z</time>
      </trkpt>
      <trkpt lat="44.39996" lon="6.16043">
        <ele>1010.2</ele>
        <time>2017-04-06T10:40:22Z</time>
      </trkpt>
      <trkpt lat="44.39997" lon="6.16043">
        <ele>1010.4</ele>
        <time>2017-04-06T10:40:23Z</time>
      </trkpt>
      <trkpt lat="44.39997" lon="6.16043">
        <ele>1010.5</ele>
        <time>2017-04-06T10:40:24Z</time>
      </trkpt>
      <trkpt lat="44.40002" lon="6.16039">
        <ele>1011.6</ele>
        <time>2017-04-06T10:40:30Z</time>
      </trkpt>
      <trkpt lat="44.40003" lon="6.16038">
        <ele>1011.8</ele>
        <time>2017-04-06T10:40:31Z</time>
      </trkpt>
      <trkpt lat="44.40003" lon="6.16037">
        <ele>1012</ele>
        <time>2017-04-06T10:40:32Z</time>
      </trkpt>
      <trkpt lat="44.40003" lon="6.16035">
        <ele>1012.1</ele>
        <time>2017-04-06T10:40:34Z</time>
      </trkpt>
      <trkpt lat="44.40004" lon="6.16033">
        <ele>1012.4</ele>
        <time>2017-04-06T10:40:37Z</time>
      </trkpt>
      <trkpt lat="44.39995" lon="6.16019">
        <ele>1011.9</ele>
        <time>2017-04-06T10:40:48Z</time>
      </trkpt>
      <trkpt lat="44.39991" lon="6.16002">
        <ele>1012.5</ele>
        <time>2017-04-06T10:41:03Z</time>
      </trkpt>
      <trkpt lat="44.39989" lon="6.15992">
        <ele>1013.1</ele>
        <time>2017-04-06T10:41:12Z</time>
      </trkpt>
      <trkpt lat="44.3999" lon="6.15978">
        <ele>1014.2</ele>
        <time>2017-04-06T10:41:24Z</time>
      </trkpt>
      <trkpt lat="44.39992" lon="6.15972">
        <ele>1014.7</ele>
        <time>2017-04-06T10:41:31Z</time>
      </trkpt>
      <trkpt lat="44.39991" lon="6.15965">
        <ele>1015.1</ele>
        <time>2017-04-06T10:41:35Z</time>
      </trkpt>
      <trkpt lat="44.39991" lon="6.15962">
        <ele>1015.3</ele>
        <time>2017-04-06T10:41:37Z</time>
      </trkpt>
      <trkpt lat="44.3999" lon="6.15957">
        <ele>1015.6</ele>
        <time>2017-04-06T10:41:40Z</time>
      </trkpt>
      <trkpt lat="44.39991" lon="6.15955">
        <ele>1015.7</ele>
        <time>2017-04-06T10:41:43Z</time>
      </trkpt>
      <trkpt lat="44.39991" lon="6.15946">
        <ele>1016.2</ele>
        <time>2017-04-06T10:41:51Z</time>
      </trkpt>
      <trkpt lat="44.39991" lon="6.15944">
        <ele>1016.3</ele>
        <time>2017-04-06T10:41:52Z</time>
      </trkpt>
      <trkpt lat="44.39992" lon="6.15938">
        <ele>1016.8</ele>
        <time>2017-04-06T10:41:57Z</time>
      </trkpt>
      <trkpt lat="44.39992" lon="6.15937">
        <ele>1016.9</ele>
        <time>2017-04-06T10:41:58Z</time>
      </trkpt>
      <trkpt lat="44.39994" lon="6.15921">
        <ele>1018.1</ele>
        <time>2017-04-06T10:42:13Z</time>
      </trkpt>
      <trkpt lat="44.39993" lon="6.15898">
        <ele>1017.7</ele>
        <time>2017-04-06T10:42:32Z</time>
      </trkpt>
      <trkpt lat="44.39986" lon="6.15877">
        <ele>1016.7</ele>
        <time>2017-04-06T10:42:48Z</time>
      </trkpt>
      <trkpt lat="44.39982" lon="6.15873">
        <ele>1016.5</ele>
        <time>2017-04-06T10:42:52Z</time>
      </trkpt>
      <trkpt lat="44.39974" lon="6.15859">
        <ele>1015.4</ele>
        <time>2017-04-06T10:43:09Z</time>
      </trkpt>
      <trkpt lat="44.39962" lon="6.15847">
        <ele>1014.9</ele>
        <time>2017-04-06T10:43:27Z</time>
      </trkpt>
      <trkpt lat="44.39951" lon="6.15839">
        <ele>1015.3</ele>
        <time>2017-04-06T10:43:36Z</time>
      </trkpt>
      <trkpt lat="44.39936" lon="6.15832">
        <ele>1016.2</ele>
        <time>2017-04-06T10:43:53Z</time>
      </trkpt>
      <trkpt lat="44.39922" lon="6.15824">
        <ele>1016.5</ele>
        <time>2017-04-06T10:44:10Z</time>
      </trkpt>
      <trkpt lat="44.39908" lon="6.15817">
        <ele>1015.5</ele>
        <time>2017-04-06T10:44:27Z</time>
      </trkpt>
      <trkpt lat="44.39885" lon="6.15807">
        <ele>1012.1</ele>
        <time>2017-04-06T10:44:49Z</time>
      </trkpt>
      <trkpt lat="44.39867" lon="6.15812">
        <ele>1011.1</ele>
        <time>2017-04-06T10:45:09Z</time>
      </trkpt>
      <trkpt lat="44.39861" lon="6.15812">
        <ele>1010.1</ele>
        <time>2017-04-06T10:45:15Z</time>
      </trkpt>
      <trkpt lat="44.39851" lon="6.15842">
        <ele>1016.2</ele>
        <time>2017-04-06T10:45:36Z</time>
      </trkpt>
      <trkpt lat="44.3985" lon="6.15843">
        <ele>1016.3</ele>
        <time>2017-04-06T10:45:37Z</time>
      </trkpt>
      <trkpt lat="44.39834" lon="6.15859">
        <ele>1014.7</ele>
        <time>2017-04-06T10:45:54Z</time>
      </trkpt>
      <trkpt lat="44.39816" lon="6.15867">
        <ele>1012.8</ele>
        <time>2017-04-06T10:46:10Z</time>
      </trkpt>
      <trkpt lat="44.39801" lon="6.15874">
        <ele>1012.6</ele>
        <time>2017-04-06T10:46:25Z</time>
      </trkpt>
      <trkpt lat="44.39781" lon="6.15882">
        <ele>1012.8</ele>
        <time>2017-04-06T10:46:44Z</time>
      </trkpt>
      <trkpt lat="44.39763" lon="6.15888">
        <ele>1012.5</ele>
        <time>2017-04-06T10:47:01Z</time>
      </trkpt>
      <trkpt lat="44.39755" lon="6.15892">
        <ele>1012.9</ele>
        <time>2017-04-06T10:47:08Z</time>
      </trkpt>
      <trkpt lat="44.39754" lon="6.15893">
        <ele>1012.8</ele>
        <time>2017-04-06T10:47:09Z</time>
      </trkpt>
      <trkpt lat="44.39745" lon="6.15892">
        <ele>1013.1</ele>
        <time>2017-04-06T10:47:18Z</time>
      </trkpt>
      <trkpt lat="44.39727" lon="6.15893">
        <ele>1015.1</ele>
        <time>2017-04-06T10:47:34Z</time>
      </trkpt>
      <trkpt lat="44.39726" lon="6.15895">
        <ele>1015.2</ele>
        <time>2017-04-06T10:47:35Z</time>
      </trkpt>
      <trkpt lat="44.39725" lon="6.15896">
        <ele>1015.3</ele>
        <time>2017-04-06T10:47:36Z</time>
      </trkpt>
      <trkpt lat="44.39718" lon="6.15905">
        <ele>1015.2</ele>
        <time>2017-04-06T10:47:45Z</time>
      </trkpt>
      <trkpt lat="44.39716" lon="6.15907">
        <ele>1015.1</ele>
        <time>2017-04-06T10:47:47Z</time>
      </trkpt>
      <trkpt lat="44.39716" lon="6.15907">
        <ele>1015.1</ele>
        <time>2017-04-06T10:47:48Z</time>
      </trkpt>
      <trkpt lat="44.39705" lon="6.15915">
        <ele>1015.3</ele>
        <time>2017-04-06T10:48:02Z</time>
      </trkpt>
      <trkpt lat="44.39688" lon="6.15913">
        <ele>1016.5</ele>
        <time>2017-04-06T10:48:18Z</time>
      </trkpt>
      <trkpt lat="44.39671" lon="6.15908">
        <ele>1017.4</ele>
        <time>2017-04-06T10:48:37Z</time>
      </trkpt>
      <trkpt lat="44.39654" lon="6.15898">
        <ele>1018.8</ele>
        <time>2017-04-06T10:48:58Z</time>
      </trkpt>
      <trkpt lat="44.39644" lon="6.15896">
        <ele>1019.3</ele>
        <time>2017-04-06T10:49:11Z</time>
      </trkpt>
      <trkpt lat="44.39628" lon="6.15887">
        <ele>1021.1</ele>
        <time>2017-04-06T10:49:31Z</time>
      </trkpt>
      <trkpt lat="44.39625" lon="6.15869">
        <ele>1023.8</ele>
        <time>2017-04-06T10:49:47Z</time>
      </trkpt>
      <trkpt lat="44.39626" lon="6.15867">
        <ele>1024</ele>
        <time>2017-04-06T10:49:48Z</time>
      </trkpt>
      <trkpt lat="44.39628" lon="6.15852">
        <ele>1025.6</ele>
        <time>2017-04-06T10:49:59Z</time>
      </trkpt>
      <trkpt lat="44.39634" lon="6.15835">
        <ele>1026.4</ele>
        <time>2017-04-06T10:50:14Z</time>
      </trkpt>
      <trkpt lat="44.39634" lon="6.15825">
        <ele>1027.1</ele>
        <time>2017-04-06T10:50:25Z</time>
      </trkpt>
      <trkpt lat="44.39633" lon="6.15824">
        <ele>1027.3</ele>
        <time>2017-04-06T10:50:26Z</time>
      </trkpt>
      <trkpt lat="44.39633" lon="6.15821">
        <ele>1027.5</ele>
        <time>2017-04-06T10:50:28Z</time>
      </trkpt>
      <trkpt lat="44.39633" lon="6.1582">
        <ele>1027.6</ele>
        <time>2017-04-06T10:50:29Z</time>
      </trkpt>
      <trkpt lat="44.39633" lon="6.15818">
        <ele>1027.7</ele>
        <time>2017-04-06T10:50:30Z</time>
      </trkpt>
      <trkpt lat="44.39633" lon="6.15817">
        <ele>1027.8</ele>
        <time>2017-04-06T10:50:31Z</time>
      </trkpt>
      <trkpt lat="44.39633" lon="6.15816">
        <ele>1027.9</ele>
        <time>2017-04-06T10:50:32Z</time>
      </trkpt>
      <trkpt lat="44.39633" lon="6.15815">
        <ele>1028</ele>
        <time>2017-04-06T10:50:33Z</time>
      </trkpt>
      <trkpt lat="44.39633" lon="6.15797">
        <ele>1029.3</ele>
        <time>2017-04-06T10:50:48Z</time>
      </trkpt>
      <trkpt lat="44.39635" lon="6.15791">
        <ele>1029.5</ele>
        <time>2017-04-06T10:51:07Z</time>
      </trkpt>
      <trkpt lat="44.39635" lon="6.1579">
        <ele>1029.6</ele>
        <time>2017-04-06T10:51:09Z</time>
      </trkpt>
      <trkpt lat="44.39638" lon="6.15777">
        <ele>1030.2</ele>
        <time>2017-04-06T10:51:18Z</time>
      </trkpt>
      <trkpt lat="44.39643" lon="6.15761">
        <ele>1031.4</ele>
        <time>2017-04-06T10:51:33Z</time>
      </trkpt>
      <trkpt lat="44.39646" lon="6.15745">
        <ele>1032.6</ele>
        <time>2017-04-06T10:51:47Z</time>
      </trkpt>
      <trkpt lat="44.39648" lon="6.15729">
        <ele>1033.8</ele>
        <time>2017-04-06T10:52:02Z</time>
      </trkpt>
      <trkpt lat="44.39649" lon="6.15702">
        <ele>1035.3</ele>
        <time>2017-04-06T10:52:22Z</time>
      </trkpt>
      <trkpt lat="44.39647" lon="6.15697">
        <ele>1035.6</ele>
        <time>2017-04-06T10:52:25Z</time>
      </trkpt>
      <trkpt lat="44.39644" lon="6.1568">
        <ele>1036.3</ele>
        <time>2017-04-06T10:52:36Z</time>
      </trkpt>
      <trkpt lat="44.39644" lon="6.15679">
        <ele>1036.4</ele>
        <time>2017-04-06T10:52:37Z</time>
      </trkpt>
      <trkpt lat="44.39644" lon="6.15677">
        <ele>1036.5</ele>
        <time>2017-04-06T10:52:38Z</time>
      </trkpt>
      <trkpt lat="44.39643" lon="6.15676">
        <ele>1036.5</ele>
        <time>2017-04-06T10:52:39Z</time>
      </trkpt>
      <trkpt lat="44.39643" lon="6.15674">
        <ele>1036.6</ele>
        <time>2017-04-06T10:52:40Z</time>
      </trkpt>
      <trkpt lat="44.39643" lon="6.15672">
        <ele>1036.7</ele>
        <time>2017-04-06T10:52:41Z</time>
      </trkpt>
      <trkpt lat="44.39642" lon="6.15671">
        <ele>1036.7</ele>
        <time>2017-04-06T10:52:42Z</time>
      </trkpt>
      <trkpt lat="44.39635" lon="6.15658">
        <ele>1036.9</ele>
        <time>2017-04-06T10:52:57Z</time>
      </trkpt>
      <trkpt lat="44.39623" lon="6.15635">
        <ele>1037</ele>
        <time>2017-04-06T10:53:18Z</time>
      </trkpt>
      <trkpt lat="44.39615" lon="6.15622">
        <ele>1037.1</ele>
        <time>2017-04-06T10:53:32Z</time>
      </trkpt>
      <trkpt lat="44.39606" lon="6.15606">
        <ele>1037.2</ele>
        <time>2017-04-06T10:53:47Z</time>
      </trkpt>
      <trkpt lat="44.39599" lon="6.15585">
        <ele>1037</ele>
        <time>2017-04-06T10:54:06Z</time>
      </trkpt>
      <trkpt lat="44.39596" lon="6.15582">
        <ele>1037.1</ele>
        <time>2017-04-06T10:54:09Z</time>
      </trkpt>
      <trkpt lat="44.39592" lon="6.15561">
        <ele>1037.1</ele>
        <time>2017-04-06T10:54:25Z</time>
      </trkpt>
      <trkpt lat="44.39588" lon="6.15544">
        <ele>1037</ele>
        <time>2017-04-06T10:54:39Z</time>
      </trkpt>
      <trkpt lat="44.39582" lon="6.15511">
        <ele>1037.2</ele>
        <time>2017-04-06T10:55:06Z</time>
      </trkpt>
      <trkpt lat="44.3958" lon="6.15503">
        <ele>1037.6</ele>
        <time>2017-04-06T10:55:29Z</time>
      </trkpt>
      <trkpt lat="44.39579" lon="6.15478">
        <ele>1037.2</ele>
        <time>2017-04-06T10:55:47Z</time>
      </trkpt>
      <trkpt lat="44.39577" lon="6.1546">
        <ele>1037</ele>
        <time>2017-04-06T10:56:02Z</time>
      </trkpt>
      <trkpt lat="44.39563" lon="6.15434">
        <ele>1038.3</ele>
        <time>2017-04-06T10:56:25Z</time>
      </trkpt>
      <trkpt lat="44.39553" lon="6.15419">
        <ele>1038.7</ele>
        <time>2017-04-06T10:56:38Z</time>
      </trkpt>
      <trkpt lat="44.39539" lon="6.15405">
        <ele>1039.3</ele>
        <time>2017-04-06T10:56:55Z</time>
      </trkpt>
      <trkpt lat="44.39538" lon="6.15393">
        <ele>1037.7</ele>
        <time>2017-04-06T10:57:04Z</time>
      </trkpt>
      <trkpt lat="44.39543" lon="6.15381">
        <ele>1036.2</ele>
        <time>2017-04-06T10:57:13Z</time>
      </trkpt>
      <trkpt lat="44.3956" lon="6.1537">
        <ele>1035</ele>
        <time>2017-04-06T10:57:33Z</time>
      </trkpt>
      <trkpt lat="44.39581" lon="6.15363">
        <ele>1034</ele>
        <time>2017-04-06T10:57:53Z</time>
      </trkpt>
      <trkpt lat="44.39584" lon="6.15353">
        <ele>1034.8</ele>
        <time>2017-04-06T10:58:02Z</time>
      </trkpt>
      <trkpt lat="44.39585" lon="6.15351">
        <ele>1034.9</ele>
        <time>2017-04-06T10:58:03Z</time>
      </trkpt>
      <trkpt lat="44.39587" lon="6.15334">
        <ele>1036.4</ele>
        <time>2017-04-06T10:58:15Z</time>
      </trkpt>
      <trkpt lat="44.39588" lon="6.15311">
        <ele>1036.8</ele>
        <time>2017-04-06T10:58:32Z</time>
      </trkpt>
      <trkpt lat="44.39586" lon="6.15298">
        <ele>1036.7</ele>
        <time>2017-04-06T10:58:43Z</time>
      </trkpt>
      <trkpt lat="44.39581" lon="6.15283">
        <ele>1036.9</ele>
        <time>2017-04-06T10:58:55Z</time>
      </trkpt>
      <trkpt lat="44.39575" lon="6.1526">
        <ele>1034.3</ele>
        <time>2017-04-06T10:59:12Z</time>
      </trkpt>
      <trkpt lat="44.39573" lon="6.15241">
        <ele>1031</ele>
        <time>2017-04-06T10:59:25Z</time>
      </trkpt>
      <trkpt lat="44.39575" lon="6.15233">
        <ele>1028.8</ele>
        <time>2017-04-06T10:59:31Z</time>
      </trkpt>
      <trkpt lat="44.39575" lon="6.15217">
        <ele>1025.2</ele>
        <time>2017-04-06T10:59:42Z</time>
      </trkpt>
      <trkpt lat="44.39575" lon="6.1521">
        <ele>1024.2</ele>
        <time>2017-04-06T10:59:48Z</time>
      </trkpt>
      <trkpt lat="44.39574" lon="6.15208">
        <ele>1024.1</ele>
        <time>2017-04-06T10:59:49Z</time>
      </trkpt>
      <trkpt lat="44.39574" lon="6.15207">
        <ele>1024</ele>
        <time>2017-04-06T10:59:50Z</time>
      </trkpt>
      <trkpt lat="44.3957" lon="6.15191">
        <ele>1023</ele>
        <time>2017-04-06T11:00:04Z</time>
      </trkpt>
      <trkpt lat="44.39556" lon="6.15179">
        <ele>1027.2</ele>
        <time>2017-04-06T11:00:22Z</time>
      </trkpt>
      <trkpt lat="44.39541" lon="6.15187">
        <ele>1031.8</ele>
        <time>2017-04-06T11:00:36Z</time>
      </trkpt>
      <trkpt lat="44.39522" lon="6.152">
        <ele>1036.7</ele>
        <time>2017-04-06T11:00:57Z</time>
      </trkpt>
      <trkpt lat="44.39505" lon="6.152">
        <ele>1036.2</ele>
        <time>2017-04-06T11:01:16Z</time>
      </trkpt>
      <trkpt lat="44.39503" lon="6.15198">
        <ele>1035.8</ele>
        <time>2017-04-06T11:01:18Z</time>
      </trkpt>
      <trkpt lat="44.3949" lon="6.15185">
        <ele>1035</ele>
        <time>2017-04-06T11:01:32Z</time>
      </trkpt>
      <trkpt lat="44.39474" lon="6.15172">
        <ele>1034.7</ele>
        <time>2017-04-06T11:01:49Z</time>
      </trkpt>
      <trkpt lat="44.39464" lon="6.15151">
        <ele>1033</ele>
        <time>2017-04-06T11:02:06Z</time>
      </trkpt>
      <trkpt lat="44.39458" lon="6.15127">
        <ele>1033.5</ele>
        <time>2017-04-06T11:02:22Z</time>
      </trkpt>
      <trkpt lat="44.39456" lon="6.15111">
        <ele>1035.3</ele>
        <time>2017-04-06T11:02:32Z</time>
      </trkpt>
      <trkpt lat="44.39454" lon="6.15098">
        <ele>1036.3</ele>
        <time>2017-04-06T11:02:43Z</time>
      </trkpt>
      <trkpt lat="44.39454" lon="6.15096">
        <ele>1036.3</ele>
        <time>2017-04-06T11:02:44Z</time>
      </trkpt>
      <trkpt lat="44.39454" lon="6.15094">
        <ele>1036.5</ele>
        <time>2017-04-06T11:02:45Z</time>
      </trkpt>
      <trkpt lat="44.39453" lon="6.1508">
        <ele>1037.6</ele>
        <time>2017-04-06T11:02:54Z</time>
      </trkpt>
      <trkpt lat="44.39451" lon="6.1507">
        <ele>1038.6</ele>
        <time>2017-04-06T11:03:03Z</time>
      </trkpt>
      <trkpt lat="44.39451" lon="6.15069">
        <ele>1038.5</ele>
        <time>2017-04-06T11:03:04Z</time>
      </trkpt>
      <trkpt lat="44.39451" lon="6.15067">
        <ele>1038.6</ele>
        <time>2017-04-06T11:03:05Z</time>
      </trkpt>
      <trkpt lat="44.39451" lon="6.1506">
        <ele>1038.8</ele>
        <time>2017-04-06T11:03:09Z</time>
      </trkpt>
      <trkpt lat="44.39451" lon="6.15051">
        <ele>1038.9</ele>
        <time>2017-04-06T11:03:15Z</time>
      </trkpt>
      <trkpt lat="44.39452" lon="6.15045">
        <ele>1038.4</ele>
        <time>2017-04-06T11:03:19Z</time>
      </trkpt>
      <trkpt lat="44.39453" lon="6.15044">
        <ele>1038.1</ele>
        <time>2017-04-06T11:03:20Z</time>
      </trkpt>
      <trkpt lat="44.39453" lon="6.15043">
        <ele>1038</ele>
        <time>2017-04-06T11:03:21Z</time>
      </trkpt>
      <trkpt lat="44.39454" lon="6.15041">
        <ele>1037.8</ele>
        <time>2017-04-06T11:03:22Z</time>
      </trkpt>
      <trkpt lat="44.39454" lon="6.1504">
        <ele>1037.9</ele>
        <time>2017-04-06T11:03:23Z</time>
      </trkpt>
      <trkpt lat="44.39454" lon="6.15038">
        <ele>1037.9</ele>
        <time>2017-04-06T11:03:24Z</time>
      </trkpt>
      <trkpt lat="44.39454" lon="6.15037">
        <ele>1038.1</ele>
        <time>2017-04-06T11:03:25Z</time>
      </trkpt>
      <trkpt lat="44.39454" lon="6.15036">
        <ele>1038.1</ele>
        <time>2017-04-06T11:03:26Z</time>
      </trkpt>
      <trkpt lat="44.39454" lon="6.15034">
        <ele>1037.9</ele>
        <time>2017-04-06T11:03:27Z</time>
      </trkpt>
      <trkpt lat="44.39454" lon="6.15032">
        <ele>1038</ele>
        <time>2017-04-06T11:03:28Z</time>
      </trkpt>
      <trkpt lat="44.39454" lon="6.1503">
        <ele>1038.2</ele>
        <time>2017-04-06T11:03:29Z</time>
      </trkpt>
      <trkpt lat="44.39454" lon="6.15029">
        <ele>1038.4</ele>
        <time>2017-04-06T11:03:30Z</time>
      </trkpt>
      <trkpt lat="44.39454" lon="6.15027">
        <ele>1038.2</ele>
        <time>2017-04-06T11:03:31Z</time>
      </trkpt>
      <trkpt lat="44.39455" lon="6.15026">
        <ele>1037.9</ele>
        <time>2017-04-06T11:03:32Z</time>
      </trkpt>
      <trkpt lat="44.39455" lon="6.15025">
        <ele>1037.8</ele>
        <time>2017-04-06T11:03:33Z</time>
      </trkpt>
      <trkpt lat="44.39455" lon="6.15023">
        <ele>1037.7</ele>
        <time>2017-04-06T11:03:34Z</time>
      </trkpt>
      <trkpt lat="44.39455" lon="6.15022">
        <ele>1037.9</ele>
        <time>2017-04-06T11:03:35Z</time>
      </trkpt>
      <trkpt lat="44.39455" lon="6.1502">
        <ele>1038</ele>
        <time>2017-04-06T11:03:36Z</time>
      </trkpt>
      <trkpt lat="44.39455" lon="6.15018">
        <ele>1037.9</ele>
        <time>2017-04-06T11:03:37Z</time>
      </trkpt>
      <trkpt lat="44.39455" lon="6.15016">
        <ele>1037.8</ele>
        <time>2017-04-06T11:03:38Z</time>
      </trkpt>
      <trkpt lat="44.39455" lon="6.15014">
        <ele>1037.9</ele>
        <time>2017-04-06T11:03:39Z</time>
      </trkpt>
      <trkpt lat="44.39455" lon="6.15013">
        <ele>1037.9</ele>
        <time>2017-04-06T11:03:40Z</time>
      </trkpt>
      <trkpt lat="44.39456" lon="6.1501">
        <ele>1037.7</ele>
        <time>2017-04-06T11:03:42Z</time>
      </trkpt>
      <trkpt lat="44.39456" lon="6.15008">
        <ele>1037.5</ele>
        <time>2017-04-06T11:03:43Z</time>
      </trkpt>
      <trkpt lat="44.39456" lon="6.15006">
        <ele>1037.5</ele>
        <time>2017-04-06T11:03:44Z</time>
      </trkpt>
      <trkpt lat="44.39457" lon="6.15002">
        <ele>1037.4</ele>
        <time>2017-04-06T11:03:47Z</time>
      </trkpt>
      <trkpt lat="44.39458" lon="6.15">
        <ele>1037.2</ele>
        <time>2017-04-06T11:03:48Z</time>
      </trkpt>
      <trkpt lat="44.39459" lon="6.14999">
        <ele>1036.9</ele>
        <time>2017-04-06T11:03:49Z</time>
      </trkpt>
      <trkpt lat="44.3946" lon="6.14998">
        <ele>1036.7</ele>
        <time>2017-04-06T11:03:50Z</time>
      </trkpt>
      <trkpt lat="44.3946" lon="6.14996">
        <ele>1036.6</ele>
        <time>2017-04-06T11:03:51Z</time>
      </trkpt>
      <trkpt lat="44.39459" lon="6.14996">
        <ele>1036.9</ele>
        <time>2017-04-06T11:03:52Z</time>
      </trkpt>
      <trkpt lat="44.3946" lon="6.14995">
        <ele>1036.8</ele>
        <time>2017-04-06T11:03:53Z</time>
      </trkpt>
      <trkpt lat="44.3946" lon="6.14993">
        <ele>1036.7</ele>
        <time>2017-04-06T11:03:54Z</time>
      </trkpt>
      <trkpt lat="44.39461" lon="6.14992">
        <ele>1036.6</ele>
        <time>2017-04-06T11:03:55Z</time>
      </trkpt>
      <trkpt lat="44.39463" lon="6.14991">
        <ele>1036.1</ele>
        <time>2017-04-06T11:03:56Z</time>
      </trkpt>
      <trkpt lat="44.39464" lon="6.1499">
        <ele>1035.9</ele>
        <time>2017-04-06T11:03:57Z</time>
      </trkpt>
      <trkpt lat="44.39465" lon="6.14988">
        <ele>1035.8</ele>
        <time>2017-04-06T11:03:58Z</time>
      </trkpt>
      <trkpt lat="44.39471" lon="6.14986">
        <ele>1034.2</ele>
        <time>2017-04-06T11:04:04Z</time>
      </trkpt>
      <trkpt lat="44.39472" lon="6.14985">
        <ele>1034.1</ele>
        <time>2017-04-06T11:04:05Z</time>
      </trkpt>
      <trkpt lat="44.39474" lon="6.14985">
        <ele>1034.3</ele>
        <time>2017-04-06T11:04:06Z</time>
      </trkpt>
      <trkpt lat="44.3948" lon="6.14978">
        <ele>1036</ele>
        <time>2017-04-06T11:04:14Z</time>
      </trkpt>
      <trkpt lat="44.39481" lon="6.14978">
        <ele>1036.1</ele>
        <time>2017-04-06T11:04:15Z</time>
      </trkpt>
      <trkpt lat="44.39482" lon="6.14978">
        <ele>1036.2</ele>
        <time>2017-04-06T11:04:16Z</time>
      </trkpt>
      <trkpt lat="44.39483" lon="6.14977">
        <ele>1036.5</ele>
        <time>2017-04-06T11:04:17Z</time>
      </trkpt>
      <trkpt lat="44.39483" lon="6.14975">
        <ele>1036.7</ele>
        <time>2017-04-06T11:04:18Z</time>
      </trkpt>
      <trkpt lat="44.39484" lon="6.14974">
        <ele>1036.9</ele>
        <time>2017-04-06T11:04:19Z</time>
      </trkpt>
      <trkpt lat="44.39484" lon="6.14973">
        <ele>1037.1</ele>
        <time>2017-04-06T11:04:20Z</time>
      </trkpt>
      <trkpt lat="44.39487" lon="6.14966">
        <ele>1038</ele>
        <time>2017-04-06T11:04:27Z</time>
      </trkpt>
      <trkpt lat="44.39486" lon="6.14965">
        <ele>1038.1</ele>
        <time>2017-04-06T11:04:28Z</time>
      </trkpt>
      <trkpt lat="44.39486" lon="6.14963">
        <ele>1038.1</ele>
        <time>2017-04-06T11:04:29Z</time>
      </trkpt>
      <trkpt lat="44.39486" lon="6.14961">
        <ele>1038.2</ele>
        <time>2017-04-06T11:04:30Z</time>
      </trkpt>
      <trkpt lat="44.39486" lon="6.14961">
        <ele>1038.4</ele>
        <time>2017-04-06T11:04:31Z</time>
      </trkpt>
      <trkpt lat="44.39486" lon="6.14959">
        <ele>1038.5</ele>
        <time>2017-04-06T11:04:32Z</time>
      </trkpt>
      <trkpt lat="44.39486" lon="6.14957">
        <ele>1038.6</ele>
        <time>2017-04-06T11:04:33Z</time>
      </trkpt>
      <trkpt lat="44.39485" lon="6.14955">
        <ele>1038.6</ele>
        <time>2017-04-06T11:04:34Z</time>
      </trkpt>
      <trkpt lat="44.39485" lon="6.14953">
        <ele>1038.7</ele>
        <time>2017-04-06T11:04:35Z</time>
      </trkpt>
      <trkpt lat="44.39485" lon="6.14951">
        <ele>1038.8</ele>
        <time>2017-04-06T11:04:36Z</time>
      </trkpt>
      <trkpt lat="44.39485" lon="6.14949">
        <ele>1039</ele>
        <time>2017-04-06T11:04:37Z</time>
      </trkpt>
      <trkpt lat="44.39485" lon="6.14948">
        <ele>1039</ele>
        <time>2017-04-06T11:04:38Z</time>
      </trkpt>
      <trkpt lat="44.39485" lon="6.14946">
        <ele>1039.1</ele>
        <time>2017-04-06T11:04:39Z</time>
      </trkpt>
      <trkpt lat="44.39485" lon="6.14944">
        <ele>1039.2</ele>
        <time>2017-04-06T11:04:40Z</time>
      </trkpt>
      <trkpt lat="44.39485" lon="6.14942">
        <ele>1039.6</ele>
        <time>2017-04-06T11:04:43Z</time>
      </trkpt>
      <trkpt lat="44.39486" lon="6.14941">
        <ele>1039.8</ele>
        <time>2017-04-06T11:04:44Z</time>
      </trkpt>
      <trkpt lat="44.39485" lon="6.14939">
        <ele>1039.9</ele>
        <time>2017-04-06T11:04:45Z</time>
      </trkpt>
      <trkpt lat="44.39485" lon="6.14938">
        <ele>1040</ele>
        <time>2017-04-06T11:04:46Z</time>
      </trkpt>
      <trkpt lat="44.39485" lon="6.14936">
        <ele>1040.1</ele>
        <time>2017-04-06T11:04:47Z</time>
      </trkpt>
      <trkpt lat="44.39484" lon="6.14936">
        <ele>1040.1</ele>
        <time>2017-04-06T11:04:48Z</time>
      </trkpt>
      <trkpt lat="44.39485" lon="6.14935">
        <ele>1040.2</ele>
        <time>2017-04-06T11:04:49Z</time>
      </trkpt>
      <trkpt lat="44.39485" lon="6.14934">
        <ele>1040.4</ele>
        <time>2017-04-06T11:04:50Z</time>
      </trkpt>
      <trkpt lat="44.39485" lon="6.14933">
        <ele>1040.6</ele>
        <time>2017-04-06T11:04:51Z</time>
      </trkpt>
      <trkpt lat="44.39486" lon="6.14933">
        <ele>1040.7</ele>
        <time>2017-04-06T11:04:52Z</time>
      </trkpt>
      <trkpt lat="44.39486" lon="6.14932">
        <ele>1040.8</ele>
        <time>2017-04-06T11:04:53Z</time>
      </trkpt>
      <trkpt lat="44.39486" lon="6.14931">
        <ele>1041</ele>
        <time>2017-04-06T11:04:54Z</time>
      </trkpt>
      <trkpt lat="44.39486" lon="6.14929">
        <ele>1041.1</ele>
        <time>2017-04-06T11:04:55Z</time>
      </trkpt>
      <trkpt lat="44.39484" lon="6.14924">
        <ele>1041.3</ele>
        <time>2017-04-06T11:04:59Z</time>
      </trkpt>
      <trkpt lat="44.39483" lon="6.14923">
        <ele>1041.2</ele>
        <time>2017-04-06T11:05:00Z</time>
      </trkpt>
      <trkpt lat="44.39483" lon="6.14923">
        <ele>1041.2</ele>
        <time>2017-04-06T11:05:01Z</time>
      </trkpt>
      <trkpt lat="44.39481" lon="6.14916">
        <ele>1041.7</ele>
        <time>2017-04-06T11:05:08Z</time>
      </trkpt>
      <trkpt lat="44.39481" lon="6.14915">
        <ele>1041.8</ele>
        <time>2017-04-06T11:05:09Z</time>
      </trkpt>
      <trkpt lat="44.39482" lon="6.14913">
        <ele>1041.9</ele>
        <time>2017-04-06T11:05:10Z</time>
      </trkpt>
      <trkpt lat="44.39483" lon="6.1491">
        <ele>1042.5</ele>
        <time>2017-04-06T11:05:15Z</time>
      </trkpt>
      <trkpt lat="44.39484" lon="6.14905">
        <ele>1043</ele>
        <time>2017-04-06T11:05:19Z</time>
      </trkpt>
      <trkpt lat="44.39484" lon="6.14904">
        <ele>1043.1</ele>
        <time>2017-04-06T11:05:20Z</time>
      </trkpt>
      <trkpt lat="44.39485" lon="6.14903">
        <ele>1043.3</ele>
        <time>2017-04-06T11:05:21Z</time>
      </trkpt>
      <trkpt lat="44.39485" lon="6.14901">
        <ele>1043.4</ele>
        <time>2017-04-06T11:05:22Z</time>
      </trkpt>
      <trkpt lat="44.39485" lon="6.149">
        <ele>1043.5</ele>
        <time>2017-04-06T11:05:23Z</time>
      </trkpt>
      <trkpt lat="44.39485" lon="6.14897">
        <ele>1043.7</ele>
        <time>2017-04-06T11:05:25Z</time>
      </trkpt>
      <trkpt lat="44.39485" lon="6.14896">
        <ele>1043.9</ele>
        <time>2017-04-06T11:05:26Z</time>
      </trkpt>
      <trkpt lat="44.39486" lon="6.14894">
        <ele>1044.1</ele>
        <time>2017-04-06T11:05:27Z</time>
      </trkpt>
      <trkpt lat="44.39486" lon="6.14892">
        <ele>1044.1</ele>
        <time>2017-04-06T11:05:28Z</time>
      </trkpt>
      <trkpt lat="44.39485" lon="6.14891">
        <ele>1044.2</ele>
        <time>2017-04-06T11:05:29Z</time>
      </trkpt>
      <trkpt lat="44.39485" lon="6.1489">
        <ele>1044.2</ele>
        <time>2017-04-06T11:05:30Z</time>
      </trkpt>
      <trkpt lat="44.39486" lon="6.14889">
        <ele>1044.4</ele>
        <time>2017-04-06T11:05:31Z</time>
      </trkpt>
      <trkpt lat="44.39486" lon="6.14888">
        <ele>1044.5</ele>
        <time>2017-04-06T11:05:32Z</time>
      </trkpt>
      <trkpt lat="44.39486" lon="6.14887">
        <ele>1044.6</ele>
        <time>2017-04-06T11:05:33Z</time>
      </trkpt>
      <trkpt lat="44.39486" lon="6.14886">
        <ele>1044.7</ele>
        <time>2017-04-06T11:05:34Z</time>
      </trkpt>
      <trkpt lat="44.39487" lon="6.14884">
        <ele>1044.9</ele>
        <time>2017-04-06T11:05:35Z</time>
      </trkpt>
      <trkpt lat="44.39487" lon="6.14883">
        <ele>1045</ele>
        <time>2017-04-06T11:05:36Z</time>
      </trkpt>
      <trkpt lat="44.39485" lon="6.14865">
        <ele>1045.6</ele>
        <time>2017-04-06T11:05:52Z</time>
      </trkpt>
      <trkpt lat="44.39481" lon="6.14852">
        <ele>1046.5</ele>
        <time>2017-04-06T11:06:04Z</time>
      </trkpt>
      <trkpt lat="44.39482" lon="6.14851">
        <ele>1046.6</ele>
        <time>2017-04-06T11:06:05Z</time>
      </trkpt>
      <trkpt lat="44.39482" lon="6.14849">
        <ele>1046.8</ele>
        <time>2017-04-06T11:06:08Z</time>
      </trkpt>
      <trkpt lat="44.3948" lon="6.14845">
        <ele>1047</ele>
        <time>2017-04-06T11:06:12Z</time>
      </trkpt>
      <trkpt lat="44.39475" lon="6.14834">
        <ele>1047.5</ele>
        <time>2017-04-06T11:06:24Z</time>
      </trkpt>
      <trkpt lat="44.39466" lon="6.14818">
        <ele>1047.9</ele>
        <time>2017-04-06T11:06:42Z</time>
      </trkpt>
      <trkpt lat="44.39462" lon="6.14812">
        <ele>1048</ele>
        <time>2017-04-06T11:06:48Z</time>
      </trkpt>
      <trkpt lat="44.39462" lon="6.1481">
        <ele>1048.1</ele>
        <time>2017-04-06T11:06:49Z</time>
      </trkpt>
      <trkpt lat="44.39458" lon="6.14795">
        <ele>1048.9</ele>
        <time>2017-04-06T11:07:01Z</time>
      </trkpt>
      <trkpt lat="44.39456" lon="6.14772">
        <ele>1050.1</ele>
        <time>2017-04-06T11:07:19Z</time>
      </trkpt>
      <trkpt lat="44.39458" lon="6.1475">
        <ele>1051.8</ele>
        <time>2017-04-06T11:07:39Z</time>
      </trkpt>
      <trkpt lat="44.39469" lon="6.14721">
        <ele>1055</ele>
        <time>2017-04-06T11:08:09Z</time>
      </trkpt>
      <trkpt lat="44.39482" lon="6.14704">
        <ele>1058.1</ele>
        <time>2017-04-06T11:08:31Z</time>
      </trkpt>
      <trkpt lat="44.39486" lon="6.14686">
        <ele>1059.7</ele>
        <time>2017-04-06T11:08:49Z</time>
      </trkpt>
      <trkpt lat="44.39487" lon="6.1467">
        <ele>1061</ele>
        <time>2017-04-06T11:09:01Z</time>
      </trkpt>
      <trkpt lat="44.39486" lon="6.14663">
        <ele>1061.2</ele>
        <time>2017-04-06T11:09:06Z</time>
      </trkpt>
      <trkpt lat="44.39485" lon="6.14662">
        <ele>1061.3</ele>
        <time>2017-04-06T11:09:07Z</time>
      </trkpt>
      <trkpt lat="44.39484" lon="6.14649">
        <ele>1062.1</ele>
        <time>2017-04-06T11:09:20Z</time>
      </trkpt>
      <trkpt lat="44.39483" lon="6.1464">
        <ele>1062.6</ele>
        <time>2017-04-06T11:09:30Z</time>
      </trkpt>
      <trkpt lat="44.39482" lon="6.14622">
        <ele>1063.8</ele>
        <time>2017-04-06T11:09:45Z</time>
      </trkpt>
      <trkpt lat="44.39482" lon="6.14618">
        <ele>1064</ele>
        <time>2017-04-06T11:09:48Z</time>
      </trkpt>
      <trkpt lat="44.39482" lon="6.14616">
        <ele>1064.1</ele>
        <time>2017-04-06T11:09:49Z</time>
      </trkpt>
      <trkpt lat="44.39482" lon="6.14615">
        <ele>1064.1</ele>
        <time>2017-04-06T11:09:50Z</time>
      </trkpt>
      <trkpt lat="44.39481" lon="6.14614">
        <ele>1064.1</ele>
        <time>2017-04-06T11:09:51Z</time>
      </trkpt>
      <trkpt lat="44.39481" lon="6.14612">
        <ele>1064.2</ele>
        <time>2017-04-06T11:09:52Z</time>
      </trkpt>
      <trkpt lat="44.39481" lon="6.14611">
        <ele>1064.3</ele>
        <time>2017-04-06T11:09:53Z</time>
      </trkpt>
      <trkpt lat="44.3948" lon="6.14609">
        <ele>1064.1</ele>
        <time>2017-04-06T11:10:07Z</time>
      </trkpt>
      <trkpt lat="44.39483" lon="6.14572">
        <ele>1065.5</ele>
        <time>2017-04-06T11:10:33Z</time>
      </trkpt>
      <trkpt lat="44.39484" lon="6.14568">
        <ele>1065.7</ele>
        <time>2017-04-06T11:10:37Z</time>
      </trkpt>
      <trkpt lat="44.39485" lon="6.14567">
        <ele>1065.9</ele>
        <time>2017-04-06T11:10:38Z</time>
      </trkpt>
      <trkpt lat="44.39486" lon="6.14566">
        <ele>1066</ele>
        <time>2017-04-06T11:10:39Z</time>
      </trkpt>
      <trkpt lat="44.39488" lon="6.14564">
        <ele>1066.4</ele>
        <time>2017-04-06T11:10:41Z</time>
      </trkpt>
      <trkpt lat="44.39496" lon="6.14556">
        <ele>1068</ele>
        <time>2017-04-06T11:10:53Z</time>
      </trkpt>
      <trkpt lat="44.39502" lon="6.1455">
        <ele>1068.8</ele>
        <time>2017-04-06T11:11:11Z</time>
      </trkpt>
      <trkpt lat="44.39501" lon="6.14553">
        <ele>1068.9</ele>
        <time>2017-04-06T11:11:47Z</time>
      </trkpt>
      <trkpt lat="44.395" lon="6.14554">
        <ele>1068.9</ele>
        <time>2017-04-06T11:11:48Z</time>
      </trkpt>
      <trkpt lat="44.39511" lon="6.14535">
        <ele>1069.1</ele>
        <time>2017-04-06T11:13:28Z</time>
      </trkpt>
      <trkpt lat="44.39511" lon="6.14533">
        <ele>1068.9</ele>
        <time>2017-04-06T11:13:33Z</time>
      </trkpt>
      <trkpt lat="44.39532" lon="6.14525">
        <ele>1072</ele>
        <time>2017-04-06T11:13:45Z</time>
      </trkpt>
      <trkpt lat="44.39534" lon="6.14523">
        <ele>1072.3</ele>
        <time>2017-04-06T11:13:50Z</time>
      </trkpt>
      <trkpt lat="44.39541" lon="6.14518">
        <ele>1073.5</ele>
        <time>2017-04-06T11:13:59Z</time>
      </trkpt>
      <trkpt lat="44.39563" lon="6.14499">
        <ele>1076.6</ele>
        <time>2017-04-06T11:14:58Z</time>
      </trkpt>
      <trkpt lat="44.39573" lon="6.14485">
        <ele>1078.4</ele>
        <time>2017-04-06T11:15:15Z</time>
      </trkpt>
      <trkpt lat="44.39573" lon="6.14471">
        <ele>1078.1</ele>
        <time>2017-04-06T11:15:35Z</time>
      </trkpt>
      <trkpt lat="44.39552" lon="6.14461">
        <ele>1076</ele>
        <time>2017-04-06T11:15:53Z</time>
      </trkpt>
      <trkpt lat="44.3955" lon="6.1446">
        <ele>1076</ele>
        <time>2017-04-06T11:15:56Z</time>
      </trkpt>
      <trkpt lat="44.39538" lon="6.14455">
        <ele>1076</ele>
        <time>2017-04-06T11:16:12Z</time>
      </trkpt>
      <trkpt lat="44.39538" lon="6.14453">
        <ele>1076.3</ele>
        <time>2017-04-06T11:16:14Z</time>
      </trkpt>
      <trkpt lat="44.39557" lon="6.14436">
        <ele>1079.2</ele>
        <time>2017-04-06T11:16:47Z</time>
      </trkpt>
      <trkpt lat="44.39563" lon="6.14429">
        <ele>1080.4</ele>
        <time>2017-04-06T11:17:03Z</time>
      </trkpt>
      <trkpt lat="44.39574" lon="6.14345">
        <ele>1094.2</ele>
        <time>2017-04-06T11:18:35Z</time>
      </trkpt>
      <trkpt lat="44.39577" lon="6.1434">
        <ele>1094.9</ele>
        <time>2017-04-06T11:18:40Z</time>
      </trkpt>
      <trkpt lat="44.39578" lon="6.1434">
        <ele>1095</ele>
        <time>2017-04-06T11:18:41Z</time>
      </trkpt>
      <trkpt lat="44.39578" lon="6.14339">
        <ele>1095.2</ele>
        <time>2017-04-06T11:18:42Z</time>
      </trkpt>
      <trkpt lat="44.39579" lon="6.14337">
        <ele>1095.4</ele>
        <time>2017-04-06T11:18:43Z</time>
      </trkpt>
      <trkpt lat="44.39579" lon="6.14336">
        <ele>1095.6</ele>
        <time>2017-04-06T11:18:44Z</time>
      </trkpt>
      <trkpt lat="44.3958" lon="6.14335">
        <ele>1095.8</ele>
        <time>2017-04-06T11:18:45Z</time>
      </trkpt>
      <trkpt lat="44.3958" lon="6.14334">
        <ele>1096</ele>
        <time>2017-04-06T11:18:46Z</time>
      </trkpt>
      <trkpt lat="44.39581" lon="6.14333">
        <ele>1096.1</ele>
        <time>2017-04-06T11:18:47Z</time>
      </trkpt>
      <trkpt lat="44.39581" lon="6.14333">
        <ele>1096.1</ele>
        <time>2017-04-06T11:18:48Z</time>
      </trkpt>
      <trkpt lat="44.39582" lon="6.14333">
        <ele>1096.1</ele>
        <time>2017-04-06T11:18:49Z</time>
      </trkpt>
      <trkpt lat="44.39583" lon="6.14332">
        <ele>1096.1</ele>
        <time>2017-04-06T11:18:50Z</time>
      </trkpt>
      <trkpt lat="44.39584" lon="6.14332">
        <ele>1096.1</ele>
        <time>2017-04-06T11:18:51Z</time>
      </trkpt>
      <trkpt lat="44.39585" lon="6.14331">
        <ele>1096.1</ele>
        <time>2017-04-06T11:18:52Z</time>
      </trkpt>
      <trkpt lat="44.39591" lon="6.1432">
        <ele>1097</ele>
        <time>2017-04-06T11:19:04Z</time>
      </trkpt>
      <trkpt lat="44.39591" lon="6.14319">
        <ele>1097.2</ele>
        <time>2017-04-06T11:19:05Z</time>
      </trkpt>
      <trkpt lat="44.39591" lon="6.14318">
        <ele>1097.3</ele>
        <time>2017-04-06T11:19:06Z</time>
      </trkpt>
      <trkpt lat="44.39593" lon="6.14314">
        <ele>1097.6</ele>
        <time>2017-04-06T11:19:11Z</time>
      </trkpt>
      <trkpt lat="44.39595" lon="6.14313">
        <ele>1097.7</ele>
        <time>2017-04-06T11:19:14Z</time>
      </trkpt>
      <trkpt lat="44.39595" lon="6.14311">
        <ele>1097.9</ele>
        <time>2017-04-06T11:19:15Z</time>
      </trkpt>
      <trkpt lat="44.39596" lon="6.1431">
        <ele>1098</ele>
        <time>2017-04-06T11:19:16Z</time>
      </trkpt>
      <trkpt lat="44.39597" lon="6.1431">
        <ele>1098</ele>
        <time>2017-04-06T11:19:17Z</time>
      </trkpt>
      <trkpt lat="44.39598" lon="6.14308">
        <ele>1098.1</ele>
        <time>2017-04-06T11:19:18Z</time>
      </trkpt>
      <trkpt lat="44.39599" lon="6.14307">
        <ele>1098.3</ele>
        <time>2017-04-06T11:19:19Z</time>
      </trkpt>
      <trkpt lat="44.396" lon="6.14306">
        <ele>1098.3</ele>
        <time>2017-04-06T11:19:20Z</time>
      </trkpt>
      <trkpt lat="44.396" lon="6.14305">
        <ele>1098.4</ele>
        <time>2017-04-06T11:19:21Z</time>
      </trkpt>
      <trkpt lat="44.39601" lon="6.14304">
        <ele>1098.4</ele>
        <time>2017-04-06T11:19:22Z</time>
      </trkpt>
      <trkpt lat="44.39601" lon="6.14302">
        <ele>1098.4</ele>
        <time>2017-04-06T11:19:23Z</time>
      </trkpt>
      <trkpt lat="44.396" lon="6.143">
        <ele>1098.5</ele>
        <time>2017-04-06T11:19:25Z</time>
      </trkpt>
      <trkpt lat="44.39599" lon="6.14299">
        <ele>1098.5</ele>
        <time>2017-04-06T11:19:26Z</time>
      </trkpt>
      <trkpt lat="44.39599" lon="6.14297">
        <ele>1098.5</ele>
        <time>2017-04-06T11:19:27Z</time>
      </trkpt>
      <trkpt lat="44.39599" lon="6.14296">
        <ele>1098.5</ele>
        <time>2017-04-06T11:19:28Z</time>
      </trkpt>
      <trkpt lat="44.39599" lon="6.14295">
        <ele>1098.5</ele>
        <time>2017-04-06T11:19:29Z</time>
      </trkpt>
      <trkpt lat="44.39599" lon="6.14294">
        <ele>1098.5</ele>
        <time>2017-04-06T11:19:30Z</time>
      </trkpt>
      <trkpt lat="44.39599" lon="6.14292">
        <ele>1098.6</ele>
        <time>2017-04-06T11:19:31Z</time>
      </trkpt>
      <trkpt lat="44.39599" lon="6.1429">
        <ele>1098.6</ele>
        <time>2017-04-06T11:19:32Z</time>
      </trkpt>
      <trkpt lat="44.396" lon="6.14289">
        <ele>1098.6</ele>
        <time>2017-04-06T11:19:33Z</time>
      </trkpt>
      <trkpt lat="44.39601" lon="6.14289">
        <ele>1098.7</ele>
        <time>2017-04-06T11:19:34Z</time>
      </trkpt>
      <trkpt lat="44.39602" lon="6.14289">
        <ele>1098.7</ele>
        <time>2017-04-06T11:19:35Z</time>
      </trkpt>
      <trkpt lat="44.39602" lon="6.14288">
        <ele>1098.8</ele>
        <time>2017-04-06T11:19:36Z</time>
      </trkpt>
      <trkpt lat="44.39601" lon="6.14288">
        <ele>1098.7</ele>
        <time>2017-04-06T11:19:47Z</time>
      </trkpt>
      <trkpt lat="44.39536" lon="6.14158">
        <ele>1098</ele>
        <time>2017-04-06T11:24:01Z</time>
      </trkpt>
      <trkpt lat="44.39524" lon="6.14161">
        <ele>1100</ele>
        <time>2017-04-06T11:24:17Z</time>
      </trkpt>
      <trkpt lat="44.39518" lon="6.14165">
        <ele>1100.3</ele>
        <time>2017-04-06T11:24:27Z</time>
      </trkpt>
      <trkpt lat="44.39508" lon="6.14162">
        <ele>1101.5</ele>
        <time>2017-04-06T11:24:41Z</time>
      </trkpt>
      <trkpt lat="44.39501" lon="6.14148">
        <ele>1103.3</ele>
        <time>2017-04-06T11:24:57Z</time>
      </trkpt>
      <trkpt lat="44.395" lon="6.14141">
        <ele>1103.8</ele>
        <time>2017-04-06T11:25:08Z</time>
      </trkpt>
      <trkpt lat="44.39607" lon="6.13922">
        <ele>1131.3</ele>
        <time>2017-04-06T11:31:05Z</time>
      </trkpt>
      <trkpt lat="44.39613" lon="6.13926">
        <ele>1131.3</ele>
        <time>2017-04-06T11:31:13Z</time>
      </trkpt>
      <trkpt lat="44.39614" lon="6.13924">
        <ele>1131.4</ele>
        <time>2017-04-06T11:31:26Z</time>
      </trkpt>
      <trkpt lat="44.39614" lon="6.13924">
        <ele>1131.4</ele>
        <time>2017-04-06T11:31:28Z</time>
      </trkpt>
      <trkpt lat="44.3961" lon="6.13928">
        <ele>1131.1</ele>
        <time>2017-04-06T11:34:48Z</time>
      </trkpt>
      <trkpt lat="44.39611" lon="6.13929">
        <ele>1131.1</ele>
        <time>2017-04-06T11:34:51Z</time>
      </trkpt>
      <trkpt lat="44.39525" lon="6.14043">
        <ele>1106</ele>
        <time>2017-04-06T11:42:18Z</time>
      </trkpt>
      <trkpt lat="44.39523" lon="6.14036">
        <ele>1106</ele>
        <time>2017-04-06T11:42:23Z</time>
      </trkpt>
      <trkpt lat="44.39516" lon="6.14017">
        <ele>1106.4</ele>
        <time>2017-04-06T11:42:39Z</time>
      </trkpt>
      <trkpt lat="44.39503" lon="6.14">
        <ele>1104.8</ele>
        <time>2017-04-06T11:42:59Z</time>
      </trkpt>
      <trkpt lat="44.39498" lon="6.13989">
        <ele>1104.7</ele>
        <time>2017-04-06T11:43:12Z</time>
      </trkpt>
      <trkpt lat="44.39457" lon="6.13968">
        <ele>1109</ele>
        <time>2017-04-06T11:44:14Z</time>
      </trkpt>
      <trkpt lat="44.3945" lon="6.13964">
        <ele>1111.2</ele>
        <time>2017-04-06T11:44:26Z</time>
      </trkpt>
      <trkpt lat="44.39447" lon="6.13955">
        <ele>1113.5</ele>
        <time>2017-04-06T11:44:36Z</time>
      </trkpt>
      <trkpt lat="44.39418" lon="6.13954">
        <ele>1119</ele>
        <time>2017-04-06T11:45:44Z</time>
      </trkpt>
      <trkpt lat="44.39417" lon="6.13955">
        <ele>1119.1</ele>
        <time>2017-04-06T11:45:49Z</time>
      </trkpt>
      <trkpt lat="44.39405" lon="6.13967">
        <ele>1119.8</ele>
        <time>2017-04-06T11:46:25Z</time>
      </trkpt>
      <trkpt lat="44.3939" lon="6.13971">
        <ele>1122.8</ele>
        <time>2017-04-06T11:46:42Z</time>
      </trkpt>
      <trkpt lat="44.39366" lon="6.13776">
        <ele>1157.1</ele>
        <time>2017-04-06T11:51:17Z</time>
      </trkpt>
      <trkpt lat="44.39367" lon="6.13775">
        <ele>1157.3</ele>
        <time>2017-04-06T11:51:18Z</time>
      </trkpt>
      <trkpt lat="44.39371" lon="6.13752">
        <ele>1161.4</ele>
        <time>2017-04-06T11:51:43Z</time>
      </trkpt>
      <trkpt lat="44.39375" lon="6.13743">
        <ele>1163</ele>
        <time>2017-04-06T11:51:56Z</time>
      </trkpt>
      <trkpt lat="44.39453" lon="6.13532">
        <ele>1208.2</ele>
        <time>2017-04-06T11:59:47Z</time>
      </trkpt>
      <trkpt lat="44.39454" lon="6.13522">
        <ele>1210.2</ele>
        <time>2017-04-06T11:59:59Z</time>
      </trkpt>
      <trkpt lat="44.39454" lon="6.13438">
        <ele>1232.8</ele>
        <time>2017-04-06T12:02:31Z</time>
      </trkpt>
      <trkpt lat="44.39451" lon="6.13434">
        <ele>1235.1</ele>
        <time>2017-04-06T12:02:39Z</time>
      </trkpt>
      <trkpt lat="44.39453" lon="6.13431">
        <ele>1235</ele>
        <time>2017-04-06T12:02:44Z</time>
      </trkpt>
      <trkpt lat="44.39469" lon="6.13386">
        <ele>1241.4</ele>
        <time>2017-04-06T12:05:21Z</time>
      </trkpt>
      <trkpt lat="44.39475" lon="6.13389">
        <ele>1238.4</ele>
        <time>2017-04-06T12:05:34Z</time>
      </trkpt>
      <trkpt lat="44.39471" lon="6.13396">
        <ele>1237.1</ele>
        <time>2017-04-06T12:06:56Z</time>
      </trkpt>
      <trkpt lat="44.39467" lon="6.13387">
        <ele>1241.7</ele>
        <time>2017-04-06T12:07:15Z</time>
      </trkpt>
      <trkpt lat="44.39472" lon="6.13384">
        <ele>1241</ele>
        <time>2017-04-06T12:07:54Z</time>
      </trkpt>
      <trkpt lat="44.39473" lon="6.13386">
        <ele>1240.1</ele>
        <time>2017-04-06T12:07:57Z</time>
      </trkpt>
      <trkpt lat="44.39538" lon="6.13284">
        <ele>1279.4</ele>
        <time>2017-04-06T12:28:46Z</time>
      </trkpt>
      <trkpt lat="44.39538" lon="6.13284">
        <ele>1279.2</ele>
        <time>2017-04-06T12:28:58Z</time>
      </trkpt>
      <trkpt lat="44.39537" lon="6.13287">
        <ele>1277.8</ele>
        <time>2017-04-06T12:29:01Z</time>
      </trkpt>
      <trkpt lat="44.39625" lon="6.13184">
        <ele>1300.4</ele>
        <time>2017-04-06T12:35:24Z</time>
      </trkpt>
      <trkpt lat="44.39625" lon="6.13184">
        <ele>1300.4</ele>
        <time>2017-04-06T12:35:26Z</time>
      </trkpt>
      <trkpt lat="44.39776" lon="6.13159">
        <ele>1298.5</ele>
        <time>2017-04-06T12:39:29Z</time>
      </trkpt>
      <trkpt lat="44.39774" lon="6.1316">
        <ele>1298.3</ele>
        <time>2017-04-06T12:39:30Z</time>
      </trkpt>
      <trkpt lat="44.39772" lon="6.13161">
        <ele>1298.1</ele>
        <time>2017-04-06T12:39:31Z</time>
      </trkpt>
      <trkpt lat="44.39772" lon="6.13161">
        <ele>1298.1</ele>
        <time>2017-04-06T12:39:32Z</time>
      </trkpt>
      <trkpt lat="44.39769" lon="6.13162">
        <ele>1297.9</ele>
        <time>2017-04-06T12:39:33Z</time>
      </trkpt>
      <trkpt lat="44.39768" lon="6.13162">
        <ele>1297.8</ele>
        <time>2017-04-06T12:39:34Z</time>
      </trkpt>
      <trkpt lat="44.39756" lon="6.13167">
        <ele>1296.4</ele>
        <time>2017-04-06T12:39:49Z</time>
      </trkpt>
      <trkpt lat="44.39752" lon="6.13169">
        <ele>1295.8</ele>
        <time>2017-04-06T12:39:53Z</time>
      </trkpt>
      <trkpt lat="44.39734" lon="6.13181">
        <ele>1291.7</ele>
        <time>2017-04-06T12:40:11Z</time>
      </trkpt>
      <trkpt lat="44.39727" lon="6.1319">
        <ele>1288.2</ele>
        <time>2017-04-06T12:40:25Z</time>
      </trkpt>
      <trkpt lat="44.39718" lon="6.13214">
        <ele>1278.7</ele>
        <time>2017-04-06T12:40:45Z</time>
      </trkpt>
      <trkpt lat="44.39717" lon="6.13228">
        <ele>1273.1</ele>
        <time>2017-04-06T12:41:00Z</time>
      </trkpt>
      <trkpt lat="44.39722" lon="6.13234">
        <ele>1271.8</ele>
        <time>2017-04-06T12:41:09Z</time>
      </trkpt>
      <trkpt lat="44.39735" lon="6.13229">
        <ele>1276.9</ele>
        <time>2017-04-06T12:42:21Z</time>
      </trkpt>
      <trkpt lat="44.39735" lon="6.13228">
        <ele>1277.2</ele>
        <time>2017-04-06T12:42:24Z</time>
      </trkpt>
      <trkpt lat="44.39781" lon="6.13141">
        <ele>1300</ele>
        <time>2017-04-06T13:15:04Z</time>
      </trkpt>
      <trkpt lat="44.39781" lon="6.13141">
        <ele>1300</ele>
        <time>2017-04-06T13:15:05Z</time>
      </trkpt>
      <trkpt lat="44.39774" lon="6.13139">
        <ele>1300.1</ele>
        <time>2017-04-06T13:15:13Z</time>
      </trkpt>
      <trkpt lat="44.39759" lon="6.13142">
        <ele>1300.3</ele>
        <time>2017-04-06T13:15:30Z</time>
      </trkpt>
      <trkpt lat="44.39759" lon="6.13142">
        <ele>1300.3</ele>
        <time>2017-04-06T13:15:33Z</time>
      </trkpt>
      <trkpt lat="44.39699" lon="6.13151">
        <ele>1299.9</ele>
        <time>2017-04-06T13:17:08Z</time>
      </trkpt>
      <trkpt lat="44.39688" lon="6.13154">
        <ele>1299.8</ele>
        <time>2017-04-06T13:17:21Z</time>
      </trkpt>
      <trkpt lat="44.39675" lon="6.13154">
        <ele>1300.9</ele>
        <time>2017-04-06T13:17:36Z</time>
      </trkpt>
      <trkpt lat="44.39674" lon="6.13154">
        <ele>1300.9</ele>
        <time>2017-04-06T13:17:37Z</time>
      </trkpt>
      <trkpt lat="44.39672" lon="6.13155">
        <ele>1300.9</ele>
        <time>2017-04-06T13:17:38Z</time>
      </trkpt>
      <trkpt lat="44.39671" lon="6.13155">
        <ele>1300.8</ele>
        <time>2017-04-06T13:17:39Z</time>
      </trkpt>
      <trkpt lat="44.39667" lon="6.13158">
        <ele>1300.6</ele>
        <time>2017-04-06T13:17:43Z</time>
      </trkpt>
      <trkpt lat="44.39666" lon="6.13158">
        <ele>1300.6</ele>
        <time>2017-04-06T13:17:44Z</time>
      </trkpt>
      <trkpt lat="44.39665" lon="6.13158">
        <ele>1300.7</ele>
        <time>2017-04-06T13:17:45Z</time>
      </trkpt>
      <trkpt lat="44.39663" lon="6.13158">
        <ele>1300.9</ele>
        <time>2017-04-06T13:17:46Z</time>
      </trkpt>
      <trkpt lat="44.39654" lon="6.1316">
        <ele>1301.7</ele>
        <time>2017-04-06T13:18:00Z</time>
      </trkpt>
      <trkpt lat="44.39652" lon="6.13159">
        <ele>1302.2</ele>
        <time>2017-04-06T13:18:05Z</time>
      </trkpt>
      <trkpt lat="44.39652" lon="6.13155">
        <ele>1303.2</ele>
        <time>2017-04-06T13:18:23Z</time>
      </trkpt>
      <trkpt lat="44.39634" lon="6.13154">
        <ele>1306.2</ele>
        <time>2017-04-06T13:18:43Z</time>
      </trkpt>
      <trkpt lat="44.39606" lon="6.13154">
        <ele>1311.2</ele>
        <time>2017-04-06T13:19:10Z</time>
      </trkpt>
      <trkpt lat="44.39592" lon="6.13156">
        <ele>1312.9</ele>
        <time>2017-04-06T13:19:25Z</time>
      </trkpt>
      <trkpt lat="44.3958" lon="6.13157">
        <ele>1314.6</ele>
        <time>2017-04-06T13:19:41Z</time>
      </trkpt>
      <trkpt lat="44.39578" lon="6.13157">
        <ele>1315</ele>
        <time>2017-04-06T13:19:45Z</time>
      </trkpt>
      <trkpt lat="44.39522" lon="6.13149">
        <ele>1325.4</ele>
        <time>2017-04-06T13:20:55Z</time>
      </trkpt>
      <trkpt lat="44.39506" lon="6.13148">
        <ele>1328</ele>
        <time>2017-04-06T13:21:16Z</time>
      </trkpt>
      <trkpt lat="44.39485" lon="6.13154">
        <ele>1328.6</ele>
        <time>2017-04-06T13:21:44Z</time>
      </trkpt>
      <trkpt lat="44.39465" lon="6.13146">
        <ele>1331.7</ele>
        <time>2017-04-06T13:22:12Z</time>
      </trkpt>
      <trkpt lat="44.39464" lon="6.13145">
        <ele>1331.8</ele>
        <time>2017-04-06T13:22:15Z</time>
      </trkpt>
      <trkpt lat="44.39434" lon="6.13138">
        <ele>1333.1</ele>
        <time>2017-04-06T13:22:54Z</time>
      </trkpt>
      <trkpt lat="44.39429" lon="6.1314">
        <ele>1332.2</ele>
        <time>2017-04-06T13:23:04Z</time>
      </trkpt>
      <trkpt lat="44.39265" lon="6.12968">
        <ele>1354.5</ele>
        <time>2017-04-06T13:27:40Z</time>
      </trkpt>
      <trkpt lat="44.39265" lon="6.12968">
        <ele>1354.7</ele>
        <time>2017-04-06T13:27:44Z</time>
      </trkpt>
      <trkpt lat="44.39265" lon="6.12973">
        <ele>1352.4</ele>
        <time>2017-04-06T13:29:38Z</time>
      </trkpt>
      <trkpt lat="44.39265" lon="6.12973">
        <ele>1352.4</ele>
        <time>2017-04-06T13:29:41Z</time>
      </trkpt>
      <trkpt lat="44.39265" lon="6.12969">
        <ele>1354.1</ele>
        <time>2017-04-06T13:30:13Z</time>
      </trkpt>
      <trkpt lat="44.39265" lon="6.12969">
        <ele>1354.2</ele>
        <time>2017-04-06T13:30:17Z</time>
      </trkpt>
      <trkpt lat="44.39235" lon="6.12947">
        <ele>1359.9</ele>
        <time>2017-04-06T13:30:52Z</time>
      </trkpt>
      <trkpt lat="44.39228" lon="6.12941">
        <ele>1362</ele>
        <time>2017-04-06T13:31:03Z</time>
      </trkpt>
      <trkpt lat="44.39228" lon="6.12935">
        <ele>1364.8</ele>
        <time>2017-04-06T13:31:37Z</time>
      </trkpt>
      <trkpt lat="44.39215" lon="6.12928">
        <ele>1367.1</ele>
        <time>2017-04-06T13:31:51Z</time>
      </trkpt>
      <trkpt lat="44.39216" lon="6.12928">
        <ele>1367.1</ele>
        <time>2017-04-06T13:31:53Z</time>
      </trkpt>
      <trkpt lat="44.39194" lon="6.12915">
        <ele>1371.6</ele>
        <time>2017-04-06T13:33:37Z</time>
      </trkpt>
      <trkpt lat="44.39194" lon="6.12915">
        <ele>1371.6</ele>
        <time>2017-04-06T13:33:38Z</time>
      </trkpt>
      <trkpt lat="44.39197" lon="6.12916">
        <ele>1371.4</ele>
        <time>2017-04-06T13:33:39Z</time>
      </trkpt>
      <trkpt lat="44.39199" lon="6.12917">
        <ele>1371.2</ele>
        <time>2017-04-06T13:33:41Z</time>
      </trkpt>
      <trkpt lat="44.39207" lon="6.12921">
        <ele>1369.8</ele>
        <time>2017-04-06T13:34:11Z</time>
      </trkpt>
      <trkpt lat="44.39207" lon="6.12921">
        <ele>1369.7</ele>
        <time>2017-04-06T13:34:13Z</time>
      </trkpt>
      <trkpt lat="44.39211" lon="6.12919">
        <ele>1370.7</ele>
        <time>2017-04-06T13:35:29Z</time>
      </trkpt>
      <trkpt lat="44.39215" lon="6.12924">
        <ele>1368.9</ele>
        <time>2017-04-06T13:35:31Z</time>
      </trkpt>
      <trkpt lat="44.39216" lon="6.12925">
        <ele>1368.2</ele>
        <time>2017-04-06T13:35:32Z</time>
      </trkpt>
      <trkpt lat="44.39205" lon="6.12923">
        <ele>1369</ele>
        <time>2017-04-06T13:35:39Z</time>
      </trkpt>
      <trkpt lat="44.39178" lon="6.12923">
        <ele>1370.2</ele>
        <time>2017-04-06T13:37:43Z</time>
      </trkpt>
      <trkpt lat="44.39174" lon="6.12923">
        <ele>1370.7</ele>
        <time>2017-04-06T13:37:46Z</time>
      </trkpt>
      <trkpt lat="44.39173" lon="6.12924">
        <ele>1370.4</ele>
        <time>2017-04-06T13:37:47Z</time>
      </trkpt>
      <trkpt lat="44.39167" lon="6.12935">
        <ele>1366.8</ele>
        <time>2017-04-06T13:37:59Z</time>
      </trkpt>
      <trkpt lat="44.39167" lon="6.12936">
        <ele>1366.2</ele>
        <time>2017-04-06T13:38:00Z</time>
      </trkpt>
      <trkpt lat="44.39163" lon="6.12951">
        <ele>1361.8</ele>
        <time>2017-04-06T13:38:10Z</time>
      </trkpt>
      <trkpt lat="44.39163" lon="6.12952">
        <ele>1361.3</ele>
        <time>2017-04-06T13:38:11Z</time>
      </trkpt>
      <trkpt lat="44.39163" lon="6.12954">
        <ele>1360.9</ele>
        <time>2017-04-06T13:38:12Z</time>
      </trkpt>
      <trkpt lat="44.39162" lon="6.12955">
        <ele>1360.7</ele>
        <time>2017-04-06T13:38:13Z</time>
      </trkpt>
      <trkpt lat="44.39161" lon="6.12955">
        <ele>1361</ele>
        <time>2017-04-06T13:38:14Z</time>
      </trkpt>
      <trkpt lat="44.3916" lon="6.12957">
        <ele>1360.7</ele>
        <time>2017-04-06T13:38:15Z</time>
      </trkpt>
      <trkpt lat="44.39159" lon="6.12957">
        <ele>1360.8</ele>
        <time>2017-04-06T13:38:16Z</time>
      </trkpt>
      <trkpt lat="44.39158" lon="6.12958">
        <ele>1360.8</ele>
        <time>2017-04-06T13:38:17Z</time>
      </trkpt>
      <trkpt lat="44.39158" lon="6.1296">
        <ele>1360.3</ele>
        <time>2017-04-06T13:38:18Z</time>
      </trkpt>
      <trkpt lat="44.39157" lon="6.12962">
        <ele>1359.7</ele>
        <time>2017-04-06T13:38:19Z</time>
      </trkpt>
      <trkpt lat="44.39149" lon="6.12987">
        <ele>1354</ele>
        <time>2017-04-06T13:38:34Z</time>
      </trkpt>
      <trkpt lat="44.39144" lon="6.13006">
        <ele>1350.2</ele>
        <time>2017-04-06T13:38:47Z</time>
      </trkpt>
      <trkpt lat="44.39142" lon="6.1301">
        <ele>1349.5</ele>
        <time>2017-04-06T13:38:52Z</time>
      </trkpt>
      <trkpt lat="44.39142" lon="6.13011">
        <ele>1349.3</ele>
        <time>2017-04-06T13:38:53Z</time>
      </trkpt>
      <trkpt lat="44.39131" lon="6.13031">
        <ele>1347.3</ele>
        <time>2017-04-06T13:39:07Z</time>
      </trkpt>
      <trkpt lat="44.39128" lon="6.13033">
        <ele>1347.7</ele>
        <time>2017-04-06T13:39:10Z</time>
      </trkpt>
      <trkpt lat="44.39127" lon="6.13034">
        <ele>1347.6</ele>
        <time>2017-04-06T13:39:11Z</time>
      </trkpt>
      <trkpt lat="44.39126" lon="6.13033">
        <ele>1347.9</ele>
        <time>2017-04-06T13:39:13Z</time>
      </trkpt>
      <trkpt lat="44.39107" lon="6.13053">
        <ele>1347</ele>
        <time>2017-04-06T13:39:29Z</time>
      </trkpt>
      <trkpt lat="44.39089" lon="6.13071">
        <ele>1343.7</ele>
        <time>2017-04-06T13:39:43Z</time>
      </trkpt>
      <trkpt lat="44.39079" lon="6.13082">
        <ele>1341.1</ele>
        <time>2017-04-06T13:39:55Z</time>
      </trkpt>
      <trkpt lat="44.39077" lon="6.13086">
        <ele>1340</ele>
        <time>2017-04-06T13:39:58Z</time>
      </trkpt>
      <trkpt lat="44.39078" lon="6.13088">
        <ele>1339.7</ele>
        <time>2017-04-06T13:39:59Z</time>
      </trkpt>
      <trkpt lat="44.39077" lon="6.13089">
        <ele>1339.3</ele>
        <time>2017-04-06T13:40:00Z</time>
      </trkpt>
      <trkpt lat="44.39075" lon="6.13089">
        <ele>1339.4</ele>
        <time>2017-04-06T13:40:01Z</time>
      </trkpt>
      <trkpt lat="44.39074" lon="6.13089">
        <ele>1339.3</ele>
        <time>2017-04-06T13:40:02Z</time>
      </trkpt>
      <trkpt lat="44.39059" lon="6.13089">
        <ele>1338.8</ele>
        <time>2017-04-06T13:40:14Z</time>
      </trkpt>
      <trkpt lat="44.39029" lon="6.13069">
        <ele>1341.3</ele>
        <time>2017-04-06T13:40:26Z</time>
      </trkpt>
      <trkpt lat="44.3903" lon="6.13066">
        <ele>1341.8</ele>
        <time>2017-04-06T13:40:27Z</time>
      </trkpt>
      <trkpt lat="44.39029" lon="6.13059">
        <ele>1343.4</ele>
        <time>2017-04-06T13:40:32Z</time>
      </trkpt>
      <trkpt lat="44.39017" lon="6.13053">
        <ele>1343.4</ele>
        <time>2017-04-06T13:40:40Z</time>
      </trkpt>
      <trkpt lat="44.39014" lon="6.1305">
        <ele>1343.6</ele>
        <time>2017-04-06T13:40:44Z</time>
      </trkpt>
      <trkpt lat="44.39024" lon="6.13036">
        <ele>1347.7</ele>
        <time>2017-04-06T13:40:57Z</time>
      </trkpt>
      <trkpt lat="44.39019" lon="6.13041">
        <ele>1346.3</ele>
        <time>2017-04-06T13:41:01Z</time>
      </trkpt>
      <trkpt lat="44.39017" lon="6.13041">
        <ele>1346</ele>
        <time>2017-04-06T13:41:02Z</time>
      </trkpt>
      <trkpt lat="44.39015" lon="6.13042">
        <ele>1345.6</ele>
        <time>2017-04-06T13:41:03Z</time>
      </trkpt>
      <trkpt lat="44.38987" lon="6.13041">
        <ele>1342.4</ele>
        <time>2017-04-06T13:41:17Z</time>
      </trkpt>
      <trkpt lat="44.3899" lon="6.13036">
        <ele>1343.8</ele>
        <time>2017-04-06T13:41:29Z</time>
      </trkpt>
      <trkpt lat="44.38992" lon="6.13036">
        <ele>1344.1</ele>
        <time>2017-04-06T13:41:32Z</time>
      </trkpt>
      <trkpt lat="44.38992" lon="6.13039">
        <ele>1343.5</ele>
        <time>2017-04-06T13:41:41Z</time>
      </trkpt>
      <trkpt lat="44.38991" lon="6.13038">
        <ele>1343.4</ele>
        <time>2017-04-06T13:41:45Z</time>
      </trkpt>
      <trkpt lat="44.38949" lon="6.13067">
        <ele>1327.6</ele>
        <time>2017-04-06T13:42:47Z</time>
      </trkpt>
      <trkpt lat="44.3894" lon="6.13046">
        <ele>1329.7</ele>
        <time>2017-04-06T13:43:03Z</time>
      </trkpt>
      <trkpt lat="44.38939" lon="6.13045">
        <ele>1329.7</ele>
        <time>2017-04-06T13:43:04Z</time>
      </trkpt>
      <trkpt lat="44.38939" lon="6.13043">
        <ele>1330.2</ele>
        <time>2017-04-06T13:43:05Z</time>
      </trkpt>
      <trkpt lat="44.38927" lon="6.13041">
        <ele>1326.4</ele>
        <time>2017-04-06T13:43:21Z</time>
      </trkpt>
      <trkpt lat="44.38926" lon="6.13043">
        <ele>1325.6</ele>
        <time>2017-04-06T13:43:22Z</time>
      </trkpt>
      <trkpt lat="44.38915" lon="6.13037">
        <ele>1323.2</ele>
        <time>2017-04-06T13:44:07Z</time>
      </trkpt>
      <trkpt lat="44.38902" lon="6.13022">
        <ele>1324.2</ele>
        <time>2017-04-06T13:44:20Z</time>
      </trkpt>
      <trkpt lat="44.38894" lon="6.13015">
        <ele>1324.1</ele>
        <time>2017-04-06T13:44:27Z</time>
      </trkpt>
      <trkpt lat="44.38894" lon="6.13013">
        <ele>1324.4</ele>
        <time>2017-04-06T13:44:28Z</time>
      </trkpt>
      <trkpt lat="44.38893" lon="6.13012">
        <ele>1324.6</ele>
        <time>2017-04-06T13:44:29Z</time>
      </trkpt>
      <trkpt lat="44.38893" lon="6.13011">
        <ele>1324.7</ele>
        <time>2017-04-06T13:44:30Z</time>
      </trkpt>
      <trkpt lat="44.38892" lon="6.1301">
        <ele>1324.8</ele>
        <time>2017-04-06T13:44:31Z</time>
      </trkpt>
      <trkpt lat="44.38892" lon="6.13009">
        <ele>1324.9</ele>
        <time>2017-04-06T13:44:32Z</time>
      </trkpt>
      <trkpt lat="44.38891" lon="6.13008">
        <ele>1325</ele>
        <time>2017-04-06T13:44:33Z</time>
      </trkpt>
      <trkpt lat="44.38883" lon="6.12998">
        <ele>1326.9</ele>
        <time>2017-04-06T13:44:43Z</time>
      </trkpt>
      <trkpt lat="44.38882" lon="6.12997">
        <ele>1327.2</ele>
        <time>2017-04-06T13:44:44Z</time>
      </trkpt>
      <trkpt lat="44.38874" lon="6.12991">
        <ele>1329.1</ele>
        <time>2017-04-06T13:44:54Z</time>
      </trkpt>
      <trkpt lat="44.38872" lon="6.12993">
        <ele>1328.9</ele>
        <time>2017-04-06T13:44:55Z</time>
      </trkpt>
      <trkpt lat="44.38871" lon="6.12993">
        <ele>1328.8</ele>
        <time>2017-04-06T13:44:56Z</time>
      </trkpt>
      <trkpt lat="44.3887" lon="6.12994">
        <ele>1328.8</ele>
        <time>2017-04-06T13:44:57Z</time>
      </trkpt>
      <trkpt lat="44.38869" lon="6.12994">
        <ele>1328.8</ele>
        <time>2017-04-06T13:44:58Z</time>
      </trkpt>
      <trkpt lat="44.38867" lon="6.12995">
        <ele>1328.8</ele>
        <time>2017-04-06T13:44:59Z</time>
      </trkpt>
      <trkpt lat="44.38866" lon="6.12995">
        <ele>1328.7</ele>
        <time>2017-04-06T13:45:00Z</time>
      </trkpt>
      <trkpt lat="44.38865" lon="6.12996">
        <ele>1328.5</ele>
        <time>2017-04-06T13:45:01Z</time>
      </trkpt>
      <trkpt lat="44.38859" lon="6.13005">
        <ele>1327.7</ele>
        <time>2017-04-06T13:45:08Z</time>
      </trkpt>
      <trkpt lat="44.38857" lon="6.13024">
        <ele>1324.9</ele>
        <time>2017-04-06T13:45:23Z</time>
      </trkpt>
      <trkpt lat="44.3885" lon="6.13039">
        <ele>1324.2</ele>
        <time>2017-04-06T13:45:38Z</time>
      </trkpt>
      <trkpt lat="44.38848" lon="6.13043">
        <ele>1324.1</ele>
        <time>2017-04-06T13:45:41Z</time>
      </trkpt>
      <trkpt lat="44.38841" lon="6.13067">
        <ele>1322.4</ele>
        <time>2017-04-06T13:45:59Z</time>
      </trkpt>
      <trkpt lat="44.38829" lon="6.13087">
        <ele>1322</ele>
        <time>2017-04-06T13:46:16Z</time>
      </trkpt>
      <trkpt lat="44.38809" lon="6.13098">
        <ele>1321.6</ele>
        <time>2017-04-06T13:46:34Z</time>
      </trkpt>
      <trkpt lat="44.38804" lon="6.13095">
        <ele>1322.3</ele>
        <time>2017-04-06T13:46:39Z</time>
      </trkpt>
      <trkpt lat="44.38802" lon="6.13094">
        <ele>1322.5</ele>
        <time>2017-04-06T13:46:40Z</time>
      </trkpt>
      <trkpt lat="44.38802" lon="6.13093">
        <ele>1322.6</ele>
        <time>2017-04-06T13:46:41Z</time>
      </trkpt>
      <trkpt lat="44.38801" lon="6.13092">
        <ele>1322.8</ele>
        <time>2017-04-06T13:46:42Z</time>
      </trkpt>
      <trkpt lat="44.388" lon="6.13091">
        <ele>1323</ele>
        <time>2017-04-06T13:46:43Z</time>
      </trkpt>
      <trkpt lat="44.38789" lon="6.13074">
        <ele>1327.2</ele>
        <time>2017-04-06T13:46:59Z</time>
      </trkpt>
      <trkpt lat="44.38788" lon="6.13073">
        <ele>1327.5</ele>
        <time>2017-04-06T13:47:00Z</time>
      </trkpt>
      <trkpt lat="44.38788" lon="6.1307">
        <ele>1328.3</ele>
        <time>2017-04-06T13:47:02Z</time>
      </trkpt>
      <trkpt lat="44.38786" lon="6.13068">
        <ele>1328.9</ele>
        <time>2017-04-06T13:47:04Z</time>
      </trkpt>
      <trkpt lat="44.38785" lon="6.13067">
        <ele>1329.3</ele>
        <time>2017-04-06T13:47:05Z</time>
      </trkpt>
      <trkpt lat="44.38784" lon="6.13063">
        <ele>1330.4</ele>
        <time>2017-04-06T13:47:12Z</time>
      </trkpt>
      <trkpt lat="44.38746" lon="6.13038">
        <ele>1336.2</ele>
        <time>2017-04-06T13:47:59Z</time>
      </trkpt>
      <trkpt lat="44.3873" lon="6.13028">
        <ele>1337</ele>
        <time>2017-04-06T13:48:17Z</time>
      </trkpt>
      <trkpt lat="44.38717" lon="6.13019">
        <ele>1338.6</ele>
        <time>2017-04-06T13:48:33Z</time>
      </trkpt>
      <trkpt lat="44.38707" lon="6.13021">
        <ele>1337.9</ele>
        <time>2017-04-06T13:48:45Z</time>
      </trkpt>
      <trkpt lat="44.38689" lon="6.13015">
        <ele>1339.1</ele>
        <time>2017-04-06T13:49:03Z</time>
      </trkpt>
      <trkpt lat="44.38679" lon="6.13005">
        <ele>1341.7</ele>
        <time>2017-04-06T13:49:15Z</time>
      </trkpt>
      <trkpt lat="44.38679" lon="6.13004">
        <ele>1342</ele>
        <time>2017-04-06T13:49:16Z</time>
      </trkpt>
      <trkpt lat="44.38677" lon="6.12991">
        <ele>1344.6</ele>
        <time>2017-04-06T13:49:26Z</time>
      </trkpt>
      <trkpt lat="44.38618" lon="6.13003">
        <ele>1351</ele>
        <time>2017-04-06T13:50:37Z</time>
      </trkpt>
      <trkpt lat="44.38602" lon="6.13008">
        <ele>1355.4</ele>
        <time>2017-04-06T13:50:50Z</time>
      </trkpt>
      <trkpt lat="44.38595" lon="6.1303">
        <ele>1353.4</ele>
        <time>2017-04-06T13:51:07Z</time>
      </trkpt>
      <trkpt lat="44.38585" lon="6.13055">
        <ele>1352.8</ele>
        <time>2017-04-06T13:51:24Z</time>
      </trkpt>
      <trkpt lat="44.38578" lon="6.13073">
        <ele>1353.5</ele>
        <time>2017-04-06T13:51:37Z</time>
      </trkpt>
      <trkpt lat="44.38578" lon="6.13075">
        <ele>1353.4</ele>
        <time>2017-04-06T13:51:38Z</time>
      </trkpt>
      <trkpt lat="44.38578" lon="6.1308">
        <ele>1353</ele>
        <time>2017-04-06T13:51:41Z</time>
      </trkpt>
      <trkpt lat="44.38581" lon="6.1311">
        <ele>1349.7</ele>
        <time>2017-04-06T13:51:59Z</time>
      </trkpt>
      <trkpt lat="44.38582" lon="6.13117">
        <ele>1348.4</ele>
        <time>2017-04-06T13:52:03Z</time>
      </trkpt>
      <trkpt lat="44.38585" lon="6.13125">
        <ele>1346</ele>
        <time>2017-04-06T13:52:08Z</time>
      </trkpt>
      <trkpt lat="44.38586" lon="6.13134">
        <ele>1343.9</ele>
        <time>2017-04-06T13:52:13Z</time>
      </trkpt>
      <trkpt lat="44.38585" lon="6.13136">
        <ele>1343.7</ele>
        <time>2017-04-06T13:52:14Z</time>
      </trkpt>
      <trkpt lat="44.38585" lon="6.13138">
        <ele>1343.4</ele>
        <time>2017-04-06T13:52:15Z</time>
      </trkpt>
      <trkpt lat="44.38586" lon="6.13141">
        <ele>1342.8</ele>
        <time>2017-04-06T13:52:16Z</time>
      </trkpt>
      <trkpt lat="44.38586" lon="6.13143">
        <ele>1341.9</ele>
        <time>2017-04-06T13:52:17Z</time>
      </trkpt>
      <trkpt lat="44.38587" lon="6.13149">
        <ele>1340</ele>
        <time>2017-04-06T13:52:20Z</time>
      </trkpt>
      <trkpt lat="44.38587" lon="6.13151">
        <ele>1339.5</ele>
        <time>2017-04-06T13:52:21Z</time>
      </trkpt>
      <trkpt lat="44.38586" lon="6.13153">
        <ele>1339.1</ele>
        <time>2017-04-06T13:52:22Z</time>
      </trkpt>
      <trkpt lat="44.38586" lon="6.13155">
        <ele>1338.6</ele>
        <time>2017-04-06T13:52:23Z</time>
      </trkpt>
      <trkpt lat="44.38585" lon="6.13157">
        <ele>1338.4</ele>
        <time>2017-04-06T13:52:24Z</time>
      </trkpt>
      <trkpt lat="44.38584" lon="6.13158">
        <ele>1338.3</ele>
        <time>2017-04-06T13:52:25Z</time>
      </trkpt>
      <trkpt lat="44.38581" lon="6.13161">
        <ele>1338.2</ele>
        <time>2017-04-06T13:52:27Z</time>
      </trkpt>
      <trkpt lat="44.3858" lon="6.13162">
        <ele>1338.5</ele>
        <time>2017-04-06T13:52:28Z</time>
      </trkpt>
      <trkpt lat="44.38578" lon="6.13163">
        <ele>1338.7</ele>
        <time>2017-04-06T13:52:29Z</time>
      </trkpt>
      <trkpt lat="44.38578" lon="6.13161">
        <ele>1339.1</ele>
        <time>2017-04-06T13:52:35Z</time>
      </trkpt>
      <trkpt lat="44.38574" lon="6.13164">
        <ele>1339.3</ele>
        <time>2017-04-06T13:53:05Z</time>
      </trkpt>
      <trkpt lat="44.38573" lon="6.13165">
        <ele>1339.5</ele>
        <time>2017-04-06T13:53:10Z</time>
      </trkpt>
      <trkpt lat="44.38572" lon="6.13161">
        <ele>1341</ele>
        <time>2017-04-06T13:53:38Z</time>
      </trkpt>
      <trkpt lat="44.38571" lon="6.13161">
        <ele>1341.1</ele>
        <time>2017-04-06T13:53:41Z</time>
      </trkpt>
      <trkpt lat="44.38568" lon="6.13159">
        <ele>1342.7</ele>
        <time>2017-04-06T13:54:03Z</time>
      </trkpt>
      <trkpt lat="44.38567" lon="6.13158">
        <ele>1343</ele>
        <time>2017-04-06T13:54:05Z</time>
      </trkpt>
      <trkpt lat="44.38568" lon="6.1316">
        <ele>1342.2</ele>
        <time>2017-04-06T13:54:29Z</time>
      </trkpt>
      <trkpt lat="44.38568" lon="6.13161">
        <ele>1342.3</ele>
        <time>2017-04-06T13:54:31Z</time>
      </trkpt>
      <trkpt lat="44.38558" lon="6.13154">
        <ele>1346.9</ele>
        <time>2017-04-06T13:56:56Z</time>
      </trkpt>
      <trkpt lat="44.38557" lon="6.13155">
        <ele>1346.9</ele>
        <time>2017-04-06T13:56:58Z</time>
      </trkpt>
      <trkpt lat="44.38504" lon="6.13247">
        <ele>1344</ele>
        <time>2017-04-06T13:58:39Z</time>
      </trkpt>
      <trkpt lat="44.38502" lon="6.1325">
        <ele>1344.2</ele>
        <time>2017-04-06T13:58:41Z</time>
      </trkpt>
      <trkpt lat="44.38499" lon="6.13271">
        <ele>1345.2</ele>
        <time>2017-04-06T13:58:54Z</time>
      </trkpt>
      <trkpt lat="44.385" lon="6.13272">
        <ele>1345.1</ele>
        <time>2017-04-06T13:58:55Z</time>
      </trkpt>
      <trkpt lat="44.385" lon="6.13274">
        <ele>1345</ele>
        <time>2017-04-06T13:58:56Z</time>
      </trkpt>
      <trkpt lat="44.38501" lon="6.13275">
        <ele>1344.7</ele>
        <time>2017-04-06T13:58:57Z</time>
      </trkpt>
      <trkpt lat="44.38502" lon="6.13277">
        <ele>1344.3</ele>
        <time>2017-04-06T13:58:58Z</time>
      </trkpt>
      <trkpt lat="44.38502" lon="6.13279">
        <ele>1344.3</ele>
        <time>2017-04-06T13:58:59Z</time>
      </trkpt>
      <trkpt lat="44.38502" lon="6.1328">
        <ele>1344.2</ele>
        <time>2017-04-06T13:59:00Z</time>
      </trkpt>
      <trkpt lat="44.38502" lon="6.13281">
        <ele>1343.9</ele>
        <time>2017-04-06T13:59:01Z</time>
      </trkpt>
      <trkpt lat="44.38502" lon="6.13283">
        <ele>1343.9</ele>
        <time>2017-04-06T13:59:02Z</time>
      </trkpt>
      <trkpt lat="44.38504" lon="6.13284">
        <ele>1343.3</ele>
        <time>2017-04-06T13:59:03Z</time>
      </trkpt>
      <trkpt lat="44.38504" lon="6.13286">
        <ele>1343.2</ele>
        <time>2017-04-06T13:59:04Z</time>
      </trkpt>
      <trkpt lat="44.38506" lon="6.13297">
        <ele>1341.9</ele>
        <time>2017-04-06T13:59:11Z</time>
      </trkpt>
      <trkpt lat="44.38508" lon="6.13306">
        <ele>1340.6</ele>
        <time>2017-04-06T13:59:17Z</time>
      </trkpt>
      <trkpt lat="44.38508" lon="6.13307">
        <ele>1340.5</ele>
        <time>2017-04-06T13:59:18Z</time>
      </trkpt>
      <trkpt lat="44.38508" lon="6.13309">
        <ele>1340.2</ele>
        <time>2017-04-06T13:59:19Z</time>
      </trkpt>
      <trkpt lat="44.38509" lon="6.13311">
        <ele>1340</ele>
        <time>2017-04-06T13:59:20Z</time>
      </trkpt>
      <trkpt lat="44.38509" lon="6.13313">
        <ele>1339.7</ele>
        <time>2017-04-06T13:59:21Z</time>
      </trkpt>
      <trkpt lat="44.38509" lon="6.13315">
        <ele>1339.5</ele>
        <time>2017-04-06T13:59:22Z</time>
      </trkpt>
      <trkpt lat="44.38509" lon="6.13317">
        <ele>1339.4</ele>
        <time>2017-04-06T13:59:23Z</time>
      </trkpt>
      <trkpt lat="44.38509" lon="6.13319">
        <ele>1339.3</ele>
        <time>2017-04-06T13:59:24Z</time>
      </trkpt>
      <trkpt lat="44.38509" lon="6.13321">
        <ele>1339.2</ele>
        <time>2017-04-06T13:59:25Z</time>
      </trkpt>
      <trkpt lat="44.38509" lon="6.13322">
        <ele>1339.3</ele>
        <time>2017-04-06T13:59:26Z</time>
      </trkpt>
      <trkpt lat="44.38509" lon="6.13324">
        <ele>1339.2</ele>
        <time>2017-04-06T13:59:27Z</time>
      </trkpt>
      <trkpt lat="44.38508" lon="6.13326">
        <ele>1339.4</ele>
        <time>2017-04-06T13:59:28Z</time>
      </trkpt>
      <trkpt lat="44.38509" lon="6.13328">
        <ele>1339.2</ele>
        <time>2017-04-06T13:59:29Z</time>
      </trkpt>
      <trkpt lat="44.38509" lon="6.13329">
        <ele>1339</ele>
        <time>2017-04-06T13:59:30Z</time>
      </trkpt>
      <trkpt lat="44.38509" lon="6.13331">
        <ele>1339.1</ele>
        <time>2017-04-06T13:59:31Z</time>
      </trkpt>
      <trkpt lat="44.38508" lon="6.13333">
        <ele>1339.2</ele>
        <time>2017-04-06T13:59:32Z</time>
      </trkpt>
      <trkpt lat="44.38499" lon="6.13352">
        <ele>1339.2</ele>
        <time>2017-04-06T13:59:45Z</time>
      </trkpt>
      <trkpt lat="44.38481" lon="6.13371">
        <ele>1337.6</ele>
        <time>2017-04-06T14:00:00Z</time>
      </trkpt>
      <trkpt lat="44.3848" lon="6.13372">
        <ele>1337.8</ele>
        <time>2017-04-06T14:00:01Z</time>
      </trkpt>
      <trkpt lat="44.38478" lon="6.13374">
        <ele>1337.6</ele>
        <time>2017-04-06T14:00:02Z</time>
      </trkpt>
      <trkpt lat="44.38478" lon="6.13375">
        <ele>1337.3</ele>
        <time>2017-04-06T14:00:03Z</time>
      </trkpt>
      <trkpt lat="44.38477" lon="6.13377">
        <ele>1336.9</ele>
        <time>2017-04-06T14:00:04Z</time>
      </trkpt>
      <trkpt lat="44.38476" lon="6.13378">
        <ele>1336.7</ele>
        <time>2017-04-06T14:00:05Z</time>
      </trkpt>
      <trkpt lat="44.38475" lon="6.13378">
        <ele>1336.7</ele>
        <time>2017-04-06T14:00:06Z</time>
      </trkpt>
      <trkpt lat="44.38474" lon="6.13379">
        <ele>1336.6</ele>
        <time>2017-04-06T14:00:07Z</time>
      </trkpt>
      <trkpt lat="44.38474" lon="6.1338">
        <ele>1336.6</ele>
        <time>2017-04-06T14:00:08Z</time>
      </trkpt>
      <trkpt lat="44.38459" lon="6.13394">
        <ele>1334.5</ele>
        <time>2017-04-06T14:00:20Z</time>
      </trkpt>
      <trkpt lat="44.38457" lon="6.13394">
        <ele>1334.8</ele>
        <time>2017-04-06T14:00:22Z</time>
      </trkpt>
      <trkpt lat="44.38456" lon="6.13395">
        <ele>1334.7</ele>
        <time>2017-04-06T14:00:23Z</time>
      </trkpt>
      <trkpt lat="44.38455" lon="6.13397">
        <ele>1334.4</ele>
        <time>2017-04-06T14:00:24Z</time>
      </trkpt>
      <trkpt lat="44.38454" lon="6.13397">
        <ele>1334.4</ele>
        <time>2017-04-06T14:00:25Z</time>
      </trkpt>
      <trkpt lat="44.38453" lon="6.13398">
        <ele>1334.4</ele>
        <time>2017-04-06T14:00:26Z</time>
      </trkpt>
      <trkpt lat="44.38452" lon="6.13399">
        <ele>1334.3</ele>
        <time>2017-04-06T14:00:27Z</time>
      </trkpt>
      <trkpt lat="44.38451" lon="6.134">
        <ele>1334.2</ele>
        <time>2017-04-06T14:00:28Z</time>
      </trkpt>
      <trkpt lat="44.3845" lon="6.13401">
        <ele>1334.1</ele>
        <time>2017-04-06T14:00:29Z</time>
      </trkpt>
      <trkpt lat="44.38449" lon="6.13401">
        <ele>1334.1</ele>
        <time>2017-04-06T14:00:30Z</time>
      </trkpt>
      <trkpt lat="44.3843" lon="6.13411">
        <ele>1336</ele>
        <time>2017-04-06T14:00:44Z</time>
      </trkpt>
      <trkpt lat="44.38412" lon="6.13421">
        <ele>1338.8</ele>
        <time>2017-04-06T14:00:59Z</time>
      </trkpt>
      <trkpt lat="44.3841" lon="6.13427">
        <ele>1338.4</ele>
        <time>2017-04-06T14:01:06Z</time>
      </trkpt>
      <trkpt lat="44.3841" lon="6.13429">
        <ele>1338.1</ele>
        <time>2017-04-06T14:01:07Z</time>
      </trkpt>
      <trkpt lat="44.3841" lon="6.13429">
        <ele>1338.1</ele>
        <time>2017-04-06T14:01:08Z</time>
      </trkpt>
      <trkpt lat="44.38407" lon="6.13446">
        <ele>1335.5</ele>
        <time>2017-04-06T14:01:22Z</time>
      </trkpt>
      <trkpt lat="44.38405" lon="6.13473">
        <ele>1330.7</ele>
        <time>2017-04-06T14:01:37Z</time>
      </trkpt>
      <trkpt lat="44.38407" lon="6.13481">
        <ele>1328.3</ele>
        <time>2017-04-06T14:01:44Z</time>
      </trkpt>
      <trkpt lat="44.38406" lon="6.13483">
        <ele>1328.2</ele>
        <time>2017-04-06T14:01:45Z</time>
      </trkpt>
      <trkpt lat="44.38405" lon="6.13493">
        <ele>1326.3</ele>
        <time>2017-04-06T14:01:51Z</time>
      </trkpt>
      <trkpt lat="44.38406" lon="6.13494">
        <ele>1325.7</ele>
        <time>2017-04-06T14:01:52Z</time>
      </trkpt>
      <trkpt lat="44.38398" lon="6.13521">
        <ele>1323.6</ele>
        <time>2017-04-06T14:02:06Z</time>
      </trkpt>
      <trkpt lat="44.38396" lon="6.13525">
        <ele>1323.6</ele>
        <time>2017-04-06T14:02:10Z</time>
      </trkpt>
      <trkpt lat="44.38395" lon="6.13525">
        <ele>1323.9</ele>
        <time>2017-04-06T14:02:11Z</time>
      </trkpt>
      <trkpt lat="44.38395" lon="6.13527">
        <ele>1323.5</ele>
        <time>2017-04-06T14:02:12Z</time>
      </trkpt>
      <trkpt lat="44.38396" lon="6.13528">
        <ele>1323</ele>
        <time>2017-04-06T14:02:13Z</time>
      </trkpt>
      <trkpt lat="44.38395" lon="6.1353">
        <ele>1322.9</ele>
        <time>2017-04-06T14:02:14Z</time>
      </trkpt>
      <trkpt lat="44.38395" lon="6.13531">
        <ele>1322.9</ele>
        <time>2017-04-06T14:02:15Z</time>
      </trkpt>
      <trkpt lat="44.38394" lon="6.13533">
        <ele>1322.5</ele>
        <time>2017-04-06T14:02:17Z</time>
      </trkpt>
      <trkpt lat="44.38382" lon="6.13562">
        <ele>1320.9</ele>
        <time>2017-04-06T14:02:33Z</time>
      </trkpt>
      <trkpt lat="44.38369" lon="6.13578">
        <ele>1322.9</ele>
        <time>2017-04-06T14:02:48Z</time>
      </trkpt>
      <trkpt lat="44.38364" lon="6.13589">
        <ele>1322.2</ele>
        <time>2017-04-06T14:02:57Z</time>
      </trkpt>
      <trkpt lat="44.38363" lon="6.13592">
        <ele>1321.8</ele>
        <time>2017-04-06T14:02:59Z</time>
      </trkpt>
      <trkpt lat="44.38363" lon="6.13593">
        <ele>1321.5</ele>
        <time>2017-04-06T14:03:00Z</time>
      </trkpt>
      <trkpt lat="44.38363" lon="6.13595">
        <ele>1320.9</ele>
        <time>2017-04-06T14:03:01Z</time>
      </trkpt>
      <trkpt lat="44.38367" lon="6.13618">
        <ele>1313.3</ele>
        <time>2017-04-06T14:03:16Z</time>
      </trkpt>
      <trkpt lat="44.38364" lon="6.13629">
        <ele>1311.6</ele>
        <time>2017-04-06T14:03:25Z</time>
      </trkpt>
      <trkpt lat="44.38362" lon="6.1363">
        <ele>1311.8</ele>
        <time>2017-04-06T14:03:26Z</time>
      </trkpt>
      <trkpt lat="44.38363" lon="6.13632">
        <ele>1311</ele>
        <time>2017-04-06T14:03:27Z</time>
      </trkpt>
      <trkpt lat="44.38355" lon="6.13637">
        <ele>1312.6</ele>
        <time>2017-04-06T14:03:34Z</time>
      </trkpt>
      <trkpt lat="44.38337" lon="6.13639">
        <ele>1318.5</ele>
        <time>2017-04-06T14:03:47Z</time>
      </trkpt>
      <trkpt lat="44.38316" lon="6.1365">
        <ele>1322.8</ele>
        <time>2017-04-06T14:04:03Z</time>
      </trkpt>
      <trkpt lat="44.38305" lon="6.13665">
        <ele>1321.8</ele>
        <time>2017-04-06T14:04:19Z</time>
      </trkpt>
      <trkpt lat="44.38304" lon="6.13672">
        <ele>1320.2</ele>
        <time>2017-04-06T14:04:25Z</time>
      </trkpt>
      <trkpt lat="44.38303" lon="6.13673">
        <ele>1320.1</ele>
        <time>2017-04-06T14:04:26Z</time>
      </trkpt>
      <trkpt lat="44.38302" lon="6.13675">
        <ele>1320</ele>
        <time>2017-04-06T14:04:27Z</time>
      </trkpt>
      <trkpt lat="44.38302" lon="6.13676">
        <ele>1319.8</ele>
        <time>2017-04-06T14:04:28Z</time>
      </trkpt>
      <trkpt lat="44.38303" lon="6.13677">
        <ele>1319.2</ele>
        <time>2017-04-06T14:04:29Z</time>
      </trkpt>
      <trkpt lat="44.38303" lon="6.13681">
        <ele>1318.4</ele>
        <time>2017-04-06T14:04:32Z</time>
      </trkpt>
      <trkpt lat="44.38302" lon="6.13682">
        <ele>1318.1</ele>
        <time>2017-04-06T14:04:33Z</time>
      </trkpt>
      <trkpt lat="44.38302" lon="6.13684">
        <ele>1317.7</ele>
        <time>2017-04-06T14:04:34Z</time>
      </trkpt>
      <trkpt lat="44.38302" lon="6.13685">
        <ele>1317.4</ele>
        <time>2017-04-06T14:04:35Z</time>
      </trkpt>
      <trkpt lat="44.38302" lon="6.13687">
        <ele>1317.1</ele>
        <time>2017-04-06T14:04:36Z</time>
      </trkpt>
      <trkpt lat="44.38302" lon="6.13688">
        <ele>1316.8</ele>
        <time>2017-04-06T14:04:37Z</time>
      </trkpt>
      <trkpt lat="44.38302" lon="6.13689">
        <ele>1316.2</ele>
        <time>2017-04-06T14:04:38Z</time>
      </trkpt>
      <trkpt lat="44.38304" lon="6.13691">
        <ele>1315.4</ele>
        <time>2017-04-06T14:04:39Z</time>
      </trkpt>
      <trkpt lat="44.38304" lon="6.13692">
        <ele>1315</ele>
        <time>2017-04-06T14:04:40Z</time>
      </trkpt>
      <trkpt lat="44.38303" lon="6.13699">
        <ele>1314</ele>
        <time>2017-04-06T14:04:45Z</time>
      </trkpt>
      <trkpt lat="44.38303" lon="6.137">
        <ele>1313.8</ele>
        <time>2017-04-06T14:04:46Z</time>
      </trkpt>
      <trkpt lat="44.38303" lon="6.137">
        <ele>1313.8</ele>
        <time>2017-04-06T14:04:47Z</time>
      </trkpt>
      <trkpt lat="44.38301" lon="6.13702">
        <ele>1314.1</ele>
        <time>2017-04-06T14:04:48Z</time>
      </trkpt>
      <trkpt lat="44.383" lon="6.13703">
        <ele>1314.1</ele>
        <time>2017-04-06T14:04:49Z</time>
      </trkpt>
      <trkpt lat="44.38299" lon="6.13704">
        <ele>1314.2</ele>
        <time>2017-04-06T14:04:50Z</time>
      </trkpt>
      <trkpt lat="44.38298" lon="6.13705">
        <ele>1314.2</ele>
        <time>2017-04-06T14:04:51Z</time>
      </trkpt>
      <trkpt lat="44.38296" lon="6.13724">
        <ele>1311.4</ele>
        <time>2017-04-06T14:05:04Z</time>
      </trkpt>
      <trkpt lat="44.38302" lon="6.13748">
        <ele>1305.4</ele>
        <time>2017-04-06T14:05:19Z</time>
      </trkpt>
      <trkpt lat="44.38304" lon="6.13766">
        <ele>1301.7</ele>
        <time>2017-04-06T14:05:35Z</time>
      </trkpt>
      <trkpt lat="44.38303" lon="6.13774">
        <ele>1300.4</ele>
        <time>2017-04-06T14:05:42Z</time>
      </trkpt>
      <trkpt lat="44.38303" lon="6.13774">
        <ele>1300.4</ele>
        <time>2017-04-06T14:05:43Z</time>
      </trkpt>
      <trkpt lat="44.38303" lon="6.13776">
        <ele>1300.3</ele>
        <time>2017-04-06T14:05:44Z</time>
      </trkpt>
      <trkpt lat="44.38303" lon="6.13777">
        <ele>1300.2</ele>
        <time>2017-04-06T14:05:45Z</time>
      </trkpt>
      <trkpt lat="44.38299" lon="6.13783">
        <ele>1300.2</ele>
        <time>2017-04-06T14:05:54Z</time>
      </trkpt>
      <trkpt lat="44.38285" lon="6.13797">
        <ele>1302.2</ele>
        <time>2017-04-06T14:06:05Z</time>
      </trkpt>
      <trkpt lat="44.38278" lon="6.13812">
        <ele>1301.9</ele>
        <time>2017-04-06T14:06:20Z</time>
      </trkpt>
      <trkpt lat="44.38278" lon="6.13818">
        <ele>1301.2</ele>
        <time>2017-04-06T14:06:23Z</time>
      </trkpt>
      <trkpt lat="44.38276" lon="6.1382">
        <ele>1301.4</ele>
        <time>2017-04-06T14:06:24Z</time>
      </trkpt>
      <trkpt lat="44.3827" lon="6.13825">
        <ele>1302.7</ele>
        <time>2017-04-06T14:06:30Z</time>
      </trkpt>
      <trkpt lat="44.38267" lon="6.13827">
        <ele>1303.6</ele>
        <time>2017-04-06T14:06:31Z</time>
      </trkpt>
      <trkpt lat="44.38265" lon="6.13829">
        <ele>1304.3</ele>
        <time>2017-04-06T14:06:32Z</time>
      </trkpt>
      <trkpt lat="44.38263" lon="6.13831">
        <ele>1304.8</ele>
        <time>2017-04-06T14:06:33Z</time>
      </trkpt>
      <trkpt lat="44.38262" lon="6.13831">
        <ele>1305.1</ele>
        <time>2017-04-06T14:06:34Z</time>
      </trkpt>
      <trkpt lat="44.38258" lon="6.13834">
        <ele>1306.2</ele>
        <time>2017-04-06T14:06:35Z</time>
      </trkpt>
      <trkpt lat="44.38256" lon="6.13834">
        <ele>1306.9</ele>
        <time>2017-04-06T14:06:36Z</time>
      </trkpt>
      <trkpt lat="44.38254" lon="6.13837">
        <ele>1307.2</ele>
        <time>2017-04-06T14:06:37Z</time>
      </trkpt>
      <trkpt lat="44.38237" lon="6.13848">
        <ele>1311.6</ele>
        <time>2017-04-06T14:06:50Z</time>
      </trkpt>
      <trkpt lat="44.38224" lon="6.13854">
        <ele>1315</ele>
        <time>2017-04-06T14:07:03Z</time>
      </trkpt>
      <trkpt lat="44.38223" lon="6.13855">
        <ele>1315.5</ele>
        <time>2017-04-06T14:07:04Z</time>
      </trkpt>
      <trkpt lat="44.38222" lon="6.13856">
        <ele>1315.7</ele>
        <time>2017-04-06T14:07:05Z</time>
      </trkpt>
      <trkpt lat="44.38221" lon="6.13857">
        <ele>1315.9</ele>
        <time>2017-04-06T14:07:06Z</time>
      </trkpt>
      <trkpt lat="44.3822" lon="6.13856">
        <ele>1316.4</ele>
        <time>2017-04-06T14:07:07Z</time>
      </trkpt>
      <trkpt lat="44.38219" lon="6.13858">
        <ele>1316.4</ele>
        <time>2017-04-06T14:07:08Z</time>
      </trkpt>
      <trkpt lat="44.38219" lon="6.1386">
        <ele>1316.2</ele>
        <time>2017-04-06T14:07:09Z</time>
      </trkpt>
      <trkpt lat="44.38221" lon="6.13861">
        <ele>1315.6</ele>
        <time>2017-04-06T14:07:10Z</time>
      </trkpt>
      <trkpt lat="44.38223" lon="6.13864">
        <ele>1314.5</ele>
        <time>2017-04-06T14:07:13Z</time>
      </trkpt>
      <trkpt lat="44.38225" lon="6.13865">
        <ele>1313.9</ele>
        <time>2017-04-06T14:07:14Z</time>
      </trkpt>
      <trkpt lat="44.38226" lon="6.13866">
        <ele>1313.5</ele>
        <time>2017-04-06T14:07:15Z</time>
      </trkpt>
      <trkpt lat="44.38227" lon="6.13867">
        <ele>1313</ele>
        <time>2017-04-06T14:07:16Z</time>
      </trkpt>
      <trkpt lat="44.38228" lon="6.13868">
        <ele>1312.5</ele>
        <time>2017-04-06T14:07:17Z</time>
      </trkpt>
      <trkpt lat="44.38231" lon="6.13871">
        <ele>1311.4</ele>
        <time>2017-04-06T14:07:20Z</time>
      </trkpt>
      <trkpt lat="44.38232" lon="6.13871">
        <ele>1311</ele>
        <time>2017-04-06T14:07:21Z</time>
      </trkpt>
      <trkpt lat="44.38233" lon="6.13871">
        <ele>1310.6</ele>
        <time>2017-04-06T14:07:22Z</time>
      </trkpt>
      <trkpt lat="44.3823" lon="6.13869">
        <ele>1311.9</ele>
        <time>2017-04-06T14:07:23Z</time>
      </trkpt>
      <trkpt lat="44.38229" lon="6.1387">
        <ele>1312.1</ele>
        <time>2017-04-06T14:07:24Z</time>
      </trkpt>
      <trkpt lat="44.3823" lon="6.13864">
        <ele>1312.2</ele>
        <time>2017-04-06T14:07:34Z</time>
      </trkpt>
      <trkpt lat="44.38242" lon="6.13887">
        <ele>1306.1</ele>
        <time>2017-04-06T14:08:03Z</time>
      </trkpt>
      <trkpt lat="44.38258" lon="6.13907">
        <ele>1299.5</ele>
        <time>2017-04-06T14:08:27Z</time>
      </trkpt>
      <trkpt lat="44.38271" lon="6.13928">
        <ele>1294.9</ele>
        <time>2017-04-06T14:08:49Z</time>
      </trkpt>
      <trkpt lat="44.38276" lon="6.13958">
        <ele>1292.5</ele>
        <time>2017-04-06T14:09:12Z</time>
      </trkpt>
      <trkpt lat="44.38274" lon="6.13972">
        <ele>1293.5</ele>
        <time>2017-04-06T14:09:25Z</time>
      </trkpt>
      <trkpt lat="44.38325" lon="6.14061">
        <ele>1269</ele>
        <time>2017-04-06T14:12:52Z</time>
      </trkpt>
      <trkpt lat="44.3833" lon="6.14066">
        <ele>1267.3</ele>
        <time>2017-04-06T14:12:59Z</time>
      </trkpt>
      <trkpt lat="44.38354" lon="6.14134">
        <ele>1258.9</ele>
        <time>2017-04-06T14:14:11Z</time>
      </trkpt>
      <trkpt lat="44.38353" lon="6.14145">
        <ele>1259.8</ele>
        <time>2017-04-06T14:14:21Z</time>
      </trkpt>
      <trkpt lat="44.38386" lon="6.1425">
        <ele>1246.4</ele>
        <time>2017-04-06T14:16:11Z</time>
      </trkpt>
      <trkpt lat="44.38391" lon="6.14285">
        <ele>1243.9</ele>
        <time>2017-04-06T14:16:38Z</time>
      </trkpt>
      <trkpt lat="44.38401" lon="6.14311">
        <ele>1238.9</ele>
        <time>2017-04-06T14:17:01Z</time>
      </trkpt>
      <trkpt lat="44.38409" lon="6.14332">
        <ele>1233.5</ele>
        <time>2017-04-06T14:17:20Z</time>
      </trkpt>
      <trkpt lat="44.38417" lon="6.14355">
        <ele>1228.8</ele>
        <time>2017-04-06T14:17:37Z</time>
      </trkpt>
      <trkpt lat="44.38419" lon="6.14362">
        <ele>1227.7</ele>
        <time>2017-04-06T14:17:50Z</time>
      </trkpt>
      <trkpt lat="44.38441" lon="6.14452">
        <ele>1218.7</ele>
        <time>2017-04-06T14:19:13Z</time>
      </trkpt>
      <trkpt lat="44.38446" lon="6.14471">
        <ele>1217.5</ele>
        <time>2017-04-06T14:19:26Z</time>
      </trkpt>
      <trkpt lat="44.38453" lon="6.14501">
        <ele>1217.2</ele>
        <time>2017-04-06T14:19:46Z</time>
      </trkpt>
      <trkpt lat="44.38455" lon="6.14518">
        <ele>1218.2</ele>
        <time>2017-04-06T14:20:02Z</time>
      </trkpt>
      <trkpt lat="44.38452" lon="6.14503">
        <ele>1217.7</ele>
        <time>2017-04-06T14:20:10Z</time>
      </trkpt>
      <trkpt lat="44.38453" lon="6.14487">
        <ele>1215.9</ele>
        <time>2017-04-06T14:20:24Z</time>
      </trkpt>
      <trkpt lat="44.38462" lon="6.14478">
        <ele>1212.1</ele>
        <time>2017-04-06T14:23:33Z</time>
      </trkpt>
      <trkpt lat="44.38462" lon="6.14478">
        <ele>1212.1</ele>
        <time>2017-04-06T14:23:36Z</time>
      </trkpt>
      <trkpt lat="44.38462" lon="6.14479">
        <ele>1212.3</ele>
        <time>2017-04-06T14:23:56Z</time>
      </trkpt>
      <trkpt lat="44.38462" lon="6.1448">
        <ele>1212.3</ele>
        <time>2017-04-06T14:23:59Z</time>
      </trkpt>
      <trkpt lat="44.38471" lon="6.14481">
        <ele>1209.2</ele>
        <time>2017-04-06T14:24:20Z</time>
      </trkpt>
      <trkpt lat="44.3848" lon="6.14486">
        <ele>1206.9</ele>
        <time>2017-04-06T14:24:33Z</time>
      </trkpt>
      <trkpt lat="44.38483" lon="6.14486">
        <ele>1206.1</ele>
        <time>2017-04-06T14:24:36Z</time>
      </trkpt>
      <trkpt lat="44.38488" lon="6.14479">
        <ele>1204.3</ele>
        <time>2017-04-06T14:24:42Z</time>
      </trkpt>
      <trkpt lat="44.3849" lon="6.14478">
        <ele>1203.8</ele>
        <time>2017-04-06T14:24:48Z</time>
      </trkpt>
      <trkpt lat="44.38501" lon="6.14476">
        <ele>1200.9</ele>
        <time>2017-04-06T14:25:02Z</time>
      </trkpt>
      <trkpt lat="44.38503" lon="6.14476">
        <ele>1200.5</ele>
        <time>2017-04-06T14:25:04Z</time>
      </trkpt>
      <trkpt lat="44.38507" lon="6.14473">
        <ele>1199.6</ele>
        <time>2017-04-06T14:25:07Z</time>
      </trkpt>
      <trkpt lat="44.3851" lon="6.14475">
        <ele>1199</ele>
        <time>2017-04-06T14:25:11Z</time>
      </trkpt>
      <trkpt lat="44.38521" lon="6.14463">
        <ele>1195.9</ele>
        <time>2017-04-06T14:25:26Z</time>
      </trkpt>
      <trkpt lat="44.38532" lon="6.14457">
        <ele>1193</ele>
        <time>2017-04-06T14:25:41Z</time>
      </trkpt>
      <trkpt lat="44.38544" lon="6.14452">
        <ele>1190.1</ele>
        <time>2017-04-06T14:25:54Z</time>
      </trkpt>
      <trkpt lat="44.38551" lon="6.14452">
        <ele>1188.6</ele>
        <time>2017-04-06T14:25:59Z</time>
      </trkpt>
      <trkpt lat="44.38552" lon="6.14452">
        <ele>1188.4</ele>
        <time>2017-04-06T14:26:00Z</time>
      </trkpt>
      <trkpt lat="44.38563" lon="6.14461">
        <ele>1186.6</ele>
        <time>2017-04-06T14:26:14Z</time>
      </trkpt>
      <trkpt lat="44.38564" lon="6.14461">
        <ele>1186.4</ele>
        <time>2017-04-06T14:26:19Z</time>
      </trkpt>
      <trkpt lat="44.38573" lon="6.14464">
        <ele>1184.9</ele>
        <time>2017-04-06T14:26:58Z</time>
      </trkpt>
      <trkpt lat="44.38583" lon="6.14475">
        <ele>1183.1</ele>
        <time>2017-04-06T14:27:10Z</time>
      </trkpt>
      <trkpt lat="44.38594" lon="6.14489">
        <ele>1181.4</ele>
        <time>2017-04-06T14:27:25Z</time>
      </trkpt>
      <trkpt lat="44.38596" lon="6.14493">
        <ele>1181</ele>
        <time>2017-04-06T14:27:29Z</time>
      </trkpt>
      <trkpt lat="44.38605" lon="6.14506">
        <ele>1179.3</ele>
        <time>2017-04-06T14:27:43Z</time>
      </trkpt>
      <trkpt lat="44.38613" lon="6.14516">
        <ele>1177.5</ele>
        <time>2017-04-06T14:27:56Z</time>
      </trkpt>
      <trkpt lat="44.38626" lon="6.14523">
        <ele>1174.8</ele>
        <time>2017-04-06T14:28:12Z</time>
      </trkpt>
      <trkpt lat="44.38639" lon="6.14524">
        <ele>1172</ele>
        <time>2017-04-06T14:28:29Z</time>
      </trkpt>
      <trkpt lat="44.38652" lon="6.14531">
        <ele>1169.5</ele>
        <time>2017-04-06T14:28:44Z</time>
      </trkpt>
      <trkpt lat="44.38662" lon="6.14541">
        <ele>1167.3</ele>
        <time>2017-04-06T14:28:56Z</time>
      </trkpt>
      <trkpt lat="44.38672" lon="6.14552">
        <ele>1165.1</ele>
        <time>2017-04-06T14:29:11Z</time>
      </trkpt>
      <trkpt lat="44.38686" lon="6.14562">
        <ele>1162.4</ele>
        <time>2017-04-06T14:29:27Z</time>
      </trkpt>
      <trkpt lat="44.38697" lon="6.14567">
        <ele>1160.3</ele>
        <time>2017-04-06T14:29:41Z</time>
      </trkpt>
      <trkpt lat="44.38707" lon="6.14572">
        <ele>1158.6</ele>
        <time>2017-04-06T14:29:55Z</time>
      </trkpt>
      <trkpt lat="44.38715" lon="6.14578">
        <ele>1157.3</ele>
        <time>2017-04-06T14:30:05Z</time>
      </trkpt>
      <trkpt lat="44.38716" lon="6.14578">
        <ele>1157.1</ele>
        <time>2017-04-06T14:30:06Z</time>
      </trkpt>
      <trkpt lat="44.38716" lon="6.14579">
        <ele>1157</ele>
        <time>2017-04-06T14:30:07Z</time>
      </trkpt>
      <trkpt lat="44.38723" lon="6.14592">
        <ele>1155.2</ele>
        <time>2017-04-06T14:30:21Z</time>
      </trkpt>
      <trkpt lat="44.38738" lon="6.14604">
        <ele>1152.2</ele>
        <time>2017-04-06T14:30:36Z</time>
      </trkpt>
      <trkpt lat="44.38742" lon="6.14607">
        <ele>1151.4</ele>
        <time>2017-04-06T14:30:41Z</time>
      </trkpt>
      <trkpt lat="44.38752" lon="6.14622">
        <ele>1149.4</ele>
        <time>2017-04-06T14:30:58Z</time>
      </trkpt>
      <trkpt lat="44.38765" lon="6.14636">
        <ele>1146.9</ele>
        <time>2017-04-06T14:31:15Z</time>
      </trkpt>
      <trkpt lat="44.38778" lon="6.14651">
        <ele>1144.5</ele>
        <time>2017-04-06T14:31:31Z</time>
      </trkpt>
      <trkpt lat="44.38782" lon="6.14654">
        <ele>1143.9</ele>
        <time>2017-04-06T14:31:36Z</time>
      </trkpt>
      <trkpt lat="44.38795" lon="6.14666">
        <ele>1142.2</ele>
        <time>2017-04-06T14:31:52Z</time>
      </trkpt>
      <trkpt lat="44.388" lon="6.1467">
        <ele>1141.6</ele>
        <time>2017-04-06T14:31:57Z</time>
      </trkpt>
      <trkpt lat="44.38811" lon="6.14681">
        <ele>1140</ele>
        <time>2017-04-06T14:32:11Z</time>
      </trkpt>
      <trkpt lat="44.38814" lon="6.14683">
        <ele>1139.6</ele>
        <time>2017-04-06T14:32:16Z</time>
      </trkpt>
      <trkpt lat="44.38828" lon="6.14692">
        <ele>1137</ele>
        <time>2017-04-06T14:32:32Z</time>
      </trkpt>
      <trkpt lat="44.38835" lon="6.14705">
        <ele>1136.1</ele>
        <time>2017-04-06T14:32:46Z</time>
      </trkpt>
      <trkpt lat="44.38844" lon="6.14713">
        <ele>1135.2</ele>
        <time>2017-04-06T14:32:56Z</time>
      </trkpt>
      <trkpt lat="44.38846" lon="6.14716">
        <ele>1135</ele>
        <time>2017-04-06T14:33:05Z</time>
      </trkpt>
      <trkpt lat="44.38857" lon="6.14723">
        <ele>1133.6</ele>
        <time>2017-04-06T14:33:35Z</time>
      </trkpt>
      <trkpt lat="44.38871" lon="6.14737">
        <ele>1130.9</ele>
        <time>2017-04-06T14:33:50Z</time>
      </trkpt>
      <trkpt lat="44.38884" lon="6.14745">
        <ele>1128.1</ele>
        <time>2017-04-06T14:34:05Z</time>
      </trkpt>
      <trkpt lat="44.38892" lon="6.14757">
        <ele>1126.4</ele>
        <time>2017-04-06T14:34:15Z</time>
      </trkpt>
      <trkpt lat="44.38903" lon="6.14766">
        <ele>1123.9</ele>
        <time>2017-04-06T14:34:34Z</time>
      </trkpt>
      <trkpt lat="44.38904" lon="6.1477">
        <ele>1123.5</ele>
        <time>2017-04-06T14:34:44Z</time>
      </trkpt>
      <trkpt lat="44.3893" lon="6.1484">
        <ele>1118.5</ele>
        <time>2017-04-06T14:37:40Z</time>
      </trkpt>
      <trkpt lat="44.38933" lon="6.14844">
        <ele>1118.6</ele>
        <time>2017-04-06T14:37:44Z</time>
      </trkpt>
      <trkpt lat="44.38938" lon="6.14853">
        <ele>1119.1</ele>
        <time>2017-04-06T14:37:51Z</time>
      </trkpt>
      <trkpt lat="44.38939" lon="6.14854">
        <ele>1119.1</ele>
        <time>2017-04-06T14:37:52Z</time>
      </trkpt>
      <trkpt lat="44.38939" lon="6.14855">
        <ele>1119.2</ele>
        <time>2017-04-06T14:37:53Z</time>
      </trkpt>
      <trkpt lat="44.38942" lon="6.14862">
        <ele>1119.7</ele>
        <time>2017-04-06T14:37:59Z</time>
      </trkpt>
      <trkpt lat="44.38945" lon="6.14869">
        <ele>1119.9</ele>
        <time>2017-04-06T14:38:05Z</time>
      </trkpt>
      <trkpt lat="44.38946" lon="6.1487">
        <ele>1120</ele>
        <time>2017-04-06T14:38:06Z</time>
      </trkpt>
      <trkpt lat="44.38947" lon="6.14875">
        <ele>1120.4</ele>
        <time>2017-04-06T14:38:10Z</time>
      </trkpt>
      <trkpt lat="44.38962" lon="6.14885">
        <ele>1118.5</ele>
        <time>2017-04-06T14:38:26Z</time>
      </trkpt>
      <trkpt lat="44.38965" lon="6.14886">
        <ele>1118.1</ele>
        <time>2017-04-06T14:38:31Z</time>
      </trkpt>
      <trkpt lat="44.39015" lon="6.14889">
        <ele>1113.5</ele>
        <time>2017-04-06T14:39:16Z</time>
      </trkpt>
      <trkpt lat="44.3903" lon="6.14891">
        <ele>1112.8</ele>
        <time>2017-04-06T14:39:31Z</time>
      </trkpt>
      <trkpt lat="44.39044" lon="6.14898">
        <ele>1111.3</ele>
        <time>2017-04-06T14:39:46Z</time>
      </trkpt>
      <trkpt lat="44.39057" lon="6.14911">
        <ele>1109.9</ele>
        <time>2017-04-06T14:40:02Z</time>
      </trkpt>
      <trkpt lat="44.39072" lon="6.14924">
        <ele>1108.8</ele>
        <time>2017-04-06T14:40:17Z</time>
      </trkpt>
      <trkpt lat="44.3908" lon="6.14935">
        <ele>1107.7</ele>
        <time>2017-04-06T14:40:30Z</time>
      </trkpt>
      <trkpt lat="44.39081" lon="6.1494">
        <ele>1107.5</ele>
        <time>2017-04-06T14:40:34Z</time>
      </trkpt>
      <trkpt lat="44.39087" lon="6.14951">
        <ele>1106.8</ele>
        <time>2017-04-06T14:40:44Z</time>
      </trkpt>
      <trkpt lat="44.39088" lon="6.14952">
        <ele>1106.8</ele>
        <time>2017-04-06T14:40:45Z</time>
      </trkpt>
      <trkpt lat="44.39088" lon="6.14954">
        <ele>1106.8</ele>
        <time>2017-04-06T14:40:46Z</time>
      </trkpt>
      <trkpt lat="44.39089" lon="6.14955">
        <ele>1106.7</ele>
        <time>2017-04-06T14:40:47Z</time>
      </trkpt>
      <trkpt lat="44.39089" lon="6.14956">
        <ele>1106.7</ele>
        <time>2017-04-06T14:40:48Z</time>
      </trkpt>
      <trkpt lat="44.39088" lon="6.14958">
        <ele>1106.7</ele>
        <time>2017-04-06T14:40:49Z</time>
      </trkpt>
      <trkpt lat="44.39089" lon="6.1496">
        <ele>1106.7</ele>
        <time>2017-04-06T14:40:52Z</time>
      </trkpt>
      <trkpt lat="44.39099" lon="6.1497">
        <ele>1105.9</ele>
        <time>2017-04-06T14:41:07Z</time>
      </trkpt>
      <trkpt lat="44.39109" lon="6.14982">
        <ele>1104.8</ele>
        <time>2017-04-06T14:41:20Z</time>
      </trkpt>
      <trkpt lat="44.39115" lon="6.14995">
        <ele>1103.7</ele>
        <time>2017-04-06T14:41:33Z</time>
      </trkpt>
      <trkpt lat="44.39115" lon="6.14996">
        <ele>1103.6</ele>
        <time>2017-04-06T14:41:34Z</time>
      </trkpt>
      <trkpt lat="44.39117" lon="6.14996">
        <ele>1103.4</ele>
        <time>2017-04-06T14:41:35Z</time>
      </trkpt>
      <trkpt lat="44.39118" lon="6.14997">
        <ele>1103.1</ele>
        <time>2017-04-06T14:41:36Z</time>
      </trkpt>
      <trkpt lat="44.3912" lon="6.14998">
        <ele>1102.8</ele>
        <time>2017-04-06T14:41:37Z</time>
      </trkpt>
      <trkpt lat="44.39135" lon="6.15003">
        <ele>1100.4</ele>
        <time>2017-04-06T14:41:51Z</time>
      </trkpt>
      <trkpt lat="44.39142" lon="6.15009">
        <ele>1099.2</ele>
        <time>2017-04-06T14:41:59Z</time>
      </trkpt>
      <trkpt lat="44.39142" lon="6.1501">
        <ele>1099</ele>
        <time>2017-04-06T14:42:00Z</time>
      </trkpt>
      <trkpt lat="44.39143" lon="6.15011">
        <ele>1098.9</ele>
        <time>2017-04-06T14:42:01Z</time>
      </trkpt>
      <trkpt lat="44.39143" lon="6.15012">
        <ele>1098.8</ele>
        <time>2017-04-06T14:42:02Z</time>
      </trkpt>
      <trkpt lat="44.39144" lon="6.15012">
        <ele>1098.7</ele>
        <time>2017-04-06T14:42:03Z</time>
      </trkpt>
      <trkpt lat="44.39145" lon="6.15013">
        <ele>1098.5</ele>
        <time>2017-04-06T14:42:04Z</time>
      </trkpt>
      <trkpt lat="44.39146" lon="6.15014">
        <ele>1098.2</ele>
        <time>2017-04-06T14:42:05Z</time>
      </trkpt>
      <trkpt lat="44.39146" lon="6.15015">
        <ele>1098.2</ele>
        <time>2017-04-06T14:42:06Z</time>
      </trkpt>
      <trkpt lat="44.39147" lon="6.15017">
        <ele>1097.9</ele>
        <time>2017-04-06T14:42:08Z</time>
      </trkpt>
      <trkpt lat="44.39148" lon="6.15018">
        <ele>1097.8</ele>
        <time>2017-04-06T14:42:09Z</time>
      </trkpt>
      <trkpt lat="44.39148" lon="6.15019">
        <ele>1097.6</ele>
        <time>2017-04-06T14:42:10Z</time>
      </trkpt>
      <trkpt lat="44.39149" lon="6.1502">
        <ele>1097.5</ele>
        <time>2017-04-06T14:42:11Z</time>
      </trkpt>
      <trkpt lat="44.39149" lon="6.15021">
        <ele>1097.4</ele>
        <time>2017-04-06T14:42:12Z</time>
      </trkpt>
      <trkpt lat="44.3916" lon="6.15029">
        <ele>1095.2</ele>
        <time>2017-04-06T14:42:27Z</time>
      </trkpt>
      <trkpt lat="44.39166" lon="6.1504">
        <ele>1093.7</ele>
        <time>2017-04-06T14:42:38Z</time>
      </trkpt>
      <trkpt lat="44.39167" lon="6.15042">
        <ele>1093.4</ele>
        <time>2017-04-06T14:42:40Z</time>
      </trkpt>
      <trkpt lat="44.39174" lon="6.15053">
        <ele>1091.8</ele>
        <time>2017-04-06T14:42:53Z</time>
      </trkpt>
      <trkpt lat="44.39187" lon="6.15065">
        <ele>1089.2</ele>
        <time>2017-04-06T14:43:10Z</time>
      </trkpt>
      <trkpt lat="44.392" lon="6.15073">
        <ele>1087.1</ele>
        <time>2017-04-06T14:43:24Z</time>
      </trkpt>
      <trkpt lat="44.39212" lon="6.15083">
        <ele>1084.9</ele>
        <time>2017-04-06T14:43:40Z</time>
      </trkpt>
      <trkpt lat="44.3922" lon="6.15094">
        <ele>1083.4</ele>
        <time>2017-04-06T14:43:52Z</time>
      </trkpt>
      <trkpt lat="44.39221" lon="6.15096">
        <ele>1083.1</ele>
        <time>2017-04-06T14:43:55Z</time>
      </trkpt>
      <trkpt lat="44.39224" lon="6.15099">
        <ele>1082.7</ele>
        <time>2017-04-06T14:43:58Z</time>
      </trkpt>
      <trkpt lat="44.39226" lon="6.151">
        <ele>1082.4</ele>
        <time>2017-04-06T14:44:01Z</time>
      </trkpt>
      <trkpt lat="44.39237" lon="6.15107">
        <ele>1080.8</ele>
        <time>2017-04-06T14:44:16Z</time>
      </trkpt>
      <trkpt lat="44.39247" lon="6.15116">
        <ele>1079.6</ele>
        <time>2017-04-06T14:44:30Z</time>
      </trkpt>
      <trkpt lat="44.39254" lon="6.15124">
        <ele>1078.5</ele>
        <time>2017-04-06T14:44:42Z</time>
      </trkpt>
      <trkpt lat="44.39256" lon="6.15128">
        <ele>1078.2</ele>
        <time>2017-04-06T14:44:45Z</time>
      </trkpt>
      <trkpt lat="44.3927" lon="6.15133">
        <ele>1075.4</ele>
        <time>2017-04-06T14:45:01Z</time>
      </trkpt>
      <trkpt lat="44.39271" lon="6.15133">
        <ele>1075.2</ele>
        <time>2017-04-06T14:45:07Z</time>
      </trkpt>
      <trkpt lat="44.39293" lon="6.15147">
        <ele>1070.1</ele>
        <time>2017-04-06T14:46:23Z</time>
      </trkpt>
      <trkpt lat="44.39302" lon="6.15153">
        <ele>1068.3</ele>
        <time>2017-04-06T14:46:33Z</time>
      </trkpt>
      <trkpt lat="44.39301" lon="6.15154">
        <ele>1068.5</ele>
        <time>2017-04-06T14:46:35Z</time>
      </trkpt>
      <trkpt lat="44.39301" lon="6.15155">
        <ele>1068.6</ele>
        <time>2017-04-06T14:46:36Z</time>
      </trkpt>
      <trkpt lat="44.39303" lon="6.15155">
        <ele>1068.3</ele>
        <time>2017-04-06T14:46:37Z</time>
      </trkpt>
      <trkpt lat="44.39307" lon="6.15154">
        <ele>1067.2</ele>
        <time>2017-04-06T14:46:39Z</time>
      </trkpt>
      <trkpt lat="44.39311" lon="6.15155">
        <ele>1066.2</ele>
        <time>2017-04-06T14:46:43Z</time>
      </trkpt>
      <trkpt lat="44.3932" lon="6.15161">
        <ele>1064.7</ele>
        <time>2017-04-06T14:46:49Z</time>
      </trkpt>
      <trkpt lat="44.39327" lon="6.15162">
        <ele>1063.2</ele>
        <time>2017-04-06T14:46:56Z</time>
      </trkpt>
      <trkpt lat="44.39348" lon="6.15166">
        <ele>1058.3</ele>
        <time>2017-04-06T14:47:15Z</time>
      </trkpt>
      <trkpt lat="44.39357" lon="6.15168">
        <ele>1056.2</ele>
        <time>2017-04-06T14:47:30Z</time>
      </trkpt>
      <trkpt lat="44.39373" lon="6.15184">
        <ele>1055.3</ele>
        <time>2017-04-06T14:47:50Z</time>
      </trkpt>
      <trkpt lat="44.39393" lon="6.1519">
        <ele>1052.4</ele>
        <time>2017-04-06T14:48:10Z</time>
      </trkpt>
      <trkpt lat="44.39407" lon="6.15203">
        <ele>1052.9</ele>
        <time>2017-04-06T14:48:28Z</time>
      </trkpt>
      <trkpt lat="44.3942" lon="6.15222">
        <ele>1054.2</ele>
        <time>2017-04-06T14:48:48Z</time>
      </trkpt>
      <trkpt lat="44.39431" lon="6.15246">
        <ele>1052.4</ele>
        <time>2017-04-06T14:49:07Z</time>
      </trkpt>
      <trkpt lat="44.39432" lon="6.15253">
        <ele>1052.2</ele>
        <time>2017-04-06T14:49:11Z</time>
      </trkpt>
      <trkpt lat="44.39432" lon="6.15255">
        <ele>1052.1</ele>
        <time>2017-04-06T14:49:12Z</time>
      </trkpt>
      <trkpt lat="44.39433" lon="6.15256">
        <ele>1051.9</ele>
        <time>2017-04-06T14:49:13Z</time>
      </trkpt>
      <trkpt lat="44.39445" lon="6.15275">
        <ele>1050</ele>
        <time>2017-04-06T14:49:28Z</time>
      </trkpt>
      <trkpt lat="44.39447" lon="6.15279">
        <ele>1049.7</ele>
        <time>2017-04-06T14:49:31Z</time>
      </trkpt>
      <trkpt lat="44.39448" lon="6.1528">
        <ele>1049.4</ele>
        <time>2017-04-06T14:49:32Z</time>
      </trkpt>
      <trkpt lat="44.39464" lon="6.15293">
        <ele>1046.7</ele>
        <time>2017-04-06T14:49:47Z</time>
      </trkpt>
      <trkpt lat="44.39481" lon="6.15309">
        <ele>1044.3</ele>
        <time>2017-04-06T14:50:04Z</time>
      </trkpt>
      <trkpt lat="44.39494" lon="6.15318">
        <ele>1042.7</ele>
        <time>2017-04-06T14:50:18Z</time>
      </trkpt>
      <trkpt lat="44.3951" lon="6.15329">
        <ele>1040.6</ele>
        <time>2017-04-06T14:50:35Z</time>
      </trkpt>
      <trkpt lat="44.39514" lon="6.1533">
        <ele>1040.5</ele>
        <time>2017-04-06T14:50:39Z</time>
      </trkpt>
      <trkpt lat="44.39518" lon="6.15332">
        <ele>1040.2</ele>
        <time>2017-04-06T14:50:43Z</time>
      </trkpt>
      <trkpt lat="44.39529" lon="6.15339">
        <ele>1039.2</ele>
        <time>2017-04-06T14:50:56Z</time>
      </trkpt>
      <trkpt lat="44.39542" lon="6.1535">
        <ele>1037.6</ele>
        <time>2017-04-06T14:51:12Z</time>
      </trkpt>
      <trkpt lat="44.39558" lon="6.15357">
        <ele>1036.4</ele>
        <time>2017-04-06T14:51:28Z</time>
      </trkpt>
      <trkpt lat="44.39572" lon="6.15353">
        <ele>1035.7</ele>
        <time>2017-04-06T14:51:45Z</time>
      </trkpt>
      <trkpt lat="44.39579" lon="6.15351">
        <ele>1035.5</ele>
        <time>2017-04-06T14:51:52Z</time>
      </trkpt>
      <trkpt lat="44.39588" lon="6.15353">
        <ele>1034.4</ele>
        <time>2017-04-06T14:52:01Z</time>
      </trkpt>
      <trkpt lat="44.39588" lon="6.15354">
        <ele>1034.2</ele>
        <time>2017-04-06T14:52:02Z</time>
      </trkpt>
      <trkpt lat="44.39589" lon="6.15356">
        <ele>1034</ele>
        <time>2017-04-06T14:52:03Z</time>
      </trkpt>
      <trkpt lat="44.39589" lon="6.15358">
        <ele>1033.9</ele>
        <time>2017-04-06T14:52:04Z</time>
      </trkpt>
      <trkpt lat="44.39588" lon="6.15363">
        <ele>1033.5</ele>
        <time>2017-04-06T14:52:08Z</time>
      </trkpt>
      <trkpt lat="44.39585" lon="6.15366">
        <ele>1033.3</ele>
        <time>2017-04-06T14:52:12Z</time>
      </trkpt>
      <trkpt lat="44.39583" lon="6.15368">
        <ele>1033.3</ele>
        <time>2017-04-06T14:52:17Z</time>
      </trkpt>
      <trkpt lat="44.39574" lon="6.15374">
        <ele>1033.4</ele>
        <time>2017-04-06T14:52:59Z</time>
      </trkpt>
      <trkpt lat="44.39558" lon="6.15378">
        <ele>1034.5</ele>
        <time>2017-04-06T14:53:15Z</time>
      </trkpt>
      <trkpt lat="44.3955" lon="6.15388">
        <ele>1035</ele>
        <time>2017-04-06T14:53:27Z</time>
      </trkpt>
      <trkpt lat="44.39552" lon="6.15411">
        <ele>1037.8</ele>
        <time>2017-04-06T14:56:41Z</time>
      </trkpt>
      <trkpt lat="44.3957" lon="6.15422">
        <ele>1035.9</ele>
        <time>2017-04-06T14:56:58Z</time>
      </trkpt>
      <trkpt lat="44.39581" lon="6.15434">
        <ele>1034.7</ele>
        <time>2017-04-06T14:57:09Z</time>
      </trkpt>
      <trkpt lat="44.39583" lon="6.15437">
        <ele>1034.7</ele>
        <time>2017-04-06T14:57:12Z</time>
      </trkpt>
      <trkpt lat="44.39584" lon="6.15439">
        <ele>1034.6</ele>
        <time>2017-04-06T14:57:13Z</time>
      </trkpt>
      <trkpt lat="44.39591" lon="6.15459">
        <ele>1034.1</ele>
        <time>2017-04-06T14:57:27Z</time>
      </trkpt>
      <trkpt lat="44.39594" lon="6.15466">
        <ele>1033.9</ele>
        <time>2017-04-06T14:57:32Z</time>
      </trkpt>
      <trkpt lat="44.396" lon="6.15491">
        <ele>1033.7</ele>
        <time>2017-04-06T14:57:48Z</time>
      </trkpt>
      <trkpt lat="44.39598" lon="6.15498">
        <ele>1034.3</ele>
        <time>2017-04-06T14:57:53Z</time>
      </trkpt>
      <trkpt lat="44.39597" lon="6.15504">
        <ele>1034.6</ele>
        <time>2017-04-06T14:57:57Z</time>
      </trkpt>
      <trkpt lat="44.39598" lon="6.15505">
        <ele>1034.5</ele>
        <time>2017-04-06T14:57:58Z</time>
      </trkpt>
      <trkpt lat="44.39599" lon="6.15507">
        <ele>1034.5</ele>
        <time>2017-04-06T14:57:59Z</time>
      </trkpt>
      <trkpt lat="44.39599" lon="6.15509">
        <ele>1034.6</ele>
        <time>2017-04-06T14:58:00Z</time>
      </trkpt>
      <trkpt lat="44.39599" lon="6.15511">
        <ele>1034.7</ele>
        <time>2017-04-06T14:58:01Z</time>
      </trkpt>
      <trkpt lat="44.39598" lon="6.15523">
        <ele>1035.2</ele>
        <time>2017-04-06T14:58:09Z</time>
      </trkpt>
      <trkpt lat="44.39598" lon="6.15525">
        <ele>1035.3</ele>
        <time>2017-04-06T14:58:10Z</time>
      </trkpt>
      <trkpt lat="44.39599" lon="6.15547">
        <ele>1036</ele>
        <time>2017-04-06T14:58:25Z</time>
      </trkpt>
      <trkpt lat="44.396" lon="6.15549">
        <ele>1036</ele>
        <time>2017-04-06T14:58:26Z</time>
      </trkpt>
      <trkpt lat="44.39601" lon="6.1555">
        <ele>1035.9</ele>
        <time>2017-04-06T14:58:27Z</time>
      </trkpt>
      <trkpt lat="44.39605" lon="6.15567">
        <ele>1036</ele>
        <time>2017-04-06T14:58:39Z</time>
      </trkpt>
      <trkpt lat="44.39606" lon="6.15572">
        <ele>1036</ele>
        <time>2017-04-06T14:58:43Z</time>
      </trkpt>
      <trkpt lat="44.39606" lon="6.15574">
        <ele>1036.1</ele>
        <time>2017-04-06T14:58:44Z</time>
      </trkpt>
      <trkpt lat="44.39606" lon="6.15577">
        <ele>1036.2</ele>
        <time>2017-04-06T14:58:45Z</time>
      </trkpt>
      <trkpt lat="44.39606" lon="6.15578">
        <ele>1036.2</ele>
        <time>2017-04-06T14:58:46Z</time>
      </trkpt>
      <trkpt lat="44.39606" lon="6.1558">
        <ele>1036.2</ele>
        <time>2017-04-06T14:58:47Z</time>
      </trkpt>
      <trkpt lat="44.39607" lon="6.15581">
        <ele>1036.2</ele>
        <time>2017-04-06T14:58:48Z</time>
      </trkpt>
      <trkpt lat="44.39608" lon="6.15582">
        <ele>1036.2</ele>
        <time>2017-04-06T14:58:49Z</time>
      </trkpt>
      <trkpt lat="44.39609" lon="6.15583">
        <ele>1036.1</ele>
        <time>2017-04-06T14:58:50Z</time>
      </trkpt>
      <trkpt lat="44.3961" lon="6.15584">
        <ele>1036.1</ele>
        <time>2017-04-06T14:58:51Z</time>
      </trkpt>
      <trkpt lat="44.39611" lon="6.15585">
        <ele>1036.1</ele>
        <time>2017-04-06T14:58:52Z</time>
      </trkpt>
      <trkpt lat="44.39612" lon="6.15586">
        <ele>1036.1</ele>
        <time>2017-04-06T14:58:53Z</time>
      </trkpt>
      <trkpt lat="44.39613" lon="6.15588">
        <ele>1036</ele>
        <time>2017-04-06T14:58:55Z</time>
      </trkpt>
      <trkpt lat="44.39614" lon="6.1559">
        <ele>1036.1</ele>
        <time>2017-04-06T14:58:56Z</time>
      </trkpt>
      <trkpt lat="44.39614" lon="6.15592">
        <ele>1036.1</ele>
        <time>2017-04-06T14:58:57Z</time>
      </trkpt>
      <trkpt lat="44.39614" lon="6.15593">
        <ele>1036.1</ele>
        <time>2017-04-06T14:58:58Z</time>
      </trkpt>
      <trkpt lat="44.39615" lon="6.15594">
        <ele>1036.1</ele>
        <time>2017-04-06T14:58:59Z</time>
      </trkpt>
      <trkpt lat="44.39616" lon="6.15595">
        <ele>1036.1</ele>
        <time>2017-04-06T14:59:00Z</time>
      </trkpt>
      <trkpt lat="44.39624" lon="6.1561">
        <ele>1036</ele>
        <time>2017-04-06T14:59:14Z</time>
      </trkpt>
      <trkpt lat="44.39625" lon="6.15615">
        <ele>1036.1</ele>
        <time>2017-04-06T14:59:17Z</time>
      </trkpt>
      <trkpt lat="44.39627" lon="6.15617">
        <ele>1036.1</ele>
        <time>2017-04-06T14:59:18Z</time>
      </trkpt>
      <trkpt lat="44.39628" lon="6.15618">
        <ele>1036.1</ele>
        <time>2017-04-06T14:59:19Z</time>
      </trkpt>
      <trkpt lat="44.39628" lon="6.1562">
        <ele>1036.1</ele>
        <time>2017-04-06T14:59:20Z</time>
      </trkpt>
      <trkpt lat="44.39634" lon="6.15634">
        <ele>1036.2</ele>
        <time>2017-04-06T14:59:32Z</time>
      </trkpt>
      <trkpt lat="44.39636" lon="6.15639">
        <ele>1036.2</ele>
        <time>2017-04-06T14:59:35Z</time>
      </trkpt>
      <trkpt lat="44.39637" lon="6.1564">
        <ele>1036.1</ele>
        <time>2017-04-06T14:59:36Z</time>
      </trkpt>
      <trkpt lat="44.39638" lon="6.15641">
        <ele>1036.1</ele>
        <time>2017-04-06T14:59:37Z</time>
      </trkpt>
      <trkpt lat="44.39638" lon="6.15642">
        <ele>1036.1</ele>
        <time>2017-04-06T14:59:38Z</time>
      </trkpt>
      <trkpt lat="44.39639" lon="6.15644">
        <ele>1036.2</ele>
        <time>2017-04-06T14:59:39Z</time>
      </trkpt>
      <trkpt lat="44.39641" lon="6.15659">
        <ele>1036.7</ele>
        <time>2017-04-06T14:59:49Z</time>
      </trkpt>
      <trkpt lat="44.39641" lon="6.1566">
        <ele>1036.7</ele>
        <time>2017-04-06T14:59:50Z</time>
      </trkpt>
      <trkpt lat="44.39643" lon="6.15672">
        <ele>1036.7</ele>
        <time>2017-04-06T15:00:02Z</time>
      </trkpt>
      <trkpt lat="44.39654" lon="6.15715">
        <ele>1034.3</ele>
        <time>2017-04-06T15:07:10Z</time>
      </trkpt>
      <trkpt lat="44.39651" lon="6.15737">
        <ele>1032.9</ele>
        <time>2017-04-06T15:07:27Z</time>
      </trkpt>
      <trkpt lat="44.3965" lon="6.15738">
        <ele>1032.8</ele>
        <time>2017-04-06T15:07:33Z</time>
      </trkpt>
      <trkpt lat="44.39633" lon="6.15837">
        <ele>1026.3</ele>
        <time>2017-04-06T15:08:49Z</time>
      </trkpt>
      <trkpt lat="44.39627" lon="6.1586">
        <ele>1024.9</ele>
        <time>2017-04-06T15:09:06Z</time>
      </trkpt>
      <trkpt lat="44.39626" lon="6.15876">
        <ele>1022.8</ele>
        <time>2017-04-06T15:09:19Z</time>
      </trkpt>
      <trkpt lat="44.39628" lon="6.15878">
        <ele>1022.3</ele>
        <time>2017-04-06T15:09:22Z</time>
      </trkpt>
      <trkpt lat="44.39629" lon="6.15879">
        <ele>1022.1</ele>
        <time>2017-04-06T15:09:23Z</time>
      </trkpt>
      <trkpt lat="44.39639" lon="6.15889">
        <ele>1020</ele>
        <time>2017-04-06T15:09:38Z</time>
      </trkpt>
      <trkpt lat="44.3965" lon="6.15892">
        <ele>1019.4</ele>
        <time>2017-04-06T15:09:50Z</time>
      </trkpt>
      <trkpt lat="44.39651" lon="6.15893">
        <ele>1019.3</ele>
        <time>2017-04-06T15:09:51Z</time>
      </trkpt>
      <trkpt lat="44.39652" lon="6.15893">
        <ele>1019.3</ele>
        <time>2017-04-06T15:09:52Z</time>
      </trkpt>
      <trkpt lat="44.39653" lon="6.15893">
        <ele>1019.2</ele>
        <time>2017-04-06T15:09:53Z</time>
      </trkpt>
      <trkpt lat="44.39654" lon="6.15893">
        <ele>1019.2</ele>
        <time>2017-04-06T15:09:54Z</time>
      </trkpt>
      <trkpt lat="44.39667" lon="6.15898">
        <ele>1018.3</ele>
        <time>2017-04-06T15:10:06Z</time>
      </trkpt>
      <trkpt lat="44.39668" lon="6.15899">
        <ele>1018.2</ele>
        <time>2017-04-06T15:10:07Z</time>
      </trkpt>
      <trkpt lat="44.39669" lon="6.15899">
        <ele>1018.2</ele>
        <time>2017-04-06T15:10:08Z</time>
      </trkpt>
      <trkpt lat="44.39676" lon="6.15903">
        <ele>1017.7</ele>
        <time>2017-04-06T15:10:15Z</time>
      </trkpt>
      <trkpt lat="44.39682" lon="6.15907">
        <ele>1017.2</ele>
        <time>2017-04-06T15:10:21Z</time>
      </trkpt>
      <trkpt lat="44.39683" lon="6.15907">
        <ele>1017.2</ele>
        <time>2017-04-06T15:10:22Z</time>
      </trkpt>
      <trkpt lat="44.39688" lon="6.15908">
        <ele>1016.9</ele>
        <time>2017-04-06T15:10:27Z</time>
      </trkpt>
      <trkpt lat="44.397" lon="6.1591">
        <ele>1016.1</ele>
        <time>2017-04-06T15:10:41Z</time>
      </trkpt>
      <trkpt lat="44.39701" lon="6.15911">
        <ele>1016</ele>
        <time>2017-04-06T15:10:42Z</time>
      </trkpt>
      <trkpt lat="44.39715" lon="6.15908">
        <ele>1015.1</ele>
        <time>2017-04-06T15:10:57Z</time>
      </trkpt>
      <trkpt lat="44.39718" lon="6.15906">
        <ele>1015.1</ele>
        <time>2017-04-06T15:11:00Z</time>
      </trkpt>
      <trkpt lat="44.39719" lon="6.15905">
        <ele>1015.1</ele>
        <time>2017-04-06T15:11:01Z</time>
      </trkpt>
      <trkpt lat="44.39722" lon="6.15902">
        <ele>1015.1</ele>
        <time>2017-04-06T15:11:05Z</time>
      </trkpt>
      <trkpt lat="44.39723" lon="6.15902">
        <ele>1015.1</ele>
        <time>2017-04-06T15:11:06Z</time>
      </trkpt>
      <trkpt lat="44.39724" lon="6.159">
        <ele>1015.1</ele>
        <time>2017-04-06T15:11:07Z</time>
      </trkpt>
      <trkpt lat="44.39725" lon="6.15899">
        <ele>1015.1</ele>
        <time>2017-04-06T15:11:08Z</time>
      </trkpt>
      <trkpt lat="44.39726" lon="6.15898">
        <ele>1015.1</ele>
        <time>2017-04-06T15:11:09Z</time>
      </trkpt>
      <trkpt lat="44.39727" lon="6.15897">
        <ele>1015</ele>
        <time>2017-04-06T15:11:10Z</time>
      </trkpt>
      <trkpt lat="44.39728" lon="6.15895">
        <ele>1015</ele>
        <time>2017-04-06T15:11:11Z</time>
      </trkpt>
      <trkpt lat="44.39729" lon="6.15894">
        <ele>1014.9</ele>
        <time>2017-04-06T15:11:12Z</time>
      </trkpt>
      <trkpt lat="44.3973" lon="6.15893">
        <ele>1014.8</ele>
        <time>2017-04-06T15:11:13Z</time>
      </trkpt>
      <trkpt lat="44.39734" lon="6.15888">
        <ele>1014.3</ele>
        <time>2017-04-06T15:11:18Z</time>
      </trkpt>
      <trkpt lat="44.39736" lon="6.15888">
        <ele>1014.1</ele>
        <time>2017-04-06T15:11:19Z</time>
      </trkpt>
      <trkpt lat="44.39737" lon="6.15888">
        <ele>1014</ele>
        <time>2017-04-06T15:11:20Z</time>
      </trkpt>
      <trkpt lat="44.3975" lon="6.15892">
        <ele>1012.5</ele>
        <time>2017-04-06T15:11:33Z</time>
      </trkpt>
      <trkpt lat="44.39759" lon="6.15893">
        <ele>1013.1</ele>
        <time>2017-04-06T15:11:41Z</time>
      </trkpt>
      <trkpt lat="44.3976" lon="6.15891">
        <ele>1012.8</ele>
        <time>2017-04-06T15:11:42Z</time>
      </trkpt>
      <trkpt lat="44.39762" lon="6.1589">
        <ele>1012.6</ele>
        <time>2017-04-06T15:11:43Z</time>
      </trkpt>
      <trkpt lat="44.39763" lon="6.15889">
        <ele>1012.5</ele>
        <time>2017-04-06T15:11:44Z</time>
      </trkpt>
      <trkpt lat="44.39764" lon="6.15888">
        <ele>1012.5</ele>
        <time>2017-04-06T15:11:45Z</time>
      </trkpt>
      <trkpt lat="44.39765" lon="6.15887">
        <ele>1012.6</ele>
        <time>2017-04-06T15:11:46Z</time>
      </trkpt>
      <trkpt lat="44.39768" lon="6.15885">
        <ele>1012.6</ele>
        <time>2017-04-06T15:11:49Z</time>
      </trkpt>
      <trkpt lat="44.39769" lon="6.15885">
        <ele>1012.6</ele>
        <time>2017-04-06T15:11:50Z</time>
      </trkpt>
      <trkpt lat="44.39783" lon="6.1588">
        <ele>1012.8</ele>
        <time>2017-04-06T15:12:03Z</time>
      </trkpt>
      <trkpt lat="44.39795" lon="6.15878">
        <ele>1013.3</ele>
        <time>2017-04-06T15:12:15Z</time>
      </trkpt>
      <trkpt lat="44.3981" lon="6.15872">
        <ele>1013</ele>
        <time>2017-04-06T15:12:28Z</time>
      </trkpt>
      <trkpt lat="44.39823" lon="6.15863">
        <ele>1013.4</ele>
        <time>2017-04-06T15:12:43Z</time>
      </trkpt>
      <trkpt lat="44.39826" lon="6.15861">
        <ele>1013.5</ele>
        <time>2017-04-06T15:12:47Z</time>
      </trkpt>
      <trkpt lat="44.39828" lon="6.1586">
        <ele>1013.6</ele>
        <time>2017-04-06T15:12:48Z</time>
      </trkpt>
      <trkpt lat="44.39829" lon="6.15859">
        <ele>1013.6</ele>
        <time>2017-04-06T15:12:49Z</time>
      </trkpt>
      <trkpt lat="44.39829" lon="6.15858">
        <ele>1013.2</ele>
        <time>2017-04-06T15:12:50Z</time>
      </trkpt>
      <trkpt lat="44.3983" lon="6.15857">
        <ele>1013.2</ele>
        <time>2017-04-06T15:12:51Z</time>
      </trkpt>
      <trkpt lat="44.39831" lon="6.15855">
        <ele>1012.8</ele>
        <time>2017-04-06T15:12:52Z</time>
      </trkpt>
      <trkpt lat="44.39836" lon="6.1585">
        <ele>1012.9</ele>
        <time>2017-04-06T15:12:58Z</time>
      </trkpt>
      <trkpt lat="44.39837" lon="6.15849">
        <ele>1012.9</ele>
        <time>2017-04-06T15:12:59Z</time>
      </trkpt>
      <trkpt lat="44.39838" lon="6.15848">
        <ele>1013</ele>
        <time>2017-04-06T15:13:00Z</time>
      </trkpt>
      <trkpt lat="44.39839" lon="6.15847">
        <ele>1013.1</ele>
        <time>2017-04-06T15:13:01Z</time>
      </trkpt>
      <trkpt lat="44.3984" lon="6.15846">
        <ele>1013.1</ele>
        <time>2017-04-06T15:13:02Z</time>
      </trkpt>
      <trkpt lat="44.39849" lon="6.15832">
        <ele>1012.9</ele>
        <time>2017-04-06T15:13:17Z</time>
      </trkpt>
      <trkpt lat="44.39859" lon="6.1581">
        <ele>1009.2</ele>
        <time>2017-04-06T15:13:35Z</time>
      </trkpt>
      <trkpt lat="44.39865" lon="6.158">
        <ele>1006.9</ele>
        <time>2017-04-06T15:13:44Z</time>
      </trkpt>
      <trkpt lat="44.39875" lon="6.15797">
        <ele>1007.1</ele>
        <time>2017-04-06T15:13:53Z</time>
      </trkpt>
      <trkpt lat="44.39877" lon="6.15797">
        <ele>1007.3</ele>
        <time>2017-04-06T15:13:54Z</time>
      </trkpt>
      <trkpt lat="44.39888" lon="6.15802">
        <ele>1010.4</ele>
        <time>2017-04-06T15:14:04Z</time>
      </trkpt>
      <trkpt lat="44.39903" lon="6.15809">
        <ele>1013</ele>
        <time>2017-04-06T15:14:17Z</time>
      </trkpt>
      <trkpt lat="44.3991" lon="6.15812">
        <ele>1014.1</ele>
        <time>2017-04-06T15:14:23Z</time>
      </trkpt>
      <trkpt lat="44.39912" lon="6.15814">
        <ele>1014.4</ele>
        <time>2017-04-06T15:14:26Z</time>
      </trkpt>
      <trkpt lat="44.39914" lon="6.15814">
        <ele>1014.6</ele>
        <time>2017-04-06T15:14:27Z</time>
      </trkpt>
      <trkpt lat="44.39928" lon="6.15822">
        <ele>1014.8</ele>
        <time>2017-04-06T15:14:41Z</time>
      </trkpt>
      <trkpt lat="44.39931" lon="6.15824">
        <ele>1014.7</ele>
        <time>2017-04-06T15:14:44Z</time>
      </trkpt>
      <trkpt lat="44.39945" lon="6.15832">
        <ele>1014.5</ele>
        <time>2017-04-06T15:14:56Z</time>
      </trkpt>
      <trkpt lat="44.39954" lon="6.15838">
        <ele>1014.3</ele>
        <time>2017-04-06T15:15:07Z</time>
      </trkpt>
      <trkpt lat="44.39955" lon="6.15839">
        <ele>1014.5</ele>
        <time>2017-04-06T15:15:08Z</time>
      </trkpt>
      <trkpt lat="44.39956" lon="6.15841">
        <ele>1014.7</ele>
        <time>2017-04-06T15:15:09Z</time>
      </trkpt>
      <trkpt lat="44.39961" lon="6.15845">
        <ele>1014.8</ele>
        <time>2017-04-06T15:15:15Z</time>
      </trkpt>
      <trkpt lat="44.39972" lon="6.15852">
        <ele>1014.2</ele>
        <time>2017-04-06T15:15:24Z</time>
      </trkpt>
      <trkpt lat="44.39984" lon="6.15866">
        <ele>1015.2</ele>
        <time>2017-04-06T15:15:39Z</time>
      </trkpt>
      <trkpt lat="44.39984" lon="6.15867">
        <ele>1015.3</ele>
        <time>2017-04-06T15:15:40Z</time>
      </trkpt>
      <trkpt lat="44.39985" lon="6.15869">
        <ele>1015.4</ele>
        <time>2017-04-06T15:15:41Z</time>
      </trkpt>
      <trkpt lat="44.39985" lon="6.1587">
        <ele>1015.6</ele>
        <time>2017-04-06T15:15:42Z</time>
      </trkpt>
      <trkpt lat="44.39986" lon="6.15872">
        <ele>1015.8</ele>
        <time>2017-04-06T15:15:43Z</time>
      </trkpt>
      <trkpt lat="44.39986" lon="6.15874">
        <ele>1016</ele>
        <time>2017-04-06T15:15:44Z</time>
      </trkpt>
      <trkpt lat="44.39991" lon="6.15888">
        <ele>1017.5</ele>
        <time>2017-04-06T15:15:53Z</time>
      </trkpt>
      <trkpt lat="44.39992" lon="6.1589">
        <ele>1017.5</ele>
        <time>2017-04-06T15:15:54Z</time>
      </trkpt>
      <trkpt lat="44.39995" lon="6.15901">
        <ele>1017.5</ele>
        <time>2017-04-06T15:16:02Z</time>
      </trkpt>
      <trkpt lat="44.39995" lon="6.15903">
        <ele>1017.6</ele>
        <time>2017-04-06T15:16:03Z</time>
      </trkpt>
      <trkpt lat="44.39995" lon="6.15912">
        <ele>1018.1</ele>
        <time>2017-04-06T15:16:09Z</time>
      </trkpt>
      <trkpt lat="44.39995" lon="6.15913">
        <ele>1018.2</ele>
        <time>2017-04-06T15:16:10Z</time>
      </trkpt>
      <trkpt lat="44.39995" lon="6.15915">
        <ele>1018.2</ele>
        <time>2017-04-06T15:16:11Z</time>
      </trkpt>
      <trkpt lat="44.39995" lon="6.15916">
        <ele>1018.3</ele>
        <time>2017-04-06T15:16:12Z</time>
      </trkpt>
      <trkpt lat="44.39995" lon="6.15917">
        <ele>1018.3</ele>
        <time>2017-04-06T15:16:13Z</time>
      </trkpt>
      <trkpt lat="44.39989" lon="6.15948">
        <ele>1016.1</ele>
        <time>2017-04-06T15:16:35Z</time>
      </trkpt>
      <trkpt lat="44.39988" lon="6.1595">
        <ele>1016.1</ele>
        <time>2017-04-06T15:16:36Z</time>
      </trkpt>
      <trkpt lat="44.39988" lon="6.15951">
        <ele>1016</ele>
        <time>2017-04-06T15:16:37Z</time>
      </trkpt>
      <trkpt lat="44.39987" lon="6.15953">
        <ele>1015.9</ele>
        <time>2017-04-06T15:16:38Z</time>
      </trkpt>
      <trkpt lat="44.39987" lon="6.15954">
        <ele>1015.8</ele>
        <time>2017-04-06T15:16:39Z</time>
      </trkpt>
      <trkpt lat="44.39987" lon="6.15956">
        <ele>1015.7</ele>
        <time>2017-04-06T15:16:40Z</time>
      </trkpt>
      <trkpt lat="44.39987" lon="6.15957">
        <ele>1015.6</ele>
        <time>2017-04-06T15:16:41Z</time>
      </trkpt>
      <trkpt lat="44.39987" lon="6.15959">
        <ele>1015.5</ele>
        <time>2017-04-06T15:16:42Z</time>
      </trkpt>
      <trkpt lat="44.39989" lon="6.15979">
        <ele>1014.1</ele>
        <time>2017-04-06T15:16:58Z</time>
      </trkpt>
      <trkpt lat="44.3999" lon="6.1598">
        <ele>1014.1</ele>
        <time>2017-04-06T15:17:00Z</time>
      </trkpt>
      <trkpt lat="44.39991" lon="6.15983">
        <ele>1014</ele>
        <time>2017-04-06T15:17:06Z</time>
      </trkpt>
      <trkpt lat="44.39999" lon="6.16024">
        <ele>1012.1</ele>
        <time>2017-04-06T15:17:46Z</time>
      </trkpt>
      <trkpt lat="44.40001" lon="6.16039">
        <ele>1011.4</ele>
        <time>2017-04-06T15:17:57Z</time>
      </trkpt>
      <trkpt lat="44.4" lon="6.1604">
        <ele>1011.1</ele>
        <time>2017-04-06T15:17:58Z</time>
      </trkpt>
      <trkpt lat="44.39999" lon="6.16041">
        <ele>1010.9</ele>
        <time>2017-04-06T15:17:59Z</time>
      </trkpt>
      <trkpt lat="44.39998" lon="6.16042">
        <ele>1010.7</ele>
        <time>2017-04-06T15:18:00Z</time>
      </trkpt>
      <trkpt lat="44.39998" lon="6.16043">
        <ele>1010.6</ele>
        <time>2017-04-06T15:18:01Z</time>
      </trkpt>
      <trkpt lat="44.39997" lon="6.16045">
        <ele>1010.4</ele>
        <time>2017-04-06T15:18:02Z</time>
      </trkpt>
      <trkpt lat="44.39997" lon="6.16046">
        <ele>1010.2</ele>
        <time>2017-04-06T15:18:03Z</time>
      </trkpt>
      <trkpt lat="44.39996" lon="6.16046">
        <ele>1010</ele>
        <time>2017-04-06T15:18:04Z</time>
      </trkpt>
      <trkpt lat="44.39995" lon="6.16047">
        <ele>1009.7</ele>
        <time>2017-04-06T15:18:05Z</time>
      </trkpt>
      <trkpt lat="44.39993" lon="6.16047">
        <ele>1009.5</ele>
        <time>2017-04-06T15:18:06Z</time>
      </trkpt>
      <trkpt lat="44.39988" lon="6.16046">
        <ele>1008.6</ele>
        <time>2017-04-06T15:18:12Z</time>
      </trkpt>
      <trkpt lat="44.39976" lon="6.16034">
        <ele>1008</ele>
        <time>2017-04-06T15:18:26Z</time>
      </trkpt>
      <trkpt lat="44.39972" lon="6.16031">
        <ele>1007.6</ele>
        <time>2017-04-06T15:18:31Z</time>
      </trkpt>
      <trkpt lat="44.39958" lon="6.16038">
        <ele>1007.8</ele>
        <time>2017-04-06T15:18:48Z</time>
      </trkpt>
      <trkpt lat="44.39953" lon="6.16044">
        <ele>1007.2</ele>
        <time>2017-04-06T15:18:55Z</time>
      </trkpt>
      <trkpt lat="44.39952" lon="6.16052">
        <ele>1006.2</ele>
        <time>2017-04-06T15:19:01Z</time>
      </trkpt>
      <trkpt lat="44.3995" lon="6.16057">
        <ele>1005.6</ele>
        <time>2017-04-06T15:19:05Z</time>
      </trkpt>
      <trkpt lat="44.3995" lon="6.16058">
        <ele>1005.4</ele>
        <time>2017-04-06T15:19:06Z</time>
      </trkpt>
      <trkpt lat="44.39949" lon="6.16064">
        <ele>1004.7</ele>
        <time>2017-04-06T15:19:10Z</time>
      </trkpt>
      <trkpt lat="44.39949" lon="6.16065">
        <ele>1004.5</ele>
        <time>2017-04-06T15:19:11Z</time>
      </trkpt>
      <trkpt lat="44.39942" lon="6.16089">
        <ele>1001.2</ele>
        <time>2017-04-06T15:19:30Z</time>
      </trkpt>
      <trkpt lat="44.39926" lon="6.16106">
        <ele>999.3</ele>
        <time>2017-04-06T15:19:49Z</time>
      </trkpt>
      <trkpt lat="44.39912" lon="6.16119">
        <ele>998.6</ele>
        <time>2017-04-06T15:20:07Z</time>
      </trkpt>
      <trkpt lat="44.39901" lon="6.16137">
        <ele>997.6</ele>
        <time>2017-04-06T15:20:25Z</time>
      </trkpt>
      <trkpt lat="44.3989" lon="6.16156">
        <ele>995.7</ele>
        <time>2017-04-06T15:20:44Z</time>
      </trkpt>
      <trkpt lat="44.3988" lon="6.16182">
        <ele>994.8</ele>
        <time>2017-04-06T15:21:06Z</time>
      </trkpt>
      <trkpt lat="44.39876" lon="6.16205">
        <ele>993</ele>
        <time>2017-04-06T15:21:24Z</time>
      </trkpt>
      <trkpt lat="44.39875" lon="6.1621">
        <ele>992.5</ele>
        <time>2017-04-06T15:21:28Z</time>
      </trkpt>
      <trkpt lat="44.39873" lon="6.16231">
        <ele>990.5</ele>
        <time>2017-04-06T15:21:45Z</time>
      </trkpt>
      <trkpt lat="44.39872" lon="6.16233">
        <ele>990.4</ele>
        <time>2017-04-06T15:21:46Z</time>
      </trkpt>
      <trkpt lat="44.39872" lon="6.16235">
        <ele>990.3</ele>
        <time>2017-04-06T15:21:47Z</time>
      </trkpt>
      <trkpt lat="44.39871" lon="6.16236">
        <ele>990.2</ele>
        <time>2017-04-06T15:21:48Z</time>
      </trkpt>
      <trkpt lat="44.39871" lon="6.16237">
        <ele>990.1</ele>
        <time>2017-04-06T15:21:49Z</time>
      </trkpt>
      <trkpt lat="44.39871" lon="6.16239">
        <ele>990</ele>
        <time>2017-04-06T15:21:50Z</time>
      </trkpt>
      <trkpt lat="44.39863" lon="6.1626">
        <ele>988.4</ele>
        <time>2017-04-06T15:22:08Z</time>
      </trkpt>
      <trkpt lat="44.39851" lon="6.16277">
        <ele>986.8</ele>
        <time>2017-04-06T15:22:26Z</time>
      </trkpt>
      <trkpt lat="44.3984" lon="6.16286">
        <ele>986.1</ele>
        <time>2017-04-06T15:22:40Z</time>
      </trkpt>
      <trkpt lat="44.39825" lon="6.16298">
        <ele>985</ele>
        <time>2017-04-06T15:22:57Z</time>
      </trkpt>
      <trkpt lat="44.39819" lon="6.1631">
        <ele>983.5</ele>
        <time>2017-04-06T15:23:08Z</time>
      </trkpt>
      <trkpt lat="44.39796" lon="6.1634">
        <ele>982.5</ele>
        <time>2017-04-06T15:23:39Z</time>
      </trkpt>
      <trkpt lat="44.39793" lon="6.16346">
        <ele>982.3</ele>
        <time>2017-04-06T15:23:45Z</time>
      </trkpt>
      <trkpt lat="44.39794" lon="6.16416">
        <ele>975.9</ele>
        <time>2017-04-06T15:24:36Z</time>
      </trkpt>
      <trkpt lat="44.39794" lon="6.1642">
        <ele>975.7</ele>
        <time>2017-04-06T15:24:38Z</time>
      </trkpt>
      <trkpt lat="44.39795" lon="6.16442">
        <ele>973.9</ele>
        <time>2017-04-06T15:24:52Z</time>
      </trkpt>
      <trkpt lat="44.39804" lon="6.16468">
        <ele>973.9</ele>
        <time>2017-04-06T15:25:10Z</time>
      </trkpt>
      <trkpt lat="44.39804" lon="6.16472">
        <ele>974</ele>
        <time>2017-04-06T15:25:12Z</time>
      </trkpt>
      <trkpt lat="44.39805" lon="6.16473">
        <ele>974.2</ele>
        <time>2017-04-06T15:25:13Z</time>
      </trkpt>
      <trkpt lat="44.39807" lon="6.16483">
        <ele>976</ele>
        <time>2017-04-06T15:25:20Z</time>
      </trkpt>
      <trkpt lat="44.39807" lon="6.16485">
        <ele>976.3</ele>
        <time>2017-04-06T15:25:21Z</time>
      </trkpt>
      <trkpt lat="44.39807" lon="6.16511">
        <ele>981.5</ele>
        <time>2017-04-06T15:25:38Z</time>
      </trkpt>
      <trkpt lat="44.39794" lon="6.16533">
        <ele>983.7</ele>
        <time>2017-04-06T15:25:55Z</time>
      </trkpt>
      <trkpt lat="44.39792" lon="6.16533">
        <ele>983.5</ele>
        <time>2017-04-06T15:25:59Z</time>
      </trkpt>
      <trkpt lat="44.3979" lon="6.16538">
        <ele>983.8</ele>
        <time>2017-04-06T15:26:21Z</time>
      </trkpt>
      <trkpt lat="44.39782" lon="6.1655">
        <ele>983.6</ele>
        <time>2017-04-06T15:26:32Z</time>
      </trkpt>
      <trkpt lat="44.39782" lon="6.16552">
        <ele>983.9</ele>
        <time>2017-04-06T15:26:33Z</time>
      </trkpt>
      <trkpt lat="44.39776" lon="6.16572">
        <ele>984.6</ele>
        <time>2017-04-06T15:26:45Z</time>
      </trkpt>
      <trkpt lat="44.39766" lon="6.16574">
        <ele>983.3</ele>
        <time>2017-04-06T15:26:57Z</time>
      </trkpt>
      <trkpt lat="44.39763" lon="6.16576">
        <ele>983.1</ele>
        <time>2017-04-06T15:27:00Z</time>
      </trkpt>
      <trkpt lat="44.39746" lon="6.16605">
        <ele>984.6</ele>
        <time>2017-04-06T15:27:26Z</time>
      </trkpt>
      <trkpt lat="44.39745" lon="6.16607">
        <ele>984.8</ele>
        <time>2017-04-06T15:27:27Z</time>
      </trkpt>
      <trkpt lat="44.39745" lon="6.16608">
        <ele>984.8</ele>
        <time>2017-04-06T15:27:28Z</time>
      </trkpt>
      <trkpt lat="44.39744" lon="6.16609">
        <ele>984.9</ele>
        <time>2017-04-06T15:27:29Z</time>
      </trkpt>
      <trkpt lat="44.39743" lon="6.16611">
        <ele>985</ele>
        <time>2017-04-06T15:27:30Z</time>
      </trkpt>
      <trkpt lat="44.39742" lon="6.16612">
        <ele>985</ele>
        <time>2017-04-06T15:27:31Z</time>
      </trkpt>
      <trkpt lat="44.39735" lon="6.16624">
        <ele>985.3</ele>
        <time>2017-04-06T15:27:43Z</time>
      </trkpt>
      <trkpt lat="44.39735" lon="6.16626">
        <ele>985.3</ele>
        <time>2017-04-06T15:27:44Z</time>
      </trkpt>
      <trkpt lat="44.39734" lon="6.16627">
        <ele>985.5</ele>
        <time>2017-04-06T15:27:45Z</time>
      </trkpt>
      <trkpt lat="44.39727" lon="6.16644">
        <ele>986.4</ele>
        <time>2017-04-06T15:27:59Z</time>
      </trkpt>
      <trkpt lat="44.39726" lon="6.16646">
        <ele>986.5</ele>
        <time>2017-04-06T15:28:00Z</time>
      </trkpt>
      <trkpt lat="44.39726" lon="6.16648">
        <ele>986.9</ele>
        <time>2017-04-06T15:28:01Z</time>
      </trkpt>
      <trkpt lat="44.39726" lon="6.16651">
        <ele>987.3</ele>
        <time>2017-04-06T15:28:02Z</time>
      </trkpt>
      <trkpt lat="44.39725" lon="6.16653">
        <ele>987.5</ele>
        <time>2017-04-06T15:28:03Z</time>
      </trkpt>
      <trkpt lat="44.39724" lon="6.16657">
        <ele>987.8</ele>
        <time>2017-04-06T15:28:06Z</time>
      </trkpt>
      <trkpt lat="44.39723" lon="6.16658">
        <ele>988</ele>
        <time>2017-04-06T15:28:07Z</time>
      </trkpt>
      <trkpt lat="44.39717" lon="6.16663">
        <ele>987.7</ele>
        <time>2017-04-06T15:28:16Z</time>
      </trkpt>
      <trkpt lat="44.39704" lon="6.16686">
        <ele>989.1</ele>
        <time>2017-04-06T15:28:34Z</time>
      </trkpt>
      <trkpt lat="44.39699" lon="6.16694">
        <ele>989.5</ele>
        <time>2017-04-06T15:28:41Z</time>
      </trkpt>
      <trkpt lat="44.39697" lon="6.16697">
        <ele>989.7</ele>
        <time>2017-04-06T15:28:44Z</time>
      </trkpt>
      <trkpt lat="44.3969" lon="6.16708">
        <ele>990.4</ele>
        <time>2017-04-06T15:28:58Z</time>
      </trkpt>
      <trkpt lat="44.39678" lon="6.16733">
        <ele>993.4</ele>
        <time>2017-04-06T15:29:18Z</time>
      </trkpt>
      <trkpt lat="44.39671" lon="6.16743">
        <ele>993.9</ele>
        <time>2017-04-06T15:29:30Z</time>
      </trkpt>
      <trkpt lat="44.3966" lon="6.16758">
        <ele>994.2</ele>
        <time>2017-04-06T15:29:46Z</time>
      </trkpt>
      <trkpt lat="44.39653" lon="6.16756">
        <ele>992.5</ele>
        <time>2017-04-06T15:29:58Z</time>
      </trkpt>
      <trkpt lat="44.39642" lon="6.16773">
        <ele>993</ele>
        <time>2017-04-06T15:30:15Z</time>
      </trkpt>
      <trkpt lat="44.39632" lon="6.168">
        <ele>993.6</ele>
        <time>2017-04-06T15:30:35Z</time>
      </trkpt>
      <trkpt lat="44.39628" lon="6.16808">
        <ele>993.6</ele>
        <time>2017-04-06T15:30:42Z</time>
      </trkpt>
      <trkpt lat="44.39628" lon="6.1681">
        <ele>993.7</ele>
        <time>2017-04-06T15:30:43Z</time>
      </trkpt>
      <trkpt lat="44.39627" lon="6.16811">
        <ele>993.8</ele>
        <time>2017-04-06T15:30:44Z</time>
      </trkpt>
      <trkpt lat="44.39627" lon="6.16813">
        <ele>993.8</ele>
        <time>2017-04-06T15:30:45Z</time>
      </trkpt>
      <trkpt lat="44.39626" lon="6.16815">
        <ele>993.8</ele>
        <time>2017-04-06T15:30:46Z</time>
      </trkpt>
      <trkpt lat="44.39626" lon="6.16816">
        <ele>993.9</ele>
        <time>2017-04-06T15:30:47Z</time>
      </trkpt>
      <trkpt lat="44.39626" lon="6.16817">
        <ele>994</ele>
        <time>2017-04-06T15:30:48Z</time>
      </trkpt>
      <trkpt lat="44.39626" lon="6.16819">
        <ele>994</ele>
        <time>2017-04-06T15:30:49Z</time>
      </trkpt>
      <trkpt lat="44.39625" lon="6.16826">
        <ele>994.5</ele>
        <time>2017-04-06T15:30:54Z</time>
      </trkpt>
      <trkpt lat="44.39623" lon="6.16834">
        <ele>994.8</ele>
        <time>2017-04-06T15:30:59Z</time>
      </trkpt>
      <trkpt lat="44.39623" lon="6.16835">
        <ele>994.8</ele>
        <time>2017-04-06T15:31:00Z</time>
      </trkpt>
      <trkpt lat="44.39623" lon="6.16845">
        <ele>995.5</ele>
        <time>2017-04-06T15:31:07Z</time>
      </trkpt>
      <trkpt lat="44.39619" lon="6.16868">
        <ele>996.3</ele>
        <time>2017-04-06T15:31:23Z</time>
      </trkpt>
      <trkpt lat="44.39612" lon="6.16893">
        <ele>996.3</ele>
        <time>2017-04-06T15:31:41Z</time>
      </trkpt>
      <trkpt lat="44.39607" lon="6.16919">
        <ele>996.7</ele>
        <time>2017-04-06T15:32:00Z</time>
      </trkpt>
      <trkpt lat="44.396" lon="6.16944">
        <ele>998.2</ele>
        <time>2017-04-06T15:32:18Z</time>
      </trkpt>
      <trkpt lat="44.39597" lon="6.16969">
        <ele>998.9</ele>
        <time>2017-04-06T15:32:37Z</time>
      </trkpt>
      <trkpt lat="44.39602" lon="6.16983">
        <ele>999.1</ele>
        <time>2017-04-06T15:32:48Z</time>
      </trkpt>
      <trkpt lat="44.39606" lon="6.16985">
        <ele>999.2</ele>
        <time>2017-04-06T15:32:52Z</time>
      </trkpt>
      <trkpt lat="44.39607" lon="6.16986">
        <ele>999.3</ele>
        <time>2017-04-06T15:32:53Z</time>
      </trkpt>
      <trkpt lat="44.39608" lon="6.16986">
        <ele>999.3</ele>
        <time>2017-04-06T15:32:54Z</time>
      </trkpt>
      <trkpt lat="44.39633" lon="6.16987">
        <ele>1000.2</ele>
        <time>2017-04-06T15:33:19Z</time>
      </trkpt>
      <trkpt lat="44.39662" lon="6.1699">
        <ele>1002.1</ele>
        <time>2017-04-06T15:33:47Z</time>
      </trkpt>
      <trkpt lat="44.39684" lon="6.16985">
        <ele>1004.1</ele>
        <time>2017-04-06T15:34:09Z</time>
      </trkpt>
      <trkpt lat="44.39703" lon="6.16993">
        <ele>1005.4</ele>
        <time>2017-04-06T15:34:28Z</time>
      </trkpt>
      <trkpt lat="44.39715" lon="6.17">
        <ele>1006.2</ele>
        <time>2017-04-06T15:34:41Z</time>
      </trkpt>
      <trkpt lat="44.39716" lon="6.17001">
        <ele>1006.3</ele>
        <time>2017-04-06T15:34:42Z</time>
      </trkpt>
      <trkpt lat="44.39735" lon="6.17013">
        <ele>1007.7</ele>
        <time>2017-04-06T15:35:03Z</time>
      </trkpt>
      <trkpt lat="44.39755" lon="6.17023">
        <ele>1008.9</ele>
        <time>2017-04-06T15:35:24Z</time>
      </trkpt>
      <trkpt lat="44.39776" lon="6.17029">
        <ele>1010.7</ele>
        <time>2017-04-06T15:35:43Z</time>
      </trkpt>
      <trkpt lat="44.39777" lon="6.1703">
        <ele>1010.8</ele>
        <time>2017-04-06T15:35:44Z</time>
      </trkpt>
      <trkpt lat="44.39778" lon="6.1703">
        <ele>1010.9</ele>
        <time>2017-04-06T15:35:45Z</time>
      </trkpt>
      <trkpt lat="44.39784" lon="6.17032">
        <ele>1010.9</ele>
        <time>2017-04-06T15:35:51Z</time>
      </trkpt>
      <trkpt lat="44.39795" lon="6.17034">
        <ele>1011.2</ele>
        <time>2017-04-06T15:36:02Z</time>
      </trkpt>
      <trkpt lat="44.39796" lon="6.17034">
        <ele>1011.2</ele>
        <time>2017-04-06T15:36:03Z</time>
      </trkpt>
      <trkpt lat="44.39797" lon="6.17035">
        <ele>1011.2</ele>
        <time>2017-04-06T15:36:04Z</time>
      </trkpt>
      <trkpt lat="44.39798" lon="6.17035">
        <ele>1011.2</ele>
        <time>2017-04-06T15:36:05Z</time>
      </trkpt>
      <trkpt lat="44.39799" lon="6.17035">
        <ele>1011.2</ele>
        <time>2017-04-06T15:36:06Z</time>
      </trkpt>
      <trkpt lat="44.39801" lon="6.17034">
        <ele>1011.3</ele>
        <time>2017-04-06T15:36:07Z</time>
      </trkpt>
      <trkpt lat="44.39821" lon="6.17035">
        <ele>1012.2</ele>
        <time>2017-04-06T15:36:25Z</time>
      </trkpt>
      <trkpt lat="44.39823" lon="6.17036">
        <ele>1012.2</ele>
        <time>2017-04-06T15:36:31Z</time>
      </trkpt>
      <trkpt lat="44.39802" lon="6.17102">
        <ele>1009</ele>
        <time>2017-04-06T15:43:59Z</time>
      </trkpt>
      <trkpt lat="44.39791" lon="6.17118">
        <ele>1007.8</ele>
        <time>2017-04-06T15:44:17Z</time>
      </trkpt>
      <trkpt lat="44.39794" lon="6.17127">
        <ele>1007.9</ele>
        <time>2017-04-06T15:44:30Z</time>
      </trkpt>
    </trkseg>
  </trk>
</gpx>